<?xml version="1.0" encoding="UTF-8"?>
<gpx version="1.1" creator="2bulu-scraper" xmlns="http://www.topografix.com/GPX/1/1">
  <metadata><name>大瓦山</name><desc>source: 2bulu.com trackId=72411133; exported 2026-09-01T16:00:13.073Z</desc>
    <bounds minlat="29.3428933" minlon="103.0158527" maxlat="29.3734619" maxlon="103.0335191"/>
    <link href="https://www.2bulu.com/track/t-AjIZ%252FCkixL7p%252FR2KBg5Tzw%253D%253D.htm"><text>2bulu 源页面</text></link>
  </metadata>
  <wpt lat="29.3734127" lon="103.0333875"><ele>1840</ele><name>
        </name></wpt>
  <wpt lat="29.371051" lon="103.031164"><ele>1858</ele><name>
        </name></wpt>
  <wpt lat="29.3702007" lon="103.0309611"><ele>1859</ele><name>
        </name></wpt>
  <wpt lat="29.3698563" lon="103.0306335"><ele>1866</ele><name>
        </name></wpt>
  <wpt lat="29.3686332" lon="103.0283684"><ele>1914</ele><name>
        </name></wpt>
  <wpt lat="29.368277" lon="103.0272548"><ele>1938</ele><name>
        </name></wpt>
  <wpt lat="29.3681976" lon="103.0220922"><ele>2044</ele><name>
        </name></wpt>
  <wpt lat="29.3682989" lon="103.0213761"><ele>2077</ele><name>
        </name></wpt>
  <wpt lat="29.3681539" lon="103.0211987"><ele>2094</ele><name>
        </name></wpt>
  <wpt lat="29.3666322" lon="103.0181949"><ele>2249</ele><name>
        </name></wpt>
  <wpt lat="29.3656563" lon="103.0164442"><ele>2412</ele><name>
        </name></wpt>
  <wpt lat="29.3631235" lon="103.0189739"><ele>2435</ele><name>
        </name></wpt>
  <wpt lat="29.3624489" lon="103.0191458"><ele>2435</ele><name>
        </name></wpt>
  <wpt lat="29.3621973" lon="103.01923"><ele>2437</ele><name>
        </name></wpt>
  <wpt lat="29.360003" lon="103.0195874"><ele>2539</ele><name>
        </name></wpt>
  <wpt lat="29.358364" lon="103.0195573"><ele>2678</ele><name>
        </name></wpt>
  <wpt lat="29.3582058" lon="103.0185519"><ele>2793</ele><name>双子梯
        </name></wpt>
  <wpt lat="29.3580055" lon="103.0186772"><ele>2803</ele><name>
        </name></wpt>
  <wpt lat="29.3577285" lon="103.0185833"><ele>2823</ele><name>
        </name></wpt>
  <wpt lat="29.357178" lon="103.01882"><ele>2887</ele><name>
        </name></wpt>
  <wpt lat="29.3570862" lon="103.018919"><ele>2904</ele><name>
        </name></wpt>
  <wpt lat="29.3570502" lon="103.0190579"><ele>2911</ele><name>
        </name></wpt>
  <wpt lat="29.3549857" lon="103.0203014"><ele>2961</ele><name>
        </name></wpt>
  <wpt lat="29.3548106" lon="103.0202983"><ele>2977</ele><name>
        </name></wpt>
  <wpt lat="29.3542652" lon="103.0202658"><ele>2986</ele><name>
        </name></wpt>
  <wpt lat="29.3538183" lon="103.020021"><ele>2999</ele><name>
        </name></wpt>
  <wpt lat="29.3533791" lon="103.0196113"><ele>3030</ele><name>
        </name></wpt>
  <wpt lat="29.3532035" lon="103.0195539"><ele>3048</ele><name>
        </name></wpt>
  <wpt lat="29.3527678" lon="103.0192846"><ele>3103</ele><name>
        </name></wpt>
  <wpt lat="29.3526946" lon="103.0192773"><ele>3116</ele><name>
        </name></wpt>
  <wpt lat="29.3500291" lon="103.0212853"><ele>3164</ele><name>
        </name></wpt>
  <wpt lat="29.3499148" lon="103.0216812"><ele>3168</ele><name>
        </name></wpt>
  <wpt lat="29.3432729" lon="103.023602"><ele>3150</ele><name>
        </name></wpt>
  <wpt lat="29.3429496" lon="103.0247816"><ele>3171</ele><name>
        </name></wpt>
  <wpt lat="29.3429526" lon="103.0247179"><ele>3165</ele><name>神庙
        </name></wpt>
  <wpt lat="29.3573495" lon="103.018737"><ele>2883</ele><name>下下下
        </name></wpt>
  <trk><name>大瓦山</name>
      <trkseg>
        <trkpt lat="29.3734312" lon="103.0335191"><ele>1846.95</ele><time>2025-09-23T15:47:12.000Z</time></trkpt>
        <trkpt lat="29.3734127" lon="103.0333875"><ele>1846.95</ele><time>2025-09-23T15:47:15.000Z</time></trkpt>
        <trkpt lat="29.373325" lon="103.0333335"><ele>1843.97</ele><time>2025-09-23T15:47:41.000Z</time></trkpt>
        <trkpt lat="29.3732783" lon="103.03324"><ele>1840.54</ele><time>2025-09-23T15:47:49.000Z</time></trkpt>
        <trkpt lat="29.373264" lon="103.0331311"><ele>1838.18</ele><time>2025-09-23T15:47:59.000Z</time></trkpt>
        <trkpt lat="29.3732877" lon="103.033026"><ele>1838.02</ele><time>2025-09-23T15:48:09.000Z</time></trkpt>
        <trkpt lat="29.373306" lon="103.0329071"><ele>1839.09</ele><time>2025-09-23T15:48:21.000Z</time></trkpt>
        <trkpt lat="29.3732799" lon="103.0328013"><ele>1840.13</ele><time>2025-09-23T15:48:31.000Z</time></trkpt>
        <trkpt lat="29.3732389" lon="103.0327014"><ele>1841.52</ele><time>2025-09-23T15:48:41.000Z</time></trkpt>
        <trkpt lat="29.3731855" lon="103.0326053"><ele>1842.56</ele><time>2025-09-23T15:48:51.000Z</time></trkpt>
        <trkpt lat="29.3731634" lon="103.0325045"><ele>1843.16</ele><time>2025-09-23T15:48:59.000Z</time></trkpt>
        <trkpt lat="29.3731409" lon="103.0323801"><ele>1841.79</ele><time>2025-09-23T15:49:10.000Z</time></trkpt>
        <trkpt lat="29.3731317" lon="103.0322856"><ele>1839.34</ele><time>2025-09-23T15:49:18.000Z</time></trkpt>
        <trkpt lat="29.3731421" lon="103.0321867"><ele>1837.11</ele><time>2025-09-23T15:49:36.000Z</time></trkpt>
        <trkpt lat="29.373131" lon="103.0320832"><ele>1835.62</ele><time>2025-09-23T15:49:48.000Z</time></trkpt>
        <trkpt lat="29.3731109" lon="103.0319775"><ele>1834.51</ele><time>2025-09-23T15:49:58.000Z</time></trkpt>
        <trkpt lat="29.3730549" lon="103.0318873"><ele>1833.94</ele><time>2025-09-23T15:50:06.000Z</time></trkpt>
        <trkpt lat="29.372984" lon="103.0318152"><ele>1833.09</ele><time>2025-09-23T15:50:14.000Z</time></trkpt>
        <trkpt lat="29.3729004" lon="103.0317382"><ele>1832.39</ele><time>2025-09-23T15:50:24.000Z</time></trkpt>
        <trkpt lat="29.3728251" lon="103.031664"><ele>1832.18</ele><time>2025-09-23T15:50:32.000Z</time></trkpt>
        <trkpt lat="29.3727612" lon="103.0315804"><ele>1831.55</ele><time>2025-09-23T15:50:41.000Z</time></trkpt>
        <trkpt lat="29.3726836" lon="103.0315009"><ele>1832.93</ele><time>2025-09-23T15:50:50.000Z</time></trkpt>
        <trkpt lat="29.3725895" lon="103.0314643"><ele>1835.82</ele><time>2025-09-23T15:51:00.000Z</time></trkpt>
        <trkpt lat="29.3724908" lon="103.0314902"><ele>1839.96</ele><time>2025-09-23T15:51:09.000Z</time></trkpt>
        <trkpt lat="29.3723988" lon="103.0315476"><ele>1841.88</ele><time>2025-09-23T15:51:17.000Z</time></trkpt>
        <trkpt lat="29.372303" lon="103.0315967"><ele>1843.37</ele><time>2025-09-23T15:51:27.000Z</time></trkpt>
        <trkpt lat="29.3722316" lon="103.0316748"><ele>1845.01</ele><time>2025-09-23T15:51:35.000Z</time></trkpt>
        <trkpt lat="29.3721424" lon="103.031743"><ele>1846.84</ele><time>2025-09-23T15:51:45.000Z</time></trkpt>
        <trkpt lat="29.3720516" lon="103.0318037"><ele>1847.96</ele><time>2025-09-23T15:51:53.000Z</time></trkpt>
        <trkpt lat="29.3719566" lon="103.0318646"><ele>1846.85</ele><time>2025-09-23T15:52:03.000Z</time></trkpt>
        <trkpt lat="29.3718539" lon="103.0318846"><ele>1844.3</ele><time>2025-09-23T15:52:13.000Z</time></trkpt>
        <trkpt lat="29.3717463" lon="103.0318752"><ele>1842.94</ele><time>2025-09-23T15:52:23.000Z</time></trkpt>
        <trkpt lat="29.3716574" lon="103.0318094"><ele>1843.97</ele><time>2025-09-23T15:52:33.000Z</time></trkpt>
        <trkpt lat="29.3715913" lon="103.0317207"><ele>1844.47</ele><time>2025-09-23T15:52:45.000Z</time></trkpt>
        <trkpt lat="29.3715159" lon="103.0316283"><ele>1846.42</ele><time>2025-09-23T15:53:03.000Z</time></trkpt>
        <trkpt lat="29.3714941" lon="103.0315885"><ele>1850.45</ele><time>2025-09-23T15:53:05.000Z</time></trkpt>
        <trkpt lat="29.3714373" lon="103.0315292"><ele>1852.63</ele><time>2025-09-23T15:53:19.000Z</time></trkpt>
        <trkpt lat="29.3713614" lon="103.031468"><ele>1852.97</ele><time>2025-09-23T15:53:31.000Z</time></trkpt>
        <trkpt lat="29.3712815" lon="103.0314074"><ele>1853.8</ele><time>2025-09-23T15:53:37.000Z</time></trkpt>
        <trkpt lat="29.3712129" lon="103.031329"><ele>1853.98</ele><time>2025-09-23T15:53:43.000Z</time></trkpt>
        <trkpt lat="29.3711389" lon="103.0312497"><ele>1854.23</ele><time>2025-09-23T15:53:53.000Z</time></trkpt>
        <trkpt lat="29.371051" lon="103.031164"><ele>1855.25</ele><time>2025-09-23T15:54:03.000Z</time></trkpt>
        <trkpt lat="29.3709604" lon="103.0311193"><ele>1856.45</ele><time>2025-09-23T15:54:11.000Z</time></trkpt>
        <trkpt lat="29.3708612" lon="103.0310717"><ele>1857.16</ele><time>2025-09-23T15:54:19.000Z</time></trkpt>
        <trkpt lat="29.3707681" lon="103.0310478"><ele>1856.71</ele><time>2025-09-23T15:54:27.000Z</time></trkpt>
        <trkpt lat="29.3706803" lon="103.0310181"><ele>1856.17</ele><time>2025-09-23T15:54:35.000Z</time></trkpt>
        <trkpt lat="29.3705893" lon="103.0309921"><ele>1855.61</ele><time>2025-09-23T15:54:43.000Z</time></trkpt>
        <trkpt lat="29.3704864" lon="103.0309758"><ele>1855.16</ele><time>2025-09-23T15:54:53.000Z</time></trkpt>
        <trkpt lat="29.3703891" lon="103.0309557"><ele>1856.04</ele><time>2025-09-23T15:55:01.000Z</time></trkpt>
        <trkpt lat="29.3702881" lon="103.0309482"><ele>1856.42</ele><time>2025-09-23T15:55:09.000Z</time></trkpt>
        <trkpt lat="29.3702007" lon="103.0309611"><ele>1856.78</ele><time>2025-09-23T15:55:22.000Z</time></trkpt>
        <trkpt lat="29.3701253" lon="103.0309098"><ele>1857.59</ele><time>2025-09-23T15:55:44.000Z</time></trkpt>
        <trkpt lat="29.3700377" lon="103.0308431"><ele>1858.81</ele><time>2025-09-23T15:56:28.000Z</time></trkpt>
        <trkpt lat="29.3699755" lon="103.0307572"><ele>1858.86</ele><time>2025-09-23T15:57:08.000Z</time></trkpt>
        <trkpt lat="29.369891" lon="103.0307202"><ele>1862.16</ele><time>2025-09-23T15:57:20.000Z</time></trkpt>
        <trkpt lat="29.3698563" lon="103.0306335"><ele>1864.29</ele><time>2025-09-23T15:57:28.000Z</time></trkpt>
        <trkpt lat="29.3698697" lon="103.0305272"><ele>1865.22</ele><time>2025-09-23T15:58:07.000Z</time></trkpt>
        <trkpt lat="29.3698199" lon="103.0304524"><ele>1866.56</ele><time>2025-09-23T15:58:37.000Z</time></trkpt>
        <trkpt lat="29.3697495" lon="103.030388"><ele>1867</ele><time>2025-09-23T15:58:55.000Z</time></trkpt>
        <trkpt lat="29.3697198" lon="103.0302876"><ele>1867.13</ele><time>2025-09-23T15:59:09.000Z</time></trkpt>
        <trkpt lat="29.3696728" lon="103.0301907"><ele>1868.18</ele><time>2025-09-23T15:59:27.000Z</time></trkpt>
        <trkpt lat="29.3696043" lon="103.0301002"><ele>1868.05</ele><time>2025-09-23T15:59:37.000Z</time></trkpt>
        <trkpt lat="29.3695274" lon="103.030019"><ele>1869.52</ele><time>2025-09-23T15:59:51.000Z</time></trkpt>
        <trkpt lat="29.3694528" lon="103.0299416"><ele>1873.92</ele><time>2025-09-23T16:00:07.000Z</time></trkpt>
        <trkpt lat="29.3693693" lon="103.0298799"><ele>1876.93</ele><time>2025-09-23T16:00:19.000Z</time></trkpt>
        <trkpt lat="29.3693041" lon="103.0298056"><ele>1880.47</ele><time>2025-09-23T16:00:33.000Z</time></trkpt>
        <trkpt lat="29.3692811" lon="103.0297038"><ele>1882.32</ele><time>2025-09-23T16:00:51.000Z</time></trkpt>
        <trkpt lat="29.369279" lon="103.0295881"><ele>1883.75</ele><time>2025-09-23T16:01:01.000Z</time></trkpt>
        <trkpt lat="29.3692206" lon="103.0295035"><ele>1885.6</ele><time>2025-09-23T16:01:11.000Z</time></trkpt>
        <trkpt lat="29.369145" lon="103.0294313"><ele>1887.74</ele><time>2025-09-23T16:01:27.000Z</time></trkpt>
        <trkpt lat="29.3690555" lon="103.0293989"><ele>1888.86</ele><time>2025-09-23T16:01:43.000Z</time></trkpt>
        <trkpt lat="29.3690073" lon="103.0293192"><ele>1889.63</ele><time>2025-09-23T16:01:57.000Z</time></trkpt>
        <trkpt lat="29.3689632" lon="103.0292269"><ele>1890.71</ele><time>2025-09-23T16:02:07.000Z</time></trkpt>
        <trkpt lat="29.368883" lon="103.0292004"><ele>1891.96</ele><time>2025-09-23T16:02:25.000Z</time></trkpt>
        <trkpt lat="29.3687975" lon="103.0291689"><ele>1892.42</ele><time>2025-09-23T16:02:35.000Z</time></trkpt>
        <trkpt lat="29.3687624" lon="103.0290858"><ele>1892.8</ele><time>2025-09-23T16:02:45.000Z</time></trkpt>
        <trkpt lat="29.368753" lon="103.0289797"><ele>1894.3</ele><time>2025-09-23T16:02:57.000Z</time></trkpt>
        <trkpt lat="29.3687983" lon="103.0288841"><ele>1896.06</ele><time>2025-09-23T16:03:11.000Z</time></trkpt>
        <trkpt lat="29.3687944" lon="103.0287763"><ele>1899.18</ele><time>2025-09-23T16:03:33.000Z</time></trkpt>
        <trkpt lat="29.3687681" lon="103.0286679"><ele>1901.16</ele><time>2025-09-23T16:03:47.000Z</time></trkpt>
        <trkpt lat="29.3687359" lon="103.02856"><ele>1903.05</ele><time>2025-09-23T16:04:01.000Z</time></trkpt>
        <trkpt lat="29.3686886" lon="103.0284626"><ele>1906.08</ele><time>2025-09-23T16:04:13.000Z</time></trkpt>
        <trkpt lat="29.3686332" lon="103.0283684"><ele>1907.75</ele><time>2025-09-23T16:04:29.000Z</time></trkpt>
        <trkpt lat="29.3685958" lon="103.0282623"><ele>1910.41</ele><time>2025-09-23T16:04:43.000Z</time></trkpt>
        <trkpt lat="29.368572" lon="103.0281583"><ele>1913.01</ele><time>2025-09-23T16:04:57.000Z</time></trkpt>
        <trkpt lat="29.3685268" lon="103.0280703"><ele>1915.83</ele><time>2025-09-23T16:05:11.000Z</time></trkpt>
        <trkpt lat="29.3684855" lon="103.0279738"><ele>1917.82</ele><time>2025-09-23T16:05:27.000Z</time></trkpt>
        <trkpt lat="29.3684564" lon="103.0278721"><ele>1919.43</ele><time>2025-09-23T16:05:41.000Z</time></trkpt>
        <trkpt lat="29.3684583" lon="103.0277615"><ele>1921.77</ele><time>2025-09-23T16:05:57.000Z</time></trkpt>
        <trkpt lat="29.3683748" lon="103.0277601"><ele>1923.56</ele><time>2025-09-23T16:07:14.000Z</time></trkpt>
        <trkpt lat="29.3682827" lon="103.0277577"><ele>1926.13</ele><time>2025-09-23T16:07:48.000Z</time></trkpt>
        <trkpt lat="29.3682314" lon="103.0276763"><ele>1927.88</ele><time>2025-09-23T16:08:00.000Z</time></trkpt>
        <trkpt lat="29.3682486" lon="103.0275727"><ele>1929.37</ele><time>2025-09-23T16:08:14.000Z</time></trkpt>
        <trkpt lat="29.3682979" lon="103.0274706"><ele>1930.75</ele><time>2025-09-23T16:08:24.000Z</time></trkpt>
        <trkpt lat="29.3683146" lon="103.0274456"><ele>1931.57</ele><time>2025-09-23T16:08:28.000Z</time></trkpt>
        <trkpt lat="29.3683016" lon="103.02736"><ele>1931.46</ele><time>2025-09-23T16:08:46.000Z</time></trkpt>
        <trkpt lat="29.368277" lon="103.0272548"><ele>1932.3</ele><time>2025-09-23T16:08:58.000Z</time></trkpt>
        <trkpt lat="29.3682248" lon="103.0271465"><ele>1934.76</ele><time>2025-09-23T16:09:12.000Z</time></trkpt>
        <trkpt lat="29.368159" lon="103.0270549"><ele>1936.18</ele><time>2025-09-23T16:09:24.000Z</time></trkpt>
        <trkpt lat="29.3680686" lon="103.0270339"><ele>1937.89</ele><time>2025-09-23T16:09:34.000Z</time></trkpt>
        <trkpt lat="29.3679675" lon="103.0269941"><ele>1939.81</ele><time>2025-09-23T16:09:46.000Z</time></trkpt>
        <trkpt lat="29.3678803" lon="103.0269308"><ele>1941.24</ele><time>2025-09-23T16:09:58.000Z</time></trkpt>
        <trkpt lat="29.3678332" lon="103.0268282"><ele>1943.91</ele><time>2025-09-23T16:10:10.000Z</time></trkpt>
        <trkpt lat="29.3678103" lon="103.0267173"><ele>1945.73</ele><time>2025-09-23T16:10:22.000Z</time></trkpt>
        <trkpt lat="29.3677791" lon="103.0266094"><ele>1947.92</ele><time>2025-09-23T16:10:34.000Z</time></trkpt>
        <trkpt lat="29.3677543" lon="103.0264939"><ele>1950.66</ele><time>2025-09-23T16:10:48.000Z</time></trkpt>
        <trkpt lat="29.3677225" lon="103.0263886"><ele>1953.97</ele><time>2025-09-23T16:11:02.000Z</time></trkpt>
        <trkpt lat="29.3676758" lon="103.0262849"><ele>1956.3</ele><time>2025-09-23T16:11:16.000Z</time></trkpt>
        <trkpt lat="29.3676134" lon="103.0261963"><ele>1958.74</ele><time>2025-09-23T16:11:30.000Z</time></trkpt>
        <trkpt lat="29.3675574" lon="103.0261092"><ele>1961.37</ele><time>2025-09-23T16:11:44.000Z</time></trkpt>
        <trkpt lat="29.367502" lon="103.0260193"><ele>1964.65</ele><time>2025-09-23T16:12:02.000Z</time></trkpt>
        <trkpt lat="29.3674561" lon="103.0259265"><ele>1968.89</ele><time>2025-09-23T16:12:26.000Z</time></trkpt>
        <trkpt lat="29.3674312" lon="103.025879"><ele>1971.58</ele><time>2025-09-23T16:12:34.000Z</time></trkpt>
        <trkpt lat="29.3673658" lon="103.0259115"><ele>1974.11</ele><time>2025-09-23T16:13:06.000Z</time></trkpt>
        <trkpt lat="29.3673099" lon="103.0259979"><ele>1977.59</ele><time>2025-09-23T16:13:14.000Z</time></trkpt>
        <trkpt lat="29.3672635" lon="103.0261121"><ele>1979.54</ele><time>2025-09-23T16:13:24.000Z</time></trkpt>
        <trkpt lat="29.3672103" lon="103.0262297"><ele>1980.41</ele><time>2025-09-23T16:13:36.000Z</time></trkpt>
        <trkpt lat="29.3671301" lon="103.026287"><ele>1982.07</ele><time>2025-09-23T16:13:46.000Z</time></trkpt>
        <trkpt lat="29.3670608" lon="103.0262331"><ele>1982.35</ele><time>2025-09-23T16:13:55.000Z</time></trkpt>
        <trkpt lat="29.367087" lon="103.0261284"><ele>1982.34</ele><time>2025-09-23T16:14:07.000Z</time></trkpt>
        <trkpt lat="29.3671079" lon="103.026005"><ele>1983.5</ele><time>2025-09-23T16:14:17.000Z</time></trkpt>
        <trkpt lat="29.3671237" lon="103.0258836"><ele>1985.59</ele><time>2025-09-23T16:14:25.000Z</time></trkpt>
        <trkpt lat="29.3671281" lon="103.0257578"><ele>1987.67</ele><time>2025-09-23T16:14:35.000Z</time></trkpt>
        <trkpt lat="29.3671443" lon="103.0256435"><ele>1988.35</ele><time>2025-09-23T16:14:45.000Z</time></trkpt>
        <trkpt lat="29.3672127" lon="103.0255492"><ele>1988.52</ele><time>2025-09-23T16:14:55.000Z</time></trkpt>
        <trkpt lat="29.3673077" lon="103.0255044"><ele>1988.75</ele><time>2025-09-23T16:15:03.000Z</time></trkpt>
        <trkpt lat="29.3674111" lon="103.025486"><ele>1988.58</ele><time>2025-09-23T16:15:11.000Z</time></trkpt>
        <trkpt lat="29.3675121" lon="103.0254637"><ele>1989.17</ele><time>2025-09-23T16:15:19.000Z</time></trkpt>
        <trkpt lat="29.3675977" lon="103.0253975"><ele>1990.13</ele><time>2025-09-23T16:15:29.000Z</time></trkpt>
        <trkpt lat="29.3676605" lon="103.0253167"><ele>1990.34</ele><time>2025-09-23T16:15:37.000Z</time></trkpt>
        <trkpt lat="29.3676885" lon="103.0252129"><ele>1990.7</ele><time>2025-09-23T16:15:47.000Z</time></trkpt>
        <trkpt lat="29.3677462" lon="103.0251371"><ele>1990.99</ele><time>2025-09-23T16:15:55.000Z</time></trkpt>
        <trkpt lat="29.3677962" lon="103.0250473"><ele>1990.69</ele><time>2025-09-23T16:16:03.000Z</time></trkpt>
        <trkpt lat="29.3678407" lon="103.0249471"><ele>1990.97</ele><time>2025-09-23T16:16:11.000Z</time></trkpt>
        <trkpt lat="29.3678839" lon="103.0248428"><ele>1991.21</ele><time>2025-09-23T16:16:19.000Z</time></trkpt>
        <trkpt lat="29.3679041" lon="103.0247282"><ele>1991.11</ele><time>2025-09-23T16:16:27.000Z</time></trkpt>
        <trkpt lat="29.3679004" lon="103.0246059"><ele>1991.63</ele><time>2025-09-23T16:16:35.000Z</time></trkpt>
        <trkpt lat="29.3679041" lon="103.0244927"><ele>1992.37</ele><time>2025-09-23T16:16:43.000Z</time></trkpt>
        <trkpt lat="29.3679475" lon="103.0244029"><ele>1993.64</ele><time>2025-09-23T16:16:51.000Z</time></trkpt>
        <trkpt lat="29.3679991" lon="103.0243076"><ele>1994.68</ele><time>2025-09-23T16:16:59.000Z</time></trkpt>
        <trkpt lat="29.3680274" lon="103.0241972"><ele>1995.75</ele><time>2025-09-23T16:17:07.000Z</time></trkpt>
        <trkpt lat="29.3680117" lon="103.0240876"><ele>1995.92</ele><time>2025-09-23T16:17:15.000Z</time></trkpt>
        <trkpt lat="29.3679968" lon="103.0239819"><ele>1996.22</ele><time>2025-09-23T16:17:23.000Z</time></trkpt>
        <trkpt lat="29.3680097" lon="103.0238629"><ele>1994.69</ele><time>2025-09-23T16:17:33.000Z</time></trkpt>
        <trkpt lat="29.368046" lon="103.0237591"><ele>1995.92</ele><time>2025-09-23T16:17:41.000Z</time></trkpt>
        <trkpt lat="29.3681279" lon="103.0237164"><ele>1998.07</ele><time>2025-09-23T16:17:51.000Z</time></trkpt>
        <trkpt lat="29.368223" lon="103.0236658"><ele>2001.65</ele><time>2025-09-23T16:18:01.000Z</time></trkpt>
        <trkpt lat="29.3683067" lon="103.0235856"><ele>2003.68</ele><time>2025-09-23T16:18:11.000Z</time></trkpt>
        <trkpt lat="29.3683864" lon="103.0235077"><ele>2004.96</ele><time>2025-09-23T16:18:21.000Z</time></trkpt>
        <trkpt lat="29.3684833" lon="103.0234571"><ele>2004.56</ele><time>2025-09-23T16:18:31.000Z</time></trkpt>
        <trkpt lat="29.3685905" lon="103.0234059"><ele>2005.47</ele><time>2025-09-23T16:18:41.000Z</time></trkpt>
        <trkpt lat="29.368642" lon="103.0233202"><ele>2005.95</ele><time>2025-09-23T16:18:51.000Z</time></trkpt>
        <trkpt lat="29.3685946" lon="103.0232407"><ele>2006.48</ele><time>2025-09-23T16:19:03.000Z</time></trkpt>
        <trkpt lat="29.3685091" lon="103.0231637"><ele>2007.57</ele><time>2025-09-23T16:19:17.000Z</time></trkpt>
        <trkpt lat="29.3684426" lon="103.0230755"><ele>2008.33</ele><time>2025-09-23T16:19:31.000Z</time></trkpt>
        <trkpt lat="29.3683955" lon="103.0229734"><ele>2010.18</ele><time>2025-09-23T16:19:45.000Z</time></trkpt>
        <trkpt lat="29.3683765" lon="103.0228625"><ele>2013.13</ele><time>2025-09-23T16:20:17.000Z</time></trkpt>
        <trkpt lat="29.3683462" lon="103.0227519"><ele>2014.02</ele><time>2025-09-23T16:20:37.000Z</time></trkpt>
        <trkpt lat="29.3683119" lon="103.0226447"><ele>2018.45</ele><time>2025-09-23T16:20:51.000Z</time></trkpt>
        <trkpt lat="29.3682667" lon="103.0225767"><ele>2021.55</ele><time>2025-09-23T16:21:09.000Z</time></trkpt>
        <trkpt lat="29.3682157" lon="103.0224983"><ele>2025.79</ele><time>2025-09-23T16:21:33.000Z</time></trkpt>
        <trkpt lat="29.3681941" lon="103.0223968"><ele>2028.51</ele><time>2025-09-23T16:21:47.000Z</time></trkpt>
        <trkpt lat="29.3681642" lon="103.0222986"><ele>2030</ele><time>2025-09-23T16:22:18.000Z</time></trkpt>
        <trkpt lat="29.3681709" lon="103.0221969"><ele>2034.08</ele><time>2025-09-23T16:22:34.000Z</time></trkpt>
        <trkpt lat="29.3681976" lon="103.0220922"><ele>2037.31</ele><time>2025-09-23T16:22:52.000Z</time></trkpt>
        <trkpt lat="29.3682078" lon="103.0219859"><ele>2040.08</ele><time>2025-09-23T16:24:04.000Z</time></trkpt>
        <trkpt lat="29.3682592" lon="103.0219002"><ele>2045.06</ele><time>2025-09-23T16:24:28.000Z</time></trkpt>
        <trkpt lat="29.3682373" lon="103.0218009"><ele>2048.97</ele><time>2025-09-23T16:24:44.000Z</time></trkpt>
        <trkpt lat="29.3682568" lon="103.0217039"><ele>2052.61</ele><time>2025-09-23T16:24:56.000Z</time></trkpt>
        <trkpt lat="29.3682707" lon="103.0215971"><ele>2054.69</ele><time>2025-09-23T16:25:14.000Z</time></trkpt>
        <trkpt lat="29.368241" lon="103.021495"><ele>2059.39</ele><time>2025-09-23T16:25:34.000Z</time></trkpt>
        <trkpt lat="29.3682794" lon="103.0214157"><ele>2066.75</ele><time>2025-09-23T16:25:50.000Z</time></trkpt>
        <trkpt lat="29.3682989" lon="103.0213761"><ele>2071.02</ele><time>2025-09-23T16:25:56.000Z</time></trkpt>
        <trkpt lat="29.368267" lon="103.0212926"><ele>2073.64</ele><time>2025-09-23T16:27:10.000Z</time></trkpt>
        <trkpt lat="29.368191" lon="103.0212167"><ele>2077.13</ele><time>2025-09-23T16:27:35.000Z</time></trkpt>
        <trkpt lat="29.3681539" lon="103.0211987"><ele>2082.85</ele><time>2025-09-23T16:27:41.000Z</time></trkpt>
        <trkpt lat="29.3681043" lon="103.0211208"><ele>2087.52</ele><time>2025-09-23T16:28:03.000Z</time></trkpt>
        <trkpt lat="29.3680493" lon="103.0210295"><ele>2088.56</ele><time>2025-09-23T16:28:25.000Z</time></trkpt>
        <trkpt lat="29.3679939" lon="103.0209368"><ele>2091.16</ele><time>2025-09-23T16:28:43.000Z</time></trkpt>
        <trkpt lat="29.3679972" lon="103.0208341"><ele>2095.27</ele><time>2025-09-23T16:28:57.000Z</time></trkpt>
        <trkpt lat="29.3679696" lon="103.0207382"><ele>2097.21</ele><time>2025-09-23T16:29:17.000Z</time></trkpt>
        <trkpt lat="29.367922" lon="103.0206398"><ele>2099.99</ele><time>2025-09-23T16:29:35.000Z</time></trkpt>
        <trkpt lat="29.3678542" lon="103.0205634"><ele>2104.82</ele><time>2025-09-23T16:29:53.000Z</time></trkpt>
        <trkpt lat="29.3677747" lon="103.0205062"><ele>2111.42</ele><time>2025-09-23T16:30:21.000Z</time></trkpt>
        <trkpt lat="29.3676892" lon="103.0204512"><ele>2114.99</ele><time>2025-09-23T16:30:37.000Z</time></trkpt>
        <trkpt lat="29.3676152" lon="103.0203873"><ele>2121.17</ele><time>2025-09-23T16:30:57.000Z</time></trkpt>
        <trkpt lat="29.3675341" lon="103.0203404"><ele>2127.33</ele><time>2025-09-23T16:31:13.000Z</time></trkpt>
        <trkpt lat="29.3674691" lon="103.0202624"><ele>2131.62</ele><time>2025-09-23T16:31:33.000Z</time></trkpt>
        <trkpt lat="29.3674819" lon="103.0201693"><ele>2136.44</ele><time>2025-09-23T16:31:49.000Z</time></trkpt>
        <trkpt lat="29.3674209" lon="103.0201264"><ele>2139.88</ele><time>2025-09-23T16:35:11.000Z</time></trkpt>
        <trkpt lat="29.367361" lon="103.0200391"><ele>2144.04</ele><time>2025-09-23T16:35:29.000Z</time></trkpt>
        <trkpt lat="29.3672896" lon="103.0199748"><ele>2148.93</ele><time>2025-09-23T16:35:49.000Z</time></trkpt>
        <trkpt lat="29.3672212" lon="103.0198998"><ele>2155.52</ele><time>2025-09-23T16:36:21.000Z</time></trkpt>
        <trkpt lat="29.3671567" lon="103.0198208"><ele>2161.24</ele><time>2025-09-23T16:36:43.000Z</time></trkpt>
        <trkpt lat="29.3671214" lon="103.0197258"><ele>2166.48</ele><time>2025-09-23T16:37:13.000Z</time></trkpt>
        <trkpt lat="29.3670902" lon="103.019619"><ele>2170.75</ele><time>2025-09-23T16:37:33.000Z</time></trkpt>
        <trkpt lat="29.367013" lon="103.019583"><ele>2174.36</ele><time>2025-09-23T16:37:51.000Z</time></trkpt>
        <trkpt lat="29.3669721" lon="103.0195048"><ele>2177.96</ele><time>2025-09-23T16:38:13.000Z</time></trkpt>
        <trkpt lat="29.3669496" lon="103.0194073"><ele>2180.91</ele><time>2025-09-23T16:38:41.000Z</time></trkpt>
        <trkpt lat="29.3669544" lon="103.0192916"><ele>2184.42</ele><time>2025-09-23T16:38:53.000Z</time></trkpt>
        <trkpt lat="29.3669215" lon="103.0191892"><ele>2188.02</ele><time>2025-09-23T16:39:13.000Z</time></trkpt>
        <trkpt lat="29.3668558" lon="103.0191146"><ele>2191.77</ele><time>2025-09-23T16:39:40.000Z</time></trkpt>
        <trkpt lat="29.3668726" lon="103.0190244"><ele>2196.2</ele><time>2025-09-23T16:39:52.000Z</time></trkpt>
        <trkpt lat="29.3668488" lon="103.0189586"><ele>2200.41</ele><time>2025-09-23T16:40:14.000Z</time></trkpt>
        <trkpt lat="29.3668689" lon="103.0188677"><ele>2205</ele><time>2025-09-23T16:40:42.000Z</time></trkpt>
        <trkpt lat="29.3668794" lon="103.0188486"><ele>2210.26</ele><time>2025-09-23T16:40:52.000Z</time></trkpt>
        <trkpt lat="29.3668312" lon="103.0187799"><ele>2213.43</ele><time>2025-09-23T16:41:52.000Z</time></trkpt>
        <trkpt lat="29.3668002" lon="103.0186789"><ele>2216.09</ele><time>2025-09-23T16:42:04.000Z</time></trkpt>
        <trkpt lat="29.3668014" lon="103.0186769"><ele>2217.94</ele><time>2025-09-23T16:42:16.000Z</time></trkpt>
        <trkpt lat="29.3667594" lon="103.0186076"><ele>2222.69</ele><time>2025-09-23T16:42:30.000Z</time></trkpt>
        <trkpt lat="29.3667324" lon="103.0185117"><ele>2225.82</ele><time>2025-09-23T16:42:54.000Z</time></trkpt>
        <trkpt lat="29.3666953" lon="103.0184071"><ele>2230.44</ele><time>2025-09-23T16:43:20.000Z</time></trkpt>
        <trkpt lat="29.3666738" lon="103.0182989"><ele>2235.54</ele><time>2025-09-23T16:43:44.000Z</time></trkpt>
        <trkpt lat="29.3666322" lon="103.0181949"><ele>2240.02</ele><time>2025-09-23T16:44:06.000Z</time></trkpt>
        <trkpt lat="29.3666408" lon="103.0180937"><ele>2243.69</ele><time>2025-09-23T16:44:32.000Z</time></trkpt>
        <trkpt lat="29.3666291" lon="103.0179927"><ele>2248.26</ele><time>2025-09-23T16:45:12.000Z</time></trkpt>
        <trkpt lat="29.3665928" lon="103.0178956"><ele>2254.57</ele><time>2025-09-23T16:45:36.000Z</time></trkpt>
        <trkpt lat="29.3665772" lon="103.0177946"><ele>2260.36</ele><time>2025-09-23T16:46:04.000Z</time></trkpt>
        <trkpt lat="29.3665086" lon="103.0177309"><ele>2265.84</ele><time>2025-09-23T16:46:30.000Z</time></trkpt>
        <trkpt lat="29.3664644" lon="103.0176409"><ele>2271.26</ele><time>2025-09-23T16:46:50.000Z</time></trkpt>
        <trkpt lat="29.366519" lon="103.01754"><ele>2274.65</ele><time>2025-09-23T16:50:34.000Z</time></trkpt>
        <trkpt lat="29.3665429" lon="103.0174352"><ele>2280.85</ele><time>2025-09-23T16:50:58.000Z</time></trkpt>
        <trkpt lat="29.3665848" lon="103.0173313"><ele>2286.99</ele><time>2025-09-23T16:51:30.000Z</time></trkpt>
        <trkpt lat="29.3665599" lon="103.0172327"><ele>2291.89</ele><time>2025-09-23T16:52:00.000Z</time></trkpt>
        <trkpt lat="29.3665843" lon="103.0171411"><ele>2300.38</ele><time>2025-09-23T16:52:34.000Z</time></trkpt>
        <trkpt lat="29.3666172" lon="103.0170463"><ele>2306.2</ele><time>2025-09-23T16:53:00.000Z</time></trkpt>
        <trkpt lat="29.3666392" lon="103.0169466"><ele>2311.72</ele><time>2025-09-23T16:53:32.000Z</time></trkpt>
        <trkpt lat="29.3666588" lon="103.0168441"><ele>2315.9</ele><time>2025-09-23T16:54:26.000Z</time></trkpt>
        <trkpt lat="29.3666779" lon="103.016735"><ele>2318.19</ele><time>2025-09-23T16:54:42.000Z</time></trkpt>
        <trkpt lat="29.3667535" lon="103.0166827"><ele>2318.96</ele><time>2025-09-23T16:55:00.000Z</time></trkpt>
        <trkpt lat="29.3668511" lon="103.0166721"><ele>2321.1</ele><time>2025-09-23T16:55:30.000Z</time></trkpt>
        <trkpt lat="29.3669099" lon="103.0166017"><ele>2324.92</ele><time>2025-09-23T16:56:00.000Z</time></trkpt>
        <trkpt lat="29.3669869" lon="103.0165253"><ele>2332.17</ele><time>2025-09-23T16:56:37.000Z</time></trkpt>
        <trkpt lat="29.3670162" lon="103.0164272"><ele>2341.65</ele><time>2025-09-23T16:57:03.000Z</time></trkpt>
        <trkpt lat="29.3670163" lon="103.0163083"><ele>2348.62</ele><time>2025-09-23T16:57:27.000Z</time></trkpt>
        <trkpt lat="29.3670634" lon="103.0162255"><ele>2354.32</ele><time>2025-09-23T16:57:55.000Z</time></trkpt>
        <trkpt lat="29.3670839" lon="103.0161229"><ele>2360.35</ele><time>2025-09-23T16:58:41.000Z</time></trkpt>
        <trkpt lat="29.3671211" lon="103.0160655"><ele>2368.16</ele><time>2025-09-23T16:59:01.000Z</time></trkpt>
        <trkpt lat="29.3671733" lon="103.0159899"><ele>2374.96</ele><time>2025-09-23T16:59:56.000Z</time></trkpt>
        <trkpt lat="29.3670859" lon="103.0159411"><ele>2383.37</ele><time>2025-09-23T17:01:48.000Z</time></trkpt>
        <trkpt lat="29.3669901" lon="103.0159297"><ele>2390.73</ele><time>2025-09-23T17:02:14.000Z</time></trkpt>
        <trkpt lat="29.3668908" lon="103.0159273"><ele>2395.98</ele><time>2025-09-23T17:02:24.000Z</time></trkpt>
        <trkpt lat="29.3667964" lon="103.0159346"><ele>2398.84</ele><time>2025-09-23T17:02:32.000Z</time></trkpt>
        <trkpt lat="29.3666982" lon="103.0159202"><ele>2400.58</ele><time>2025-09-23T17:02:42.000Z</time></trkpt>
        <trkpt lat="29.3666019" lon="103.0158861"><ele>2402.94</ele><time>2025-09-23T17:02:54.000Z</time></trkpt>
        <trkpt lat="29.3665126" lon="103.0158527"><ele>2402.81</ele><time>2025-09-23T17:03:02.000Z</time></trkpt>
        <trkpt lat="29.3664088" lon="103.0158564"><ele>2402.56</ele><time>2025-09-23T17:03:12.000Z</time></trkpt>
        <trkpt lat="29.3663032" lon="103.0158882"><ele>2402.48</ele><time>2025-09-23T17:03:22.000Z</time></trkpt>
        <trkpt lat="29.3661971" lon="103.0159343"><ele>2401.58</ele><time>2025-09-23T17:03:32.000Z</time></trkpt>
        <trkpt lat="29.3661052" lon="103.0159821"><ele>2401.32</ele><time>2025-09-23T17:03:42.000Z</time></trkpt>
        <trkpt lat="29.3660164" lon="103.0160373"><ele>2401.3</ele><time>2025-09-23T17:04:10.000Z</time></trkpt>
        <trkpt lat="29.3659509" lon="103.0161439"><ele>2400.69</ele><time>2025-09-23T17:04:16.000Z</time></trkpt>
        <trkpt lat="29.3658786" lon="103.0162285"><ele>2401.54</ele><time>2025-09-23T17:04:26.000Z</time></trkpt>
        <trkpt lat="29.3657982" lon="103.0162956"><ele>2403.44</ele><time>2025-09-23T17:04:38.000Z</time></trkpt>
        <trkpt lat="29.3657255" lon="103.0163711"><ele>2404.67</ele><time>2025-09-23T17:04:48.000Z</time></trkpt>
        <trkpt lat="29.3656563" lon="103.0164442"><ele>2406.76</ele><time>2025-09-23T17:04:58.000Z</time></trkpt>
        <trkpt lat="29.3655744" lon="103.0165027"><ele>2408.96</ele><time>2025-09-23T17:05:12.000Z</time></trkpt>
        <trkpt lat="29.3654886" lon="103.0165457"><ele>2410.95</ele><time>2025-09-23T17:05:24.000Z</time></trkpt>
        <trkpt lat="29.3654023" lon="103.0165984"><ele>2412.25</ele><time>2025-09-23T17:05:36.000Z</time></trkpt>
        <trkpt lat="29.3653158" lon="103.016661"><ele>2413.43</ele><time>2025-09-23T17:05:48.000Z</time></trkpt>
        <trkpt lat="29.3652489" lon="103.0167474"><ele>2415.21</ele><time>2025-09-23T17:05:58.000Z</time></trkpt>
        <trkpt lat="29.3651879" lon="103.0168457"><ele>2416.67</ele><time>2025-09-23T17:06:08.000Z</time></trkpt>
        <trkpt lat="29.3651456" lon="103.0169463"><ele>2416.3</ele><time>2025-09-23T17:06:16.000Z</time></trkpt>
        <trkpt lat="29.3651451" lon="103.0169796"><ele>2415.95</ele><time>2025-09-23T17:06:18.000Z</time></trkpt>
        <trkpt lat="29.3650919" lon="103.0170509"><ele>2415.54</ele><time>2025-09-23T17:07:28.000Z</time></trkpt>
        <trkpt lat="29.3650104" lon="103.0171294"><ele>2416.16</ele><time>2025-09-23T17:07:42.000Z</time></trkpt>
        <trkpt lat="29.3649541" lon="103.0172163"><ele>2416.57</ele><time>2025-09-23T17:07:52.000Z</time></trkpt>
        <trkpt lat="29.3648721" lon="103.0172849"><ele>2416.62</ele><time>2025-09-23T17:08:06.000Z</time></trkpt>
        <trkpt lat="29.3648087" lon="103.0173647"><ele>2416.06</ele><time>2025-09-23T17:08:16.000Z</time></trkpt>
        <trkpt lat="29.3647436" lon="103.0174537"><ele>2416.5</ele><time>2025-09-23T17:08:28.000Z</time></trkpt>
        <trkpt lat="29.3646837" lon="103.017536"><ele>2417.69</ele><time>2025-09-23T17:08:40.000Z</time></trkpt>
        <trkpt lat="29.3646026" lon="103.017576"><ele>2420.38</ele><time>2025-09-23T17:08:54.000Z</time></trkpt>
        <trkpt lat="29.36452" lon="103.017627"><ele>2421.35</ele><time>2025-09-23T17:09:06.000Z</time></trkpt>
        <trkpt lat="29.3644369" lon="103.0176842"><ele>2422.71</ele><time>2025-09-23T17:09:18.000Z</time></trkpt>
        <trkpt lat="29.3643867" lon="103.0177693"><ele>2422.54</ele><time>2025-09-23T17:09:26.000Z</time></trkpt>
        <trkpt lat="29.3643399" lon="103.0178581"><ele>2422.86</ele><time>2025-09-23T17:09:38.000Z</time></trkpt>
        <trkpt lat="29.36426" lon="103.0178972"><ele>2424.35</ele><time>2025-09-23T17:09:48.000Z</time></trkpt>
        <trkpt lat="29.3641853" lon="103.0179707"><ele>2423.69</ele><time>2025-09-23T17:10:02.000Z</time></trkpt>
        <trkpt lat="29.3641123" lon="103.0180488"><ele>2425.15</ele><time>2025-09-23T17:10:14.000Z</time></trkpt>
        <trkpt lat="29.3640619" lon="103.0181405"><ele>2425.42</ele><time>2025-09-23T17:10:24.000Z</time></trkpt>
        <trkpt lat="29.3640011" lon="103.0182314"><ele>2426.05</ele><time>2025-09-23T17:10:36.000Z</time></trkpt>
        <trkpt lat="29.3639507" lon="103.0183305"><ele>2427.17</ele><time>2025-09-23T17:10:46.000Z</time></trkpt>
        <trkpt lat="29.3639478" lon="103.0184441"><ele>2426.96</ele><time>2025-09-23T17:10:56.000Z</time></trkpt>
        <trkpt lat="29.3639333" lon="103.0185553"><ele>2426.79</ele><time>2025-09-23T17:11:10.000Z</time></trkpt>
        <trkpt lat="29.3639123" lon="103.0186714"><ele>2428.82</ele><time>2025-09-23T17:11:22.000Z</time></trkpt>
        <trkpt lat="29.3638552" lon="103.0187538"><ele>2430.27</ele><time>2025-09-23T17:11:38.000Z</time></trkpt>
        <trkpt lat="29.3638307" lon="103.0188542"><ele>2431.16</ele><time>2025-09-23T17:11:48.000Z</time></trkpt>
        <trkpt lat="29.3638281" lon="103.0189623"><ele>2431.97</ele><time>2025-09-23T17:11:58.000Z</time></trkpt>
        <trkpt lat="29.3638739" lon="103.0190595"><ele>2432.85</ele><time>2025-09-23T17:12:10.000Z</time></trkpt>
        <trkpt lat="29.3638465" lon="103.0191474"><ele>2433.26</ele><time>2025-09-23T17:12:44.000Z</time></trkpt>
        <trkpt lat="29.363808" lon="103.0192414"><ele>2433.62</ele><time>2025-09-23T17:13:02.000Z</time></trkpt>
        <trkpt lat="29.363765" lon="103.0193431"><ele>2435.6</ele><time>2025-09-23T17:13:16.000Z</time></trkpt>
        <trkpt lat="29.3637217" lon="103.0194465"><ele>2436.43</ele><time>2025-09-23T17:13:42.000Z</time></trkpt>
        <trkpt lat="29.3636752" lon="103.0195419"><ele>2435.65</ele><time>2025-09-23T17:13:50.000Z</time></trkpt>
        <trkpt lat="29.3636152" lon="103.0196311"><ele>2435.68</ele><time>2025-09-23T17:14:00.000Z</time></trkpt>
        <trkpt lat="29.3635445" lon="103.0197177"><ele>2436.11</ele><time>2025-09-23T17:14:10.000Z</time></trkpt>
        <trkpt lat="29.3634698" lon="103.0197998"><ele>2436.23</ele><time>2025-09-23T17:14:22.000Z</time></trkpt>
        <trkpt lat="29.3633775" lon="103.0198146"><ele>2437.08</ele><time>2025-09-23T17:14:42.000Z</time></trkpt>
        <trkpt lat="29.3632803" lon="103.0198035"><ele>2437.17</ele><time>2025-09-23T17:14:52.000Z</time></trkpt>
        <trkpt lat="29.3631905" lon="103.0197499"><ele>2436.55</ele><time>2025-09-23T17:15:04.000Z</time></trkpt>
        <trkpt lat="29.3631455" lon="103.0196434"><ele>2435.53</ele><time>2025-09-23T17:15:14.000Z</time></trkpt>
        <trkpt lat="29.3631451" lon="103.0195233"><ele>2434.48</ele><time>2025-09-23T17:15:24.000Z</time></trkpt>
        <trkpt lat="29.36316" lon="103.0194081"><ele>2433.93</ele><time>2025-09-23T17:15:34.000Z</time></trkpt>
        <trkpt lat="29.3631817" lon="103.019292"><ele>2433.91</ele><time>2025-09-23T17:15:46.000Z</time></trkpt>
        <trkpt lat="29.3631874" lon="103.0191801"><ele>2434.12</ele><time>2025-09-23T17:15:56.000Z</time></trkpt>
        <trkpt lat="29.3631675" lon="103.0190706"><ele>2433.5</ele><time>2025-09-23T17:16:06.000Z</time></trkpt>
        <trkpt lat="29.3631235" lon="103.0189739"><ele>2433.43</ele><time>2025-09-23T17:16:20.000Z</time></trkpt>
        <trkpt lat="29.363045" lon="103.0189155"><ele>2434.26</ele><time>2025-09-23T17:16:54.000Z</time></trkpt>
        <trkpt lat="29.3629493" lon="103.0188964"><ele>2434.86</ele><time>2025-09-23T17:17:08.000Z</time></trkpt>
        <trkpt lat="29.362855" lon="103.0188702"><ele>2435.61</ele><time>2025-09-23T17:17:36.000Z</time></trkpt>
        <trkpt lat="29.3628313" lon="103.0188693"><ele>2436.62</ele><time>2025-09-23T17:17:38.000Z</time></trkpt>
        <trkpt lat="29.3628983" lon="103.0188978"><ele>2437.15</ele><time>2025-09-23T17:18:08.000Z</time></trkpt>
        <trkpt lat="29.3628792" lon="103.0189756"><ele>2436.77</ele><time>2025-09-23T17:18:26.000Z</time></trkpt>
        <trkpt lat="29.3628064" lon="103.0190229"><ele>2436.7</ele><time>2025-09-23T17:18:50.000Z</time></trkpt>
        <trkpt lat="29.3627153" lon="103.0189925"><ele>2436.76</ele><time>2025-09-23T17:19:08.000Z</time></trkpt>
        <trkpt lat="29.3626288" lon="103.0190357"><ele>2436.68</ele><time>2025-09-23T17:19:24.000Z</time></trkpt>
        <trkpt lat="29.3625452" lon="103.0191115"><ele>2437.29</ele><time>2025-09-23T17:19:36.000Z</time></trkpt>
        <trkpt lat="29.3624489" lon="103.0191458"><ele>2436.96</ele><time>2025-09-23T17:19:54.000Z</time></trkpt>
        <trkpt lat="29.3623568" lon="103.0191329"><ele>2436.25</ele><time>2025-09-23T17:20:18.000Z</time></trkpt>
        <trkpt lat="29.3622733" lon="103.0191692"><ele>2435.14</ele><time>2025-09-23T17:20:49.000Z</time></trkpt>
        <trkpt lat="29.3621973" lon="103.01923"><ele>2434.75</ele><time>2025-09-23T17:21:25.000Z</time></trkpt>
        <trkpt lat="29.3621089" lon="103.0192759"><ele>2435.63</ele><time>2025-09-23T17:22:02.000Z</time></trkpt>
        <trkpt lat="29.3620318" lon="103.0193358"><ele>2435.07</ele><time>2025-09-23T17:22:24.000Z</time></trkpt>
        <trkpt lat="29.361955" lon="103.0193975"><ele>2437.52</ele><time>2025-09-23T17:22:48.000Z</time></trkpt>
        <trkpt lat="29.3618651" lon="103.019394"><ele>2439.98</ele><time>2025-09-23T17:23:00.000Z</time></trkpt>
        <trkpt lat="29.3617712" lon="103.0193922"><ele>2440.81</ele><time>2025-09-23T17:23:22.000Z</time></trkpt>
        <trkpt lat="29.3616737" lon="103.0193828"><ele>2440.41</ele><time>2025-09-23T17:23:50.000Z</time></trkpt>
        <trkpt lat="29.3615789" lon="103.0193586"><ele>2443.96</ele><time>2025-09-23T17:24:24.000Z</time></trkpt>
        <trkpt lat="29.361486" lon="103.019347"><ele>2447.99</ele><time>2025-09-23T17:24:36.000Z</time></trkpt>
        <trkpt lat="29.3613923" lon="103.0193671"><ele>2453.23</ele><time>2025-09-23T17:25:11.000Z</time></trkpt>
        <trkpt lat="29.3613094" lon="103.0193386"><ele>2458.01</ele><time>2025-09-23T17:25:25.000Z</time></trkpt>
        <trkpt lat="29.3612295" lon="103.019367"><ele>2462.4</ele><time>2025-09-23T17:25:59.000Z</time></trkpt>
        <trkpt lat="29.3611385" lon="103.019367"><ele>2468.3</ele><time>2025-09-23T17:26:17.000Z</time></trkpt>
        <trkpt lat="29.3610576" lon="103.0194117"><ele>2472.24</ele><time>2025-09-23T17:26:43.000Z</time></trkpt>
        <trkpt lat="29.3609708" lon="103.0194132"><ele>2475.87</ele><time>2025-09-23T17:27:19.000Z</time></trkpt>
        <trkpt lat="29.3608794" lon="103.0194379"><ele>2481.8</ele><time>2025-09-23T17:27:39.000Z</time></trkpt>
        <trkpt lat="29.360802" lon="103.0194935"><ele>2487.8</ele><time>2025-09-23T17:28:03.000Z</time></trkpt>
        <trkpt lat="29.3607097" lon="103.0194903"><ele>2492.78</ele><time>2025-09-23T17:28:19.000Z</time></trkpt>
        <trkpt lat="29.3606199" lon="103.0195223"><ele>2495.58</ele><time>2025-09-23T17:28:37.000Z</time></trkpt>
        <trkpt lat="29.3605681" lon="103.0196031"><ele>2497.6</ele><time>2025-09-23T17:28:55.000Z</time></trkpt>
        <trkpt lat="29.3604953" lon="103.0196661"><ele>2499.61</ele><time>2025-09-23T17:29:39.000Z</time></trkpt>
        <trkpt lat="29.3604119" lon="103.0197058"><ele>2503.12</ele><time>2025-09-23T17:30:01.000Z</time></trkpt>
        <trkpt lat="29.3603296" lon="103.0196579"><ele>2507.42</ele><time>2025-09-23T17:30:49.000Z</time></trkpt>
        <trkpt lat="29.3602438" lon="103.0195735"><ele>2512.27</ele><time>2025-09-23T17:31:50.000Z</time></trkpt>
        <trkpt lat="29.3601611" lon="103.0195324"><ele>2518.48</ele><time>2025-09-23T17:32:12.000Z</time></trkpt>
        <trkpt lat="29.3600711" lon="103.0195238"><ele>2521.79</ele><time>2025-09-23T17:32:48.000Z</time></trkpt>
        <trkpt lat="29.360003" lon="103.0195874"><ele>2526.56</ele><time>2025-09-23T17:33:12.000Z</time></trkpt>
        <trkpt lat="29.3599187" lon="103.0196044"><ele>2531.82</ele><time>2025-09-23T17:33:54.000Z</time></trkpt>
        <trkpt lat="29.3598287" lon="103.0196083"><ele>2536.04</ele><time>2025-09-23T17:34:32.000Z</time></trkpt>
        <trkpt lat="29.3597532" lon="103.0196576"><ele>2540.58</ele><time>2025-09-23T17:35:22.000Z</time></trkpt>
        <trkpt lat="29.359679" lon="103.0197283"><ele>2548.33</ele><time>2025-09-23T17:35:44.000Z</time></trkpt>
        <trkpt lat="29.359592" lon="103.0197753"><ele>2553.45</ele><time>2025-09-23T17:36:20.000Z</time></trkpt>
        <trkpt lat="29.3595491" lon="103.0198701"><ele>2559.04</ele><time>2025-09-23T17:36:58.000Z</time></trkpt>
        <trkpt lat="29.3594694" lon="103.019901"><ele>2561.8</ele><time>2025-09-23T17:37:36.000Z</time></trkpt>
        <trkpt lat="29.35938" lon="103.019891"><ele>2565.06</ele><time>2025-09-23T17:38:15.000Z</time></trkpt>
        <trkpt lat="29.3592965" lon="103.0198425"><ele>2570.39</ele><time>2025-09-23T17:38:45.000Z</time></trkpt>
        <trkpt lat="29.3592692" lon="103.0197416"><ele>2577.15</ele><time>2025-09-23T17:39:10.000Z</time></trkpt>
        <trkpt lat="29.3591976" lon="103.019702"><ele>2582.05</ele><time>2025-09-23T17:39:44.000Z</time></trkpt>
        <trkpt lat="29.3591193" lon="103.0196428"><ele>2587.06</ele><time>2025-09-23T17:39:56.000Z</time></trkpt>
        <trkpt lat="29.3591009" lon="103.0196941"><ele>2590.49</ele><time>2025-09-23T17:40:14.000Z</time></trkpt>
        <trkpt lat="29.3590491" lon="103.019773"><ele>2593.4</ele><time>2025-09-23T17:40:50.000Z</time></trkpt>
        <trkpt lat="29.3589647" lon="103.0198057"><ele>2596.88</ele><time>2025-09-23T17:41:24.000Z</time></trkpt>
        <trkpt lat="29.3588698" lon="103.0198227"><ele>2602.33</ele><time>2025-09-23T17:41:56.000Z</time></trkpt>
        <trkpt lat="29.3587689" lon="103.0198426"><ele>2607</ele><time>2025-09-23T17:42:50.000Z</time></trkpt>
        <trkpt lat="29.3586698" lon="103.0198704"><ele>2613.51</ele><time>2025-09-23T17:43:54.000Z</time></trkpt>
        <trkpt lat="29.3585876" lon="103.0199296"><ele>2622.16</ele><time>2025-09-23T17:44:32.000Z</time></trkpt>
        <trkpt lat="29.3584971" lon="103.019915"><ele>2627.91</ele><time>2025-09-23T17:45:08.000Z</time></trkpt>
        <trkpt lat="29.3584005" lon="103.0199399"><ele>2633.67</ele><time>2025-09-23T17:45:46.000Z</time></trkpt>
        <trkpt lat="29.3583143" lon="103.0199923"><ele>2640.93</ele><time>2025-09-23T17:46:20.000Z</time></trkpt>
        <trkpt lat="29.3582515" lon="103.0199457"><ele>2647.15</ele><time>2025-09-23T17:47:12.000Z</time></trkpt>
        <trkpt lat="29.3582174" lon="103.0198483"><ele>2653.26</ele><time>2025-09-23T17:47:56.000Z</time></trkpt>
        <trkpt lat="29.3582418" lon="103.019708"><ele>2656.84</ele><time>2025-09-23T17:49:14.000Z</time></trkpt>
        <trkpt lat="29.3583375" lon="103.0196936"><ele>2658.21</ele><time>2025-09-23T17:49:44.000Z</time></trkpt>
        <trkpt lat="29.358297" lon="103.0196271"><ele>2662</ele><time>2025-09-23T17:50:02.000Z</time></trkpt>
        <trkpt lat="29.3582969" lon="103.0195754"><ele>2666.72</ele><time>2025-09-23T17:50:14.000Z</time></trkpt>
        <trkpt lat="29.358364" lon="103.0195573"><ele>2668.44</ele><time>2025-09-23T17:50:30.000Z</time></trkpt>
        <trkpt lat="29.3584334" lon="103.0194982"><ele>2672.73</ele><time>2025-09-23T17:51:00.000Z</time></trkpt>
        <trkpt lat="29.3585242" lon="103.0194861"><ele>2679.77</ele><time>2025-09-23T17:51:12.000Z</time></trkpt>
        <trkpt lat="29.358619" lon="103.0194905"><ele>2685.29</ele><time>2025-09-23T17:51:32.000Z</time></trkpt>
        <trkpt lat="29.3586585" lon="103.0194194"><ele>2688.58</ele><time>2025-09-23T17:51:54.000Z</time></trkpt>
        <trkpt lat="29.3586268" lon="103.0193075"><ele>2688.14</ele><time>2025-09-23T17:52:20.000Z</time></trkpt>
        <trkpt lat="29.358547" lon="103.0191954"><ele>2688.7</ele><time>2025-09-23T17:53:36.000Z</time></trkpt>
        <trkpt lat="29.3584854" lon="103.0192821"><ele>2690.67</ele><time>2025-09-23T17:54:04.000Z</time></trkpt>
        <trkpt lat="29.3584183" lon="103.0192322"><ele>2699.61</ele><time>2025-09-23T17:55:02.000Z</time></trkpt>
        <trkpt lat="29.3583935" lon="103.0191362"><ele>2707.34</ele><time>2025-09-23T17:55:42.000Z</time></trkpt>
        <trkpt lat="29.3583222" lon="103.0190869"><ele>2714.41</ele><time>2025-09-23T17:56:36.000Z</time></trkpt>
        <trkpt lat="29.3582258" lon="103.0190499"><ele>2722.85</ele><time>2025-09-23T17:57:30.000Z</time></trkpt>
        <trkpt lat="29.3581837" lon="103.0190629"><ele>2730.65</ele><time>2025-09-23T17:57:42.000Z</time></trkpt>
        <trkpt lat="29.3581537" lon="103.0189831"><ele>2736.36</ele><time>2025-09-23T17:58:38.000Z</time></trkpt>
        <trkpt lat="29.3582114" lon="103.0189131"><ele>2742.2</ele><time>2025-09-23T17:59:04.000Z</time></trkpt>
        <trkpt lat="29.3582805" lon="103.0188327"><ele>2745.73</ele><time>2025-09-23T17:59:40.000Z</time></trkpt>
        <trkpt lat="29.3583562" lon="103.0187482"><ele>2751.66</ele><time>2025-09-23T18:00:04.000Z</time></trkpt>
        <trkpt lat="29.3583684" lon="103.0186452"><ele>2756.28</ele><time>2025-09-23T18:00:40.000Z</time></trkpt>
        <trkpt lat="29.3583939" lon="103.0185357"><ele>2757.85</ele><time>2025-09-23T18:01:31.000Z</time></trkpt>
        <trkpt lat="29.3582987" lon="103.0185379"><ele>2762.61</ele><time>2025-09-23T18:02:49.000Z</time></trkpt>
        <trkpt lat="29.3582058" lon="103.0185519"><ele>2772.2</ele><time>2025-09-23T18:03:26.000Z</time></trkpt>
        <trkpt lat="29.3581145" lon="103.018577"><ele>2781.03</ele><time>2025-09-23T18:05:18.000Z</time></trkpt>
        <trkpt lat="29.358017" lon="103.0185891"><ele>2784.97</ele><time>2025-09-23T18:05:34.000Z</time></trkpt>
        <trkpt lat="29.3580729" lon="103.0186392"><ele>2787.07</ele><time>2025-09-23T18:05:50.000Z</time></trkpt>
        <trkpt lat="29.3580055" lon="103.0186772"><ele>2791.51</ele><time>2025-09-23T18:13:52.000Z</time></trkpt>
        <trkpt lat="29.3579277" lon="103.0186142"><ele>2796.26</ele><time>2025-09-23T18:14:18.000Z</time></trkpt>
        <trkpt lat="29.3578289" lon="103.0186583"><ele>2799.88</ele><time>2025-09-23T18:14:38.000Z</time></trkpt>
        <trkpt lat="29.3578378" lon="103.0186836"><ele>2801</ele><time>2025-09-23T18:14:42.000Z</time></trkpt>
        <trkpt lat="29.3579165" lon="103.0187233"><ele>2801.49</ele><time>2025-09-23T18:14:54.000Z</time></trkpt>
        <trkpt lat="29.3578874" lon="103.018681"><ele>2802.88</ele><time>2025-09-23T18:15:30.000Z</time></trkpt>
        <trkpt lat="29.3578172" lon="103.0187064"><ele>2805.04</ele><time>2025-09-23T18:16:02.000Z</time></trkpt>
        <trkpt lat="29.3577721" lon="103.0188011"><ele>2808.46</ele><time>2025-09-23T18:16:18.000Z</time></trkpt>
        <trkpt lat="29.3578235" lon="103.0188033"><ele>2811.28</ele><time>2025-09-23T18:16:38.000Z</time></trkpt>
        <trkpt lat="29.3578593" lon="103.0186972"><ele>2814.37</ele><time>2025-09-23T18:16:54.000Z</time></trkpt>
        <trkpt lat="29.3578166" lon="103.0185933"><ele>2816.25</ele><time>2025-09-23T18:17:22.000Z</time></trkpt>
        <trkpt lat="29.3577285" lon="103.0185833"><ele>2819.42</ele><time>2025-09-23T18:17:42.000Z</time></trkpt>
        <trkpt lat="29.3576192" lon="103.0185413"><ele>2820.79</ele><time>2025-09-23T18:22:36.000Z</time></trkpt>
        <trkpt lat="29.3575708" lon="103.0186411"><ele>2832.46</ele><time>2025-09-23T18:23:02.000Z</time></trkpt>
        <trkpt lat="29.357505" lon="103.0185983"><ele>2841.24</ele><time>2025-09-23T18:23:28.000Z</time></trkpt>
        <trkpt lat="29.3574314" lon="103.018656"><ele>2847.99</ele><time>2025-09-23T18:24:38.000Z</time></trkpt>
        <trkpt lat="29.3573322" lon="103.0186551"><ele>2857.14</ele><time>2025-09-23T18:25:20.000Z</time></trkpt>
        <trkpt lat="29.3572882" lon="103.0187368"><ele>2863.97</ele><time>2025-09-23T18:25:46.000Z</time></trkpt>
        <trkpt lat="29.3572186" lon="103.0188134"><ele>2870.73</ele><time>2025-09-23T18:26:24.000Z</time></trkpt>
        <trkpt lat="29.357178" lon="103.01882"><ele>2877.47</ele><time>2025-09-23T18:26:34.000Z</time></trkpt>
        <trkpt lat="29.3571046" lon="103.0188004"><ele>2881.59</ele><time>2025-09-23T18:27:06.000Z</time></trkpt>
        <trkpt lat="29.3570893" lon="103.018837"><ele>2886.11</ele><time>2025-09-23T18:27:32.000Z</time></trkpt>
        <trkpt lat="29.3571059" lon="103.0189507"><ele>2889</ele><time>2025-09-23T18:31:12.000Z</time></trkpt>
        <trkpt lat="29.3570714" lon="103.0190513"><ele>2894.51</ele><time>2025-09-23T18:31:56.000Z</time></trkpt>
        <trkpt lat="29.3570502" lon="103.0190579"><ele>2901.37</ele><time>2025-09-23T18:32:00.000Z</time></trkpt>
        <trkpt lat="29.3570447" lon="103.019141"><ele>2905.42</ele><time>2025-09-23T18:32:26.000Z</time></trkpt>
        <trkpt lat="29.3569725" lon="103.0191673"><ele>2907.65</ele><time>2025-09-23T18:32:56.000Z</time></trkpt>
        <trkpt lat="29.3569038" lon="103.0192323"><ele>2909.14</ele><time>2025-09-23T18:33:20.000Z</time></trkpt>
        <trkpt lat="29.3568136" lon="103.0192592"><ele>2912.04</ele><time>2025-09-23T18:33:40.000Z</time></trkpt>
        <trkpt lat="29.3567499" lon="103.0193421"><ele>2916.84</ele><time>2025-09-23T18:33:52.000Z</time></trkpt>
        <trkpt lat="29.356673" lon="103.0194087"><ele>2920.15</ele><time>2025-09-23T18:34:22.000Z</time></trkpt>
        <trkpt lat="29.3566842" lon="103.0194955"><ele>2923.72</ele><time>2025-09-23T18:34:34.000Z</time></trkpt>
        <trkpt lat="29.356693" lon="103.0196032"><ele>2924.02</ele><time>2025-09-23T18:35:02.000Z</time></trkpt>
        <trkpt lat="29.3566497" lon="103.019697"><ele>2923.54</ele><time>2025-09-23T18:35:14.000Z</time></trkpt>
        <trkpt lat="29.3565803" lon="103.019665"><ele>2923.52</ele><time>2025-09-23T18:35:24.000Z</time></trkpt>
        <trkpt lat="29.3566245" lon="103.0196852"><ele>2924.18</ele><time>2025-09-23T18:35:44.000Z</time></trkpt>
        <trkpt lat="29.35662" lon="103.0197601"><ele>2927.07</ele><time>2025-09-23T18:35:56.000Z</time></trkpt>
        <trkpt lat="29.3565485" lon="103.0197666"><ele>2929.48</ele><time>2025-09-23T18:36:12.000Z</time></trkpt>
        <trkpt lat="29.3565283" lon="103.0198454"><ele>2931.37</ele><time>2025-09-23T18:37:00.000Z</time></trkpt>
        <trkpt lat="29.3565321" lon="103.0198775"><ele>2932.7</ele><time>2025-09-23T18:37:04.000Z</time></trkpt>
        <trkpt lat="29.3564782" lon="103.019938"><ele>2933.08</ele><time>2025-09-23T18:37:56.000Z</time></trkpt>
        <trkpt lat="29.3563646" lon="103.0199607"><ele>2937.87</ele><time>2025-09-23T18:40:24.000Z</time></trkpt>
        <trkpt lat="29.3562875" lon="103.0200158"><ele>2942.57</ele><time>2025-09-23T18:40:36.000Z</time></trkpt>
        <trkpt lat="29.3562653" lon="103.0200204"><ele>2946.11</ele><time>2025-09-23T18:40:44.000Z</time></trkpt>
        <trkpt lat="29.3561905" lon="103.0200505"><ele>2948.19</ele><time>2025-09-23T18:44:14.000Z</time></trkpt>
        <trkpt lat="29.3560955" lon="103.0200686"><ele>2949.8</ele><time>2025-09-23T18:44:28.000Z</time></trkpt>
        <trkpt lat="29.3560062" lon="103.0201132"><ele>2951.74</ele><time>2025-09-23T18:44:44.000Z</time></trkpt>
        <trkpt lat="29.3559279" lon="103.0201778"><ele>2950.96</ele><time>2025-09-23T18:45:00.000Z</time></trkpt>
        <trkpt lat="29.3558421" lon="103.0202068"><ele>2949.34</ele><time>2025-09-23T18:45:26.000Z</time></trkpt>
        <trkpt lat="29.3557595" lon="103.0202567"><ele>2949.15</ele><time>2025-09-23T18:45:46.000Z</time></trkpt>
        <trkpt lat="29.3557023" lon="103.0203364"><ele>2949.56</ele><time>2025-09-23T18:46:20.000Z</time></trkpt>
        <trkpt lat="29.3556124" lon="103.0203616"><ele>2951.75</ele><time>2025-09-23T18:46:44.000Z</time></trkpt>
        <trkpt lat="29.3555237" lon="103.020393"><ele>2954.73</ele><time>2025-09-23T18:47:04.000Z</time></trkpt>
        <trkpt lat="29.355436" lon="103.0203544"><ele>2956.41</ele><time>2025-09-23T18:47:22.000Z</time></trkpt>
        <trkpt lat="29.3553354" lon="103.0203391"><ele>2959.08</ele><time>2025-09-23T18:47:36.000Z</time></trkpt>
        <trkpt lat="29.3552392" lon="103.020316"><ele>2960.93</ele><time>2025-09-23T18:47:52.000Z</time></trkpt>
        <trkpt lat="29.3551437" lon="103.0203131"><ele>2962.15</ele><time>2025-09-23T18:48:14.000Z</time></trkpt>
        <trkpt lat="29.3550547" lon="103.0203453"><ele>2962.75</ele><time>2025-09-23T18:48:30.000Z</time></trkpt>
        <trkpt lat="29.3549857" lon="103.0203014"><ele>2963.88</ele><time>2025-09-23T18:48:44.000Z</time></trkpt>
        <trkpt lat="29.3548997" lon="103.0202793"><ele>2962.82</ele><time>2025-09-23T18:50:55.000Z</time></trkpt>
        <trkpt lat="29.3548106" lon="103.0202983"><ele>2968.14</ele><time>2025-09-23T18:51:22.000Z</time></trkpt>
        <trkpt lat="29.3547187" lon="103.0203061"><ele>2971.93</ele><time>2025-09-23T18:58:38.000Z</time></trkpt>
        <trkpt lat="29.354639" lon="103.0202571"><ele>2974.84</ele><time>2025-09-23T18:58:52.000Z</time></trkpt>
        <trkpt lat="29.3545456" lon="103.020234"><ele>2975.52</ele><time>2025-09-23T18:59:15.000Z</time></trkpt>
        <trkpt lat="29.3544554" lon="103.0202161"><ele>2975.52</ele><time>2025-09-23T18:59:29.000Z</time></trkpt>
        <trkpt lat="29.3543598" lon="103.0202711"><ele>2973.7</ele><time>2025-09-23T19:01:22.000Z</time></trkpt>
        <trkpt lat="29.3542652" lon="103.0202658"><ele>2975.47</ele><time>2025-09-23T19:02:41.000Z</time></trkpt>
        <trkpt lat="29.3541742" lon="103.0202765"><ele>2980.04</ele><time>2025-09-23T19:03:35.000Z</time></trkpt>
        <trkpt lat="29.3540812" lon="103.0202536"><ele>2986.86</ele><time>2025-09-23T19:05:39.000Z</time></trkpt>
        <trkpt lat="29.3539903" lon="103.0202138"><ele>2991.89</ele><time>2025-09-23T19:05:55.000Z</time></trkpt>
        <trkpt lat="29.3539415" lon="103.0201755"><ele>2995.13</ele><time>2025-09-23T19:06:05.000Z</time></trkpt>
        <trkpt lat="29.3538864" lon="103.0200948"><ele>2997.32</ele><time>2025-09-23T19:06:47.000Z</time></trkpt>
        <trkpt lat="29.3538183" lon="103.020021"><ele>2997.05</ele><time>2025-09-23T19:07:01.000Z</time></trkpt>
        <trkpt lat="29.3537406" lon="103.0199469"><ele>2997.92</ele><time>2025-09-23T19:07:41.000Z</time></trkpt>
        <trkpt lat="29.3536916" lon="103.0199067"><ele>2997.92</ele><time>2025-09-23T19:07:51.000Z</time></trkpt>
        <trkpt lat="29.3536198" lon="103.0198522"><ele>2999.05</ele><time>2025-09-23T19:08:49.000Z</time></trkpt>
        <trkpt lat="29.3535438" lon="103.0198811"><ele>3004.85</ele><time>2025-09-23T19:09:07.000Z</time></trkpt>
        <trkpt lat="29.3534553" lon="103.0198864"><ele>3008.79</ele><time>2025-09-23T19:09:19.000Z</time></trkpt>
        <trkpt lat="29.3534302" lon="103.0198127"><ele>3012.4</ele><time>2025-09-23T19:09:27.000Z</time></trkpt>
        <trkpt lat="29.3534033" lon="103.0197958"><ele>3011.63</ele><time>2025-09-23T19:09:39.000Z</time></trkpt>
        <trkpt lat="29.3534397" lon="103.0197304"><ele>3012.92</ele><time>2025-09-23T19:10:17.000Z</time></trkpt>
        <trkpt lat="29.353391" lon="103.0196528"><ele>3017.14</ele><time>2025-09-23T19:11:03.000Z</time></trkpt>
        <trkpt lat="29.3533791" lon="103.0196113"><ele>3021.61</ele><time>2025-09-23T19:11:11.000Z</time></trkpt>
        <trkpt lat="29.3533543" lon="103.0195151"><ele>3025.12</ele><time>2025-09-23T19:12:59.000Z</time></trkpt>
        <trkpt lat="29.35326" lon="103.0194723"><ele>3032.45</ele><time>2025-09-23T19:20:36.000Z</time></trkpt>
        <trkpt lat="29.3532035" lon="103.0195539"><ele>3040.57</ele><time>2025-09-23T19:22:11.000Z</time></trkpt>
        <trkpt lat="29.3531425" lon="103.0196359"><ele>3043.68</ele><time>2025-09-23T19:24:03.000Z</time></trkpt>
        <trkpt lat="29.3530628" lon="103.0195867"><ele>3052.58</ele><time>2025-09-23T19:24:29.000Z</time></trkpt>
        <trkpt lat="29.3529765" lon="103.0195487"><ele>3058.87</ele><time>2025-09-23T19:24:55.000Z</time></trkpt>
        <trkpt lat="29.3530139" lon="103.0194797"><ele>3065.7</ele><time>2025-09-23T19:25:53.000Z</time></trkpt>
        <trkpt lat="29.3529865" lon="103.0194036"><ele>3072.49</ele><time>2025-09-23T19:26:47.000Z</time></trkpt>
        <trkpt lat="29.3529148" lon="103.0193435"><ele>3076.68</ele><time>2025-09-23T19:27:43.000Z</time></trkpt>
        <trkpt lat="29.3528453" lon="103.019263"><ele>3083.21</ele><time>2025-09-23T19:28:31.000Z</time></trkpt>
        <trkpt lat="29.3527678" lon="103.0192846"><ele>3092.52</ele><time>2025-09-23T19:29:19.000Z</time></trkpt>
        <trkpt lat="29.3526737" lon="103.0192827"><ele>3097.02</ele><time>2025-09-23T19:32:10.000Z</time></trkpt>
        <trkpt lat="29.3525724" lon="103.0193041"><ele>3105.01</ele><time>2025-09-23T19:35:00.000Z</time></trkpt>
        <trkpt lat="29.3524902" lon="103.0192447"><ele>3110.42</ele><time>2025-09-23T19:36:48.000Z</time></trkpt>
        <trkpt lat="29.3524809" lon="103.0192326"><ele>3119.26</ele><time>2025-09-23T19:36:54.000Z</time></trkpt>
        <trkpt lat="29.3524068" lon="103.0192611"><ele>3123.64</ele><time>2025-09-23T19:37:26.000Z</time></trkpt>
        <trkpt lat="29.3523845" lon="103.0192833"><ele>3128.76</ele><time>2025-09-23T19:37:36.000Z</time></trkpt>
        <trkpt lat="29.3523482" lon="103.01936"><ele>3133.24</ele><time>2025-09-23T19:38:18.000Z</time></trkpt>
        <trkpt lat="29.3523043" lon="103.019425"><ele>3139.58</ele><time>2025-09-23T19:38:34.000Z</time></trkpt>
        <trkpt lat="29.3522356" lon="103.0194911"><ele>3144.89</ele><time>2025-09-23T19:39:06.000Z</time></trkpt>
        <trkpt lat="29.3521436" lon="103.0195417"><ele>3150.61</ele><time>2025-09-23T19:39:20.000Z</time></trkpt>
        <trkpt lat="29.3520472" lon="103.0195901"><ele>3153.49</ele><time>2025-09-23T19:39:32.000Z</time></trkpt>
        <trkpt lat="29.3519553" lon="103.0196355"><ele>3155.2</ele><time>2025-09-23T19:39:48.000Z</time></trkpt>
        <trkpt lat="29.3518627" lon="103.0196486"><ele>3157.7</ele><time>2025-09-23T19:40:10.000Z</time></trkpt>
        <trkpt lat="29.3517745" lon="103.01968"><ele>3161.31</ele><time>2025-09-23T19:40:36.000Z</time></trkpt>
        <trkpt lat="29.3516732" lon="103.0196942"><ele>3164.08</ele><time>2025-09-23T19:40:50.000Z</time></trkpt>
        <trkpt lat="29.3515761" lon="103.0196985"><ele>3166.93</ele><time>2025-09-23T19:41:14.000Z</time></trkpt>
        <trkpt lat="29.3514933" lon="103.0197376"><ele>3169.69</ele><time>2025-09-23T19:41:28.000Z</time></trkpt>
        <trkpt lat="29.3514023" lon="103.0197878"><ele>3170.14</ele><time>2025-09-23T19:41:38.000Z</time></trkpt>
        <trkpt lat="29.3513101" lon="103.0198104"><ele>3169.99</ele><time>2025-09-23T19:41:52.000Z</time></trkpt>
        <trkpt lat="29.3512255" lon="103.0198657"><ele>3168.78</ele><time>2025-09-23T19:42:28.000Z</time></trkpt>
        <trkpt lat="29.351155" lon="103.0199406"><ele>3167.04</ele><time>2025-09-23T19:42:42.000Z</time></trkpt>
        <trkpt lat="29.3511042" lon="103.0200353"><ele>3167.35</ele><time>2025-09-23T19:42:54.000Z</time></trkpt>
        <trkpt lat="29.3510603" lon="103.0200986"><ele>3168.9</ele><time>2025-09-23T19:43:06.000Z</time></trkpt>
        <trkpt lat="29.3509741" lon="103.0201342"><ele>3169.53</ele><time>2025-09-23T19:43:34.000Z</time></trkpt>
        <trkpt lat="29.3508778" lon="103.0201774"><ele>3167.7</ele><time>2025-09-23T19:43:44.000Z</time></trkpt>
        <trkpt lat="29.3508038" lon="103.0202522"><ele>3168.16</ele><time>2025-09-23T19:43:58.000Z</time></trkpt>
        <trkpt lat="29.3507441" lon="103.020337"><ele>3168.35</ele><time>2025-09-23T19:44:10.000Z</time></trkpt>
        <trkpt lat="29.3507039" lon="103.0204431"><ele>3167.35</ele><time>2025-09-23T19:44:39.000Z</time></trkpt>
        <trkpt lat="29.3506752" lon="103.0205598"><ele>3169.18</ele><time>2025-09-23T19:44:47.000Z</time></trkpt>
        <trkpt lat="29.3505951" lon="103.0206088"><ele>3169.57</ele><time>2025-09-23T19:45:03.000Z</time></trkpt>
        <trkpt lat="29.3505332" lon="103.0206826"><ele>3168.04</ele><time>2025-09-23T19:45:13.000Z</time></trkpt>
        <trkpt lat="29.3504534" lon="103.0207323"><ele>3167.6</ele><time>2025-09-23T19:45:25.000Z</time></trkpt>
        <trkpt lat="29.3503648" lon="103.0207682"><ele>3168.14</ele><time>2025-09-23T19:45:51.000Z</time></trkpt>
        <trkpt lat="29.3503029" lon="103.0208467"><ele>3169.41</ele><time>2025-09-23T19:46:01.000Z</time></trkpt>
        <trkpt lat="29.3502483" lon="103.0209407"><ele>3168.76</ele><time>2025-09-23T19:46:13.000Z</time></trkpt>
        <trkpt lat="29.3502058" lon="103.0210367"><ele>3167.39</ele><time>2025-09-23T19:46:33.000Z</time></trkpt>
        <trkpt lat="29.3501582" lon="103.0211356"><ele>3164.39</ele><time>2025-09-23T19:46:47.000Z</time></trkpt>
        <trkpt lat="29.3500904" lon="103.0212089"><ele>3164.03</ele><time>2025-09-23T19:47:01.000Z</time></trkpt>
        <trkpt lat="29.3500291" lon="103.0212853"><ele>3164.12</ele><time>2025-09-23T19:47:11.000Z</time></trkpt>
        <trkpt lat="29.350042" lon="103.0213769"><ele>3163.95</ele><time>2025-09-23T19:47:38.000Z</time></trkpt>
        <trkpt lat="29.3501074" lon="103.0214698"><ele>3165.19</ele><time>2025-09-23T19:47:48.000Z</time></trkpt>
        <trkpt lat="29.3501342" lon="103.0215857"><ele>3165.57</ele><time>2025-09-23T19:47:58.000Z</time></trkpt>
        <trkpt lat="29.3501777" lon="103.0216774"><ele>3165.67</ele><time>2025-09-23T19:48:08.000Z</time></trkpt>
        <trkpt lat="29.350269" lon="103.0216147"><ele>3163.71</ele><time>2025-09-23T19:49:40.000Z</time></trkpt>
        <trkpt lat="29.3502605" lon="103.02165"><ele>3163.01</ele><time>2025-09-23T19:49:46.000Z</time></trkpt>
        <trkpt lat="29.3501913" lon="103.0217173"><ele>3163.42</ele><time>2025-09-23T19:52:20.000Z</time></trkpt>
        <trkpt lat="29.3501052" lon="103.0216839"><ele>3164.08</ele><time>2025-09-23T19:52:54.000Z</time></trkpt>
        <trkpt lat="29.3500081" lon="103.0216653"><ele>3164.93</ele><time>2025-09-23T19:53:06.000Z</time></trkpt>
        <trkpt lat="29.3499148" lon="103.0216812"><ele>3166.26</ele><time>2025-09-23T19:53:18.000Z</time></trkpt>
        <trkpt lat="29.3498328" lon="103.0217302"><ele>3167.02</ele><time>2025-09-23T19:53:38.000Z</time></trkpt>
        <trkpt lat="29.3497979" lon="103.0218332"><ele>3166.33</ele><time>2025-09-23T19:53:48.000Z</time></trkpt>
        <trkpt lat="29.349757" lon="103.02195"><ele>3165.34</ele><time>2025-09-23T19:53:58.000Z</time></trkpt>
        <trkpt lat="29.3497354" lon="103.0220654"><ele>3164.31</ele><time>2025-09-23T19:54:08.000Z</time></trkpt>
        <trkpt lat="29.3496833" lon="103.0221676"><ele>3163.64</ele><time>2025-09-23T19:54:22.000Z</time></trkpt>
        <trkpt lat="29.3496774" lon="103.022276"><ele>3164.51</ele><time>2025-09-23T19:54:38.000Z</time></trkpt>
        <trkpt lat="29.3496758" lon="103.0223864"><ele>3165.46</ele><time>2025-09-23T19:55:01.000Z</time></trkpt>
        <trkpt lat="29.3496826" lon="103.0224936"><ele>3164.54</ele><time>2025-09-23T19:55:17.000Z</time></trkpt>
        <trkpt lat="29.3496247" lon="103.0225906"><ele>3163.1</ele><time>2025-09-23T19:56:22.000Z</time></trkpt>
        <trkpt lat="29.3495275" lon="103.0226252"><ele>3164.59</ele><time>2025-09-23T19:56:46.000Z</time></trkpt>
        <trkpt lat="29.3494896" lon="103.0225386"><ele>3165.9</ele><time>2025-09-23T19:56:58.000Z</time></trkpt>
        <trkpt lat="29.3494132" lon="103.0224691"><ele>3165.27</ele><time>2025-09-23T19:57:16.000Z</time></trkpt>
        <trkpt lat="29.349328" lon="103.0224715"><ele>3166.43</ele><time>2025-09-23T19:57:40.000Z</time></trkpt>
        <trkpt lat="29.3492298" lon="103.0224905"><ele>3167.79</ele><time>2025-09-23T19:58:00.000Z</time></trkpt>
        <trkpt lat="29.3491334" lon="103.0225001"><ele>3169.1</ele><time>2025-09-23T19:58:14.000Z</time></trkpt>
        <trkpt lat="29.3490389" lon="103.0225144"><ele>3169.45</ele><time>2025-09-23T19:58:32.000Z</time></trkpt>
        <trkpt lat="29.348942" lon="103.0225165"><ele>3170.26</ele><time>2025-09-23T19:58:48.000Z</time></trkpt>
        <trkpt lat="29.3489073" lon="103.0225954"><ele>3171.34</ele><time>2025-09-23T19:59:04.000Z</time></trkpt>
        <trkpt lat="29.3488289" lon="103.0226241"><ele>3170</ele><time>2025-09-23T20:00:51.000Z</time></trkpt>
        <trkpt lat="29.3487538" lon="103.0226893"><ele>3170.09</ele><time>2025-09-23T20:01:07.000Z</time></trkpt>
        <trkpt lat="29.3486843" lon="103.0226324"><ele>3172.1</ele><time>2025-09-23T20:01:21.000Z</time></trkpt>
        <trkpt lat="29.3486483" lon="103.0225377"><ele>3173.1</ele><time>2025-09-23T20:02:17.000Z</time></trkpt>
        <trkpt lat="29.3486143" lon="103.0224267"><ele>3172.46</ele><time>2025-09-23T20:02:37.000Z</time></trkpt>
        <trkpt lat="29.3485805" lon="103.0223154"><ele>3171.78</ele><time>2025-09-23T20:02:53.000Z</time></trkpt>
        <trkpt lat="29.3485209" lon="103.0222316"><ele>3172.79</ele><time>2025-09-23T20:03:11.000Z</time></trkpt>
        <trkpt lat="29.3484348" lon="103.0222"><ele>3172.63</ele><time>2025-09-23T20:03:25.000Z</time></trkpt>
        <trkpt lat="29.3483595" lon="103.0221457"><ele>3172.68</ele><time>2025-09-23T20:04:17.000Z</time></trkpt>
        <trkpt lat="29.3483041" lon="103.0220656"><ele>3171.16</ele><time>2025-09-23T20:04:35.000Z</time></trkpt>
        <trkpt lat="29.348221" lon="103.0220362"><ele>3172.27</ele><time>2025-09-23T20:04:53.000Z</time></trkpt>
        <trkpt lat="29.3481216" lon="103.022013"><ele>3173.72</ele><time>2025-09-23T20:05:07.000Z</time></trkpt>
        <trkpt lat="29.3480323" lon="103.0220504"><ele>3173.83</ele><time>2025-09-23T20:05:29.000Z</time></trkpt>
        <trkpt lat="29.3479462" lon="103.0220361"><ele>3175.28</ele><time>2025-09-23T20:05:49.000Z</time></trkpt>
        <trkpt lat="29.3478559" lon="103.0220012"><ele>3174.48</ele><time>2025-09-23T20:06:07.000Z</time></trkpt>
        <trkpt lat="29.3477665" lon="103.0220115"><ele>3175.68</ele><time>2025-09-23T20:06:55.000Z</time></trkpt>
        <trkpt lat="29.347677" lon="103.0220031"><ele>3175.87</ele><time>2025-09-23T20:07:11.000Z</time></trkpt>
        <trkpt lat="29.3475894" lon="103.0219596"><ele>3175.62</ele><time>2025-09-23T20:07:23.000Z</time></trkpt>
        <trkpt lat="29.3475495" lon="103.0218678"><ele>3176.94</ele><time>2025-09-23T20:08:19.000Z</time></trkpt>
        <trkpt lat="29.3475117" lon="103.0217687"><ele>3172.49</ele><time>2025-09-23T20:09:11.000Z</time></trkpt>
        <trkpt lat="29.3474495" lon="103.0216903"><ele>3172.05</ele><time>2025-09-23T20:09:39.000Z</time></trkpt>
        <trkpt lat="29.3473662" lon="103.0216871"><ele>3171.66</ele><time>2025-09-23T20:10:11.000Z</time></trkpt>
        <trkpt lat="29.3473064" lon="103.0216226"><ele>3169.4</ele><time>2025-09-23T20:10:39.000Z</time></trkpt>
        <trkpt lat="29.3472245" lon="103.0216218"><ele>3166.45</ele><time>2025-09-23T20:11:05.000Z</time></trkpt>
        <trkpt lat="29.3471359" lon="103.0216129"><ele>3163.4</ele><time>2025-09-23T20:11:25.000Z</time></trkpt>
        <trkpt lat="29.3470593" lon="103.021546"><ele>3164.63</ele><time>2025-09-23T20:11:43.000Z</time></trkpt>
        <trkpt lat="29.3469645" lon="103.0215273"><ele>3164.4</ele><time>2025-09-23T20:11:57.000Z</time></trkpt>
        <trkpt lat="29.3468644" lon="103.0215077"><ele>3166.78</ele><time>2025-09-23T20:12:13.000Z</time></trkpt>
        <trkpt lat="29.346771" lon="103.0214809"><ele>3168.9</ele><time>2025-09-23T20:13:07.000Z</time></trkpt>
        <trkpt lat="29.3466933" lon="103.0215271"><ele>3169.45</ele><time>2025-09-23T20:13:17.000Z</time></trkpt>
        <trkpt lat="29.3466155" lon="103.0215945"><ele>3169.59</ele><time>2025-09-23T20:13:33.000Z</time></trkpt>
        <trkpt lat="29.3465331" lon="103.0216518"><ele>3169.12</ele><time>2025-09-23T20:14:07.000Z</time></trkpt>
        <trkpt lat="29.3464414" lon="103.0216397"><ele>3168.6</ele><time>2025-09-23T20:14:35.000Z</time></trkpt>
        <trkpt lat="29.3463727" lon="103.0215465"><ele>3169.25</ele><time>2025-09-23T20:15:39.000Z</time></trkpt>
        <trkpt lat="29.3463758" lon="103.0215469"><ele>3167.83</ele><time>2025-09-23T20:15:41.000Z</time></trkpt>
        <trkpt lat="29.3462992" lon="103.0215697"><ele>3167.2</ele><time>2025-09-23T20:16:15.000Z</time></trkpt>
        <trkpt lat="29.346261" lon="103.0216609"><ele>3165.74</ele><time>2025-09-23T20:16:41.000Z</time></trkpt>
        <trkpt lat="29.346182" lon="103.0216884"><ele>3163.71</ele><time>2025-09-23T20:17:13.000Z</time></trkpt>
        <trkpt lat="29.3460952" lon="103.0217525"><ele>3163.91</ele><time>2025-09-23T20:18:29.000Z</time></trkpt>
        <trkpt lat="29.3460172" lon="103.0218077"><ele>3160.78</ele><time>2025-09-23T20:18:43.000Z</time></trkpt>
        <trkpt lat="29.3459474" lon="103.021874"><ele>3159.22</ele><time>2025-09-23T20:19:31.000Z</time></trkpt>
        <trkpt lat="29.3458808" lon="103.0219585"><ele>3156.43</ele><time>2025-09-23T20:20:21.000Z</time></trkpt>
        <trkpt lat="29.34582" lon="103.0220497"><ele>3154.2</ele><time>2025-09-23T20:20:41.000Z</time></trkpt>
        <trkpt lat="29.3457339" lon="103.0221215"><ele>3152.97</ele><time>2025-09-23T20:21:05.000Z</time></trkpt>
        <trkpt lat="29.345659" lon="103.0222013"><ele>3152.82</ele><time>2025-09-23T20:21:15.000Z</time></trkpt>
        <trkpt lat="29.345575" lon="103.0222506"><ele>3151.77</ele><time>2025-09-23T20:21:29.000Z</time></trkpt>
        <trkpt lat="29.3454855" lon="103.0222893"><ele>3152.05</ele><time>2025-09-23T20:21:41.000Z</time></trkpt>
        <trkpt lat="29.3453962" lon="103.0222723"><ele>3151.61</ele><time>2025-09-23T20:22:25.000Z</time></trkpt>
        <trkpt lat="29.3453257" lon="103.0223164"><ele>3150.99</ele><time>2025-09-23T20:22:35.000Z</time></trkpt>
        <trkpt lat="29.3452533" lon="103.0223763"><ele>3148.11</ele><time>2025-09-23T20:22:53.000Z</time></trkpt>
        <trkpt lat="29.3452222" lon="103.022472"><ele>3148.61</ele><time>2025-09-23T20:23:53.000Z</time></trkpt>
        <trkpt lat="29.3452505" lon="103.0223796"><ele>3152.26</ele><time>2025-09-23T20:25:05.000Z</time></trkpt>
        <trkpt lat="29.3452392" lon="103.0223837"><ele>3153.39</ele><time>2025-09-23T20:25:09.000Z</time></trkpt>
        <trkpt lat="29.3451536" lon="103.0224207"><ele>3153.7</ele><time>2025-09-23T20:25:25.000Z</time></trkpt>
        <trkpt lat="29.3450776" lon="103.0224896"><ele>3154.4</ele><time>2025-09-23T20:25:39.000Z</time></trkpt>
        <trkpt lat="29.3451539" lon="103.022547"><ele>3154.15</ele><time>2025-09-23T20:26:41.000Z</time></trkpt>
        <trkpt lat="29.3450741" lon="103.0224991"><ele>3152.21</ele><time>2025-09-23T20:27:50.000Z</time></trkpt>
        <trkpt lat="29.3450032" lon="103.0225776"><ele>3154.89</ele><time>2025-09-23T20:28:46.000Z</time></trkpt>
        <trkpt lat="29.3449565" lon="103.0226735"><ele>3155.15</ele><time>2025-09-23T20:29:02.000Z</time></trkpt>
        <trkpt lat="29.3448852" lon="103.0227451"><ele>3156.2</ele><time>2025-09-23T20:29:14.000Z</time></trkpt>
        <trkpt lat="29.3447927" lon="103.022736"><ele>3156.45</ele><time>2025-09-23T20:29:24.000Z</time></trkpt>
        <trkpt lat="29.3446988" lon="103.022725"><ele>3156.21</ele><time>2025-09-23T20:29:34.000Z</time></trkpt>
        <trkpt lat="29.3446007" lon="103.0227139"><ele>3156.49</ele><time>2025-09-23T20:30:10.000Z</time></trkpt>
        <trkpt lat="29.3445383" lon="103.022774"><ele>3156.74</ele><time>2025-09-23T20:30:28.000Z</time></trkpt>
        <trkpt lat="29.3444846" lon="103.0228597"><ele>3155.7</ele><time>2025-09-23T20:30:44.000Z</time></trkpt>
        <trkpt lat="29.3444083" lon="103.0229172"><ele>3154.07</ele><time>2025-09-23T20:31:12.000Z</time></trkpt>
        <trkpt lat="29.3443175" lon="103.0229207"><ele>3153.58</ele><time>2025-09-23T20:31:24.000Z</time></trkpt>
        <trkpt lat="29.3442253" lon="103.0228923"><ele>3154.69</ele><time>2025-09-23T20:31:34.000Z</time></trkpt>
        <trkpt lat="29.344141" lon="103.0229298"><ele>3155.1</ele><time>2025-09-23T20:31:50.000Z</time></trkpt>
        <trkpt lat="29.3440713" lon="103.0229995"><ele>3153.5</ele><time>2025-09-23T20:32:32.000Z</time></trkpt>
        <trkpt lat="29.343977" lon="103.0230394"><ele>3150.85</ele><time>2025-09-23T20:33:12.000Z</time></trkpt>
        <trkpt lat="29.3438811" lon="103.0230626"><ele>3151.86</ele><time>2025-09-23T20:33:22.000Z</time></trkpt>
        <trkpt lat="29.3437887" lon="103.023082"><ele>3152.71</ele><time>2025-09-23T20:33:30.000Z</time></trkpt>
        <trkpt lat="29.3437396" lon="103.0231167"><ele>3152.46</ele><time>2025-09-23T20:33:40.000Z</time></trkpt>
        <trkpt lat="29.3436555" lon="103.0231309"><ele>3153.92</ele><time>2025-09-23T20:34:08.000Z</time></trkpt>
        <trkpt lat="29.3435867" lon="103.0231979"><ele>3154.33</ele><time>2025-09-23T20:34:28.000Z</time></trkpt>
        <trkpt lat="29.3435518" lon="103.0233029"><ele>3154.7</ele><time>2025-09-23T20:34:42.000Z</time></trkpt>
        <trkpt lat="29.3435022" lon="103.0234007"><ele>3151.94</ele><time>2025-09-23T20:35:04.000Z</time></trkpt>
        <trkpt lat="29.3434333" lon="103.0234773"><ele>3149.73</ele><time>2025-09-23T20:35:48.000Z</time></trkpt>
        <trkpt lat="29.3433553" lon="103.0235403"><ele>3149.36</ele><time>2025-09-23T20:36:08.000Z</time></trkpt>
        <trkpt lat="29.3432729" lon="103.023602"><ele>3150.41</ele><time>2025-09-23T20:36:30.000Z</time></trkpt>
        <trkpt lat="29.3432243" lon="103.0236983"><ele>3150.18</ele><time>2025-09-23T20:37:23.000Z</time></trkpt>
        <trkpt lat="29.3431952" lon="103.0238025"><ele>3146.22</ele><time>2025-09-23T20:37:51.000Z</time></trkpt>
        <trkpt lat="29.3432313" lon="103.0239047"><ele>3141.92</ele><time>2025-09-23T20:38:21.000Z</time></trkpt>
        <trkpt lat="29.3432335" lon="103.0240097"><ele>3140.41</ele><time>2025-09-23T20:38:41.000Z</time></trkpt>
        <trkpt lat="29.3432353" lon="103.0241236"><ele>3142.15</ele><time>2025-09-23T20:38:59.000Z</time></trkpt>
        <trkpt lat="29.3432584" lon="103.0242282"><ele>3143.22</ele><time>2025-09-23T20:39:37.000Z</time></trkpt>
        <trkpt lat="29.3432918" lon="103.0243341"><ele>3143.08</ele><time>2025-09-23T20:39:55.000Z</time></trkpt>
        <trkpt lat="29.3432848" lon="103.02445"><ele>3141.84</ele><time>2025-09-23T20:40:31.000Z</time></trkpt>
        <trkpt lat="29.3432075" lon="103.0244724"><ele>3144.77</ele><time>2025-09-23T20:40:49.000Z</time></trkpt>
        <trkpt lat="29.3431391" lon="103.0245343"><ele>3146.88</ele><time>2025-09-23T20:41:09.000Z</time></trkpt>
        <trkpt lat="29.343081" lon="103.0246203"><ele>3149.29</ele><time>2025-09-23T20:41:39.000Z</time></trkpt>
        <trkpt lat="29.3430271" lon="103.0247163"><ele>3154.04</ele><time>2025-09-23T20:41:56.000Z</time></trkpt>
        <trkpt lat="29.3429496" lon="103.0247816"><ele>3160.81</ele><time>2025-09-23T20:42:08.000Z</time></trkpt>
        <trkpt lat="29.3428933" lon="103.0247227"><ele>3165</ele><time>2025-09-23T20:43:04.000Z</time></trkpt>
        <trkpt lat="29.3429865" lon="103.024705"><ele>3164.61</ele><time>2025-09-23T20:47:43.000Z</time></trkpt>
        <trkpt lat="29.3429667" lon="103.0248095"><ele>3166.55</ele><time>2025-09-23T21:01:17.000Z</time></trkpt>
        <trkpt lat="29.3430528" lon="103.0248508"><ele>3169.54</ele><time>2025-09-23T21:02:03.000Z</time></trkpt>
        <trkpt lat="29.3431258" lon="103.0249262"><ele>3169.09</ele><time>2025-09-23T21:02:21.000Z</time></trkpt>
        <trkpt lat="29.3432138" lon="103.0249787"><ele>3167.41</ele><time>2025-09-23T21:03:57.000Z</time></trkpt>
        <trkpt lat="29.3433048" lon="103.0250121"><ele>3163.82</ele><time>2025-09-23T21:04:17.000Z</time></trkpt>
        <trkpt lat="29.3433766" lon="103.0250872"><ele>3160.52</ele><time>2025-09-23T21:04:53.000Z</time></trkpt>
        <trkpt lat="29.3433781" lon="103.0251419"><ele>3157.93</ele><time>2025-09-23T21:05:03.000Z</time></trkpt>
        <trkpt lat="29.3434595" lon="103.0251243"><ele>3155.72</ele><time>2025-09-23T21:06:27.000Z</time></trkpt>
        <trkpt lat="29.3435467" lon="103.0250826"><ele>3151.09</ele><time>2025-09-23T21:08:25.000Z</time></trkpt>
        <trkpt lat="29.343569" lon="103.0250989"><ele>3149.4</ele><time>2025-09-23T21:08:29.000Z</time></trkpt>
        <trkpt lat="29.3436208" lon="103.0250125"><ele>3148.66</ele><time>2025-09-23T21:10:06.000Z</time></trkpt>
        <trkpt lat="29.3435732" lon="103.0249197"><ele>3144.78</ele><time>2025-09-23T21:12:22.000Z</time></trkpt>
        <trkpt lat="29.3434887" lon="103.0248537"><ele>3145.73</ele><time>2025-09-23T21:12:56.000Z</time></trkpt>
        <trkpt lat="29.3434779" lon="103.0248596"><ele>3144.5</ele><time>2025-09-23T21:13:00.000Z</time></trkpt>
        <trkpt lat="29.3434157" lon="103.0248259"><ele>3144.21</ele><time>2025-09-23T21:13:24.000Z</time></trkpt>
        <trkpt lat="29.3433573" lon="103.0247396"><ele>3143.7</ele><time>2025-09-23T21:13:42.000Z</time></trkpt>
        <trkpt lat="29.3433381" lon="103.0246343"><ele>3142.87</ele><time>2025-09-23T21:14:08.000Z</time></trkpt>
        <trkpt lat="29.3432869" lon="103.0245457"><ele>3145.01</ele><time>2025-09-23T21:14:54.000Z</time></trkpt>
        <trkpt lat="29.3432911" lon="103.0244457"><ele>3147.48</ele><time>2025-09-23T21:15:12.000Z</time></trkpt>
        <trkpt lat="29.3432673" lon="103.0243459"><ele>3148.67</ele><time>2025-09-23T21:16:40.000Z</time></trkpt>
        <trkpt lat="29.3432755" lon="103.0242249"><ele>3149.74</ele><time>2025-09-23T21:16:54.000Z</time></trkpt>
        <trkpt lat="29.3432911" lon="103.0241187"><ele>3151.34</ele><time>2025-09-23T21:17:06.000Z</time></trkpt>
        <trkpt lat="29.343276" lon="103.0240108"><ele>3152.69</ele><time>2025-09-23T21:17:18.000Z</time></trkpt>
        <trkpt lat="29.343251" lon="103.0239054"><ele>3151.84</ele><time>2025-09-23T21:17:32.000Z</time></trkpt>
        <trkpt lat="29.3432075" lon="103.0238092"><ele>3150.02</ele><time>2025-09-23T21:18:04.000Z</time></trkpt>
        <trkpt lat="29.3432026" lon="103.0237018"><ele>3149.69</ele><time>2025-09-23T21:18:16.000Z</time></trkpt>
        <trkpt lat="29.3432392" lon="103.0236033"><ele>3146.09</ele><time>2025-09-23T21:18:48.000Z</time></trkpt>
        <trkpt lat="29.3432917" lon="103.0235084"><ele>3145.86</ele><time>2025-09-23T21:19:16.000Z</time></trkpt>
        <trkpt lat="29.3433371" lon="103.0234115"><ele>3145.15</ele><time>2025-09-23T21:19:30.000Z</time></trkpt>
        <trkpt lat="29.3434173" lon="103.0233537"><ele>3144.95</ele><time>2025-09-23T21:19:48.000Z</time></trkpt>
        <trkpt lat="29.3434911" lon="103.0232749"><ele>3142.47</ele><time>2025-09-23T21:20:00.000Z</time></trkpt>
        <trkpt lat="29.3435458" lon="103.0231769"><ele>3140.49</ele><time>2025-09-23T21:20:16.000Z</time></trkpt>
        <trkpt lat="29.3436177" lon="103.0231071"><ele>3140.63</ele><time>2025-09-23T21:20:40.000Z</time></trkpt>
        <trkpt lat="29.343712" lon="103.0230827"><ele>3140.86</ele><time>2025-09-23T21:20:59.000Z</time></trkpt>
        <trkpt lat="29.3438073" lon="103.0230651"><ele>3140.95</ele><time>2025-09-23T21:21:15.000Z</time></trkpt>
        <trkpt lat="29.3439039" lon="103.0230474"><ele>3141.31</ele><time>2025-09-23T21:21:33.000Z</time></trkpt>
        <trkpt lat="29.34398" lon="103.0229812"><ele>3142.95</ele><time>2025-09-23T21:23:15.000Z</time></trkpt>
        <trkpt lat="29.3439267" lon="103.0228865"><ele>3146.05</ele><time>2025-09-23T21:24:07.000Z</time></trkpt>
        <trkpt lat="29.3438777" lon="103.0227938"><ele>3149.36</ele><time>2025-09-23T21:24:35.000Z</time></trkpt>
        <trkpt lat="29.343839" lon="103.0226957"><ele>3152.02</ele><time>2025-09-23T21:26:21.000Z</time></trkpt>
        <trkpt lat="29.3438892" lon="103.0225976"><ele>3154.7</ele><time>2025-09-23T21:26:29.000Z</time></trkpt>
        <trkpt lat="29.3440055" lon="103.0225804"><ele>3154.74</ele><time>2025-09-23T21:26:39.000Z</time></trkpt>
        <trkpt lat="29.3440971" lon="103.0226287"><ele>3154.23</ele><time>2025-09-23T21:27:31.000Z</time></trkpt>
        <trkpt lat="29.3441364" lon="103.0227496"><ele>3149.15</ele><time>2025-09-23T21:27:47.000Z</time></trkpt>
        <trkpt lat="29.3441665" lon="103.0228673"><ele>3147.1</ele><time>2025-09-23T21:28:01.000Z</time></trkpt>
        <trkpt lat="29.3442379" lon="103.022908"><ele>3144.29</ele><time>2025-09-23T21:28:23.000Z</time></trkpt>
        <trkpt lat="29.3442977" lon="103.0227943"><ele>3144.21</ele><time>2025-09-23T21:31:31.000Z</time></trkpt>
        <trkpt lat="29.3444002" lon="103.0227907"><ele>3145.62</ele><time>2025-09-23T21:31:39.000Z</time></trkpt>
        <trkpt lat="29.3444992" lon="103.0227947"><ele>3145.35</ele><time>2025-09-23T21:31:47.000Z</time></trkpt>
        <trkpt lat="29.3445872" lon="103.0227493"><ele>3144.85</ele><time>2025-09-23T21:32:07.000Z</time></trkpt>
        <trkpt lat="29.3446732" lon="103.0227665"><ele>3144.35</ele><time>2025-09-23T21:32:33.000Z</time></trkpt>
        <trkpt lat="29.3447634" lon="103.0228008"><ele>3145.42</ele><time>2025-09-23T21:33:29.000Z</time></trkpt>
        <trkpt lat="29.3448276" lon="103.0228863"><ele>3146.53</ele><time>2025-09-23T21:34:03.000Z</time></trkpt>
        <trkpt lat="29.3448791" lon="103.0229951"><ele>3147.8</ele><time>2025-09-23T21:35:11.000Z</time></trkpt>
        <trkpt lat="29.3449721" lon="103.0229621"><ele>3148.45</ele><time>2025-09-23T21:35:27.000Z</time></trkpt>
        <trkpt lat="29.3450577" lon="103.0229164"><ele>3149.35</ele><time>2025-09-23T21:35:47.000Z</time></trkpt>
        <trkpt lat="29.3451487" lon="103.0228861"><ele>3147.95</ele><time>2025-09-23T21:36:09.000Z</time></trkpt>
        <trkpt lat="29.3451561" lon="103.0229558"><ele>3146.4</ele><time>2025-09-23T21:36:41.000Z</time></trkpt>
        <trkpt lat="29.3451672" lon="103.0230609"><ele>3144.84</ele><time>2025-09-23T21:37:03.000Z</time></trkpt>
        <trkpt lat="29.3451589" lon="103.0230152"><ele>3144.12</ele><time>2025-09-23T21:37:33.000Z</time></trkpt>
        <trkpt lat="29.3450965" lon="103.022938"><ele>3146.8</ele><time>2025-09-23T21:37:55.000Z</time></trkpt>
        <trkpt lat="29.3450206" lon="103.0228533"><ele>3152.11</ele><time>2025-09-23T21:38:19.000Z</time></trkpt>
        <trkpt lat="29.345028" lon="103.0227315"><ele>3154.38</ele><time>2025-09-23T21:38:33.000Z</time></trkpt>
        <trkpt lat="29.345101" lon="103.0226477"><ele>3153.3</ele><time>2025-09-23T21:38:47.000Z</time></trkpt>
        <trkpt lat="29.3450992" lon="103.0225526"><ele>3154.34</ele><time>2025-09-23T21:39:29.000Z</time></trkpt>
        <trkpt lat="29.3450685" lon="103.0224385"><ele>3157.42</ele><time>2025-09-23T21:39:47.000Z</time></trkpt>
        <trkpt lat="29.3451307" lon="103.0223791"><ele>3156.38</ele><time>2025-09-23T21:40:11.000Z</time></trkpt>
        <trkpt lat="29.3452289" lon="103.0223306"><ele>3155.62</ele><time>2025-09-23T21:40:33.000Z</time></trkpt>
        <trkpt lat="29.3452971" lon="103.0222554"><ele>3154.59</ele><time>2025-09-23T21:40:43.000Z</time></trkpt>
        <trkpt lat="29.3453959" lon="103.0222322"><ele>3154.64</ele><time>2025-09-23T21:41:11.000Z</time></trkpt>
        <trkpt lat="29.3455044" lon="103.0222345"><ele>3153.61</ele><time>2025-09-23T21:41:23.000Z</time></trkpt>
        <trkpt lat="29.345597" lon="103.022193"><ele>3150.71</ele><time>2025-09-23T21:41:43.000Z</time></trkpt>
        <trkpt lat="29.3456226" lon="103.0221662"><ele>3148.59</ele><time>2025-09-23T21:41:45.000Z</time></trkpt>
        <trkpt lat="29.3456856" lon="103.0221125"><ele>3147.45</ele><time>2025-09-23T21:44:06.000Z</time></trkpt>
        <trkpt lat="29.3457775" lon="103.0220562"><ele>3149.02</ele><time>2025-09-23T21:44:20.000Z</time></trkpt>
        <trkpt lat="29.3458422" lon="103.0219697"><ele>3150.66</ele><time>2025-09-23T21:44:48.000Z</time></trkpt>
        <trkpt lat="29.3459186" lon="103.0218928"><ele>3152.96</ele><time>2025-09-23T21:45:02.000Z</time></trkpt>
        <trkpt lat="29.3459685" lon="103.021801"><ele>3153.9</ele><time>2025-09-23T21:45:30.000Z</time></trkpt>
        <trkpt lat="29.346057" lon="103.0217567"><ele>3152.72</ele><time>2025-09-23T21:47:32.000Z</time></trkpt>
        <trkpt lat="29.3461547" lon="103.0217203"><ele>3154.99</ele><time>2025-09-23T21:47:58.000Z</time></trkpt>
        <trkpt lat="29.3462557" lon="103.021753"><ele>3157.11</ele><time>2025-09-23T21:48:20.000Z</time></trkpt>
        <trkpt lat="29.3463467" lon="103.0217387"><ele>3159.83</ele><time>2025-09-23T21:48:40.000Z</time></trkpt>
        <trkpt lat="29.3464381" lon="103.0217069"><ele>3162.45</ele><time>2025-09-23T21:48:54.000Z</time></trkpt>
        <trkpt lat="29.3465267" lon="103.0216538"><ele>3165.75</ele><time>2025-09-23T21:49:26.000Z</time></trkpt>
        <trkpt lat="29.346562" lon="103.021545"><ele>3167.42</ele><time>2025-09-23T21:49:50.000Z</time></trkpt>
        <trkpt lat="29.3465905" lon="103.02151"><ele>3169.18</ele><time>2025-09-23T21:50:06.000Z</time></trkpt>
        <trkpt lat="29.3466605" lon="103.0215249"><ele>3169.03</ele><time>2025-09-23T21:50:22.000Z</time></trkpt>
        <trkpt lat="29.3467489" lon="103.0215051"><ele>3169.9</ele><time>2025-09-23T21:50:34.000Z</time></trkpt>
        <trkpt lat="29.3468453" lon="103.0214895"><ele>3171.02</ele><time>2025-09-23T21:50:48.000Z</time></trkpt>
        <trkpt lat="29.3469406" lon="103.0214883"><ele>3172.05</ele><time>2025-09-23T21:51:02.000Z</time></trkpt>
        <trkpt lat="29.3470414" lon="103.021503"><ele>3172.34</ele><time>2025-09-23T21:51:20.000Z</time></trkpt>
        <trkpt lat="29.3471343" lon="103.0215455"><ele>3172.43</ele><time>2025-09-23T21:51:38.000Z</time></trkpt>
        <trkpt lat="29.347225" lon="103.0215684"><ele>3173.21</ele><time>2025-09-23T21:52:06.000Z</time></trkpt>
        <trkpt lat="29.3473173" lon="103.0215592"><ele>3175.02</ele><time>2025-09-23T21:52:20.000Z</time></trkpt>
        <trkpt lat="29.3473888" lon="103.021613"><ele>3174.47</ele><time>2025-09-23T21:52:44.000Z</time></trkpt>
        <trkpt lat="29.3474719" lon="103.0216534"><ele>3174.35</ele><time>2025-09-23T21:53:14.000Z</time></trkpt>
        <trkpt lat="29.3475345" lon="103.0217298"><ele>3172.84</ele><time>2025-09-23T21:53:30.000Z</time></trkpt>
        <trkpt lat="29.3475368" lon="103.0218332"><ele>3173.43</ele><time>2025-09-23T21:54:14.000Z</time></trkpt>
        <trkpt lat="29.3475401" lon="103.021944"><ele>3172.9</ele><time>2025-09-23T21:54:42.000Z</time></trkpt>
        <trkpt lat="29.3476089" lon="103.0219829"><ele>3171.26</ele><time>2025-09-23T21:55:14.000Z</time></trkpt>
        <trkpt lat="29.3476996" lon="103.021998"><ele>3171.63</ele><time>2025-09-23T21:55:48.000Z</time></trkpt>
        <trkpt lat="29.3477982" lon="103.0219924"><ele>3172.95</ele><time>2025-09-23T21:56:04.000Z</time></trkpt>
        <trkpt lat="29.3479012" lon="103.0219829"><ele>3175.8</ele><time>2025-09-23T21:56:18.000Z</time></trkpt>
        <trkpt lat="29.3480059" lon="103.0220007"><ele>3178.11</ele><time>2025-09-23T21:56:48.000Z</time></trkpt>
        <trkpt lat="29.3481114" lon="103.0220183"><ele>3180.64</ele><time>2025-09-23T21:56:58.000Z</time></trkpt>
        <trkpt lat="29.348173" lon="103.0220993"><ele>3181.75</ele><time>2025-09-23T21:58:02.000Z</time></trkpt>
        <trkpt lat="29.3482579" lon="103.0221468"><ele>3182.69</ele><time>2025-09-23T21:58:46.000Z</time></trkpt>
        <trkpt lat="29.3483413" lon="103.022207"><ele>3182.79</ele><time>2025-09-23T21:59:46.000Z</time></trkpt>
        <trkpt lat="29.3483552" lon="103.0222174"><ele>3179.09</ele><time>2025-09-23T21:59:52.000Z</time></trkpt>
        <trkpt lat="29.348423" lon="103.0222094"><ele>3177.55</ele><time>2025-09-23T22:00:42.000Z</time></trkpt>
        <trkpt lat="29.3484304" lon="103.0221236"><ele>3178.07</ele><time>2025-09-23T22:01:14.000Z</time></trkpt>
        <trkpt lat="29.3484735" lon="103.02203"><ele>3179.57</ele><time>2025-09-23T22:01:44.000Z</time></trkpt>
        <trkpt lat="29.3485564" lon="103.0219824"><ele>3180.18</ele><time>2025-09-23T22:01:56.000Z</time></trkpt>
        <trkpt lat="29.3486793" lon="103.0219834"><ele>3180.09</ele><time>2025-09-23T22:03:50.000Z</time></trkpt>
        <trkpt lat="29.3487688" lon="103.0219497"><ele>3182.26</ele><time>2025-09-23T22:04:02.000Z</time></trkpt>
        <trkpt lat="29.3488654" lon="103.0219415"><ele>3182.94</ele><time>2025-09-23T22:04:18.000Z</time></trkpt>
        <trkpt lat="29.3489521" lon="103.0219018"><ele>3182.88</ele><time>2025-09-23T22:05:44.000Z</time></trkpt>
        <trkpt lat="29.3489709" lon="103.0218812"><ele>3182.87</ele><time>2025-09-23T22:05:50.000Z</time></trkpt>
        <trkpt lat="29.3490569" lon="103.0218713"><ele>3182.14</ele><time>2025-09-23T22:06:36.000Z</time></trkpt>
        <trkpt lat="29.3491532" lon="103.0219112"><ele>3183.38</ele><time>2025-09-23T22:08:00.000Z</time></trkpt>
        <trkpt lat="29.3492147" lon="103.0218277"><ele>3185.78</ele><time>2025-09-23T22:08:18.000Z</time></trkpt>
        <trkpt lat="29.3493025" lon="103.0217786"><ele>3187.85</ele><time>2025-09-23T22:08:30.000Z</time></trkpt>
        <trkpt lat="29.3494065" lon="103.0217428"><ele>3187.06</ele><time>2025-09-23T22:08:44.000Z</time></trkpt>
        <trkpt lat="29.3494688" lon="103.0216643"><ele>3185.15</ele><time>2025-09-23T22:09:00.000Z</time></trkpt>
        <trkpt lat="29.3495021" lon="103.0216381"><ele>3183.82</ele><time>2025-09-23T22:09:06.000Z</time></trkpt>
        <trkpt lat="29.3495727" lon="103.0216408"><ele>3183.91</ele><time>2025-09-23T22:09:20.000Z</time></trkpt>
        <trkpt lat="29.3496659" lon="103.0216502"><ele>3180.82</ele><time>2025-09-23T22:09:42.000Z</time></trkpt>
        <trkpt lat="29.3497605" lon="103.0216329"><ele>3178.32</ele><time>2025-09-23T22:09:54.000Z</time></trkpt>
        <trkpt lat="29.3498491" lon="103.0216681"><ele>3177.39</ele><time>2025-09-23T22:10:06.000Z</time></trkpt>
        <trkpt lat="29.3498657" lon="103.0217829"><ele>3172.83</ele><time>2025-09-23T22:10:38.000Z</time></trkpt>
        <trkpt lat="29.3498111" lon="103.0218865"><ele>3169.01</ele><time>2025-09-23T22:10:52.000Z</time></trkpt>
        <trkpt lat="29.3498465" lon="103.0218848"><ele>3167.38</ele><time>2025-09-23T22:11:38.000Z</time></trkpt>
        <trkpt lat="29.3498819" lon="103.0217941"><ele>3170.18</ele><time>2025-09-23T22:11:58.000Z</time></trkpt>
        <trkpt lat="29.3499637" lon="103.0216734"><ele>3170.55</ele><time>2025-09-23T22:13:18.000Z</time></trkpt>
        <trkpt lat="29.3498761" lon="103.0217013"><ele>3168.36</ele><time>2025-09-23T22:14:48.000Z</time></trkpt>
        <trkpt lat="29.3499772" lon="103.021674"><ele>3166.29</ele><time>2025-09-23T22:19:44.000Z</time></trkpt>
        <trkpt lat="29.3500704" lon="103.0216426"><ele>3166.74</ele><time>2025-09-23T22:19:58.000Z</time></trkpt>
        <trkpt lat="29.3501699" lon="103.0216449"><ele>3166.48</ele><time>2025-09-23T22:20:12.000Z</time></trkpt>
        <trkpt lat="29.350261" lon="103.0216286"><ele>3165.4</ele><time>2025-09-23T22:20:24.000Z</time></trkpt>
        <trkpt lat="29.350172" lon="103.0215717"><ele>3164.38</ele><time>2025-09-23T22:24:20.000Z</time></trkpt>
        <trkpt lat="29.3501562" lon="103.0214628"><ele>3166.36</ele><time>2025-09-23T22:24:38.000Z</time></trkpt>
        <trkpt lat="29.3501101" lon="103.0213726"><ele>3168.75</ele><time>2025-09-23T22:24:52.000Z</time></trkpt>
        <trkpt lat="29.3500565" lon="103.0212876"><ele>3170.06</ele><time>2025-09-23T22:25:08.000Z</time></trkpt>
        <trkpt lat="29.3500785" lon="103.021195"><ele>3171.47</ele><time>2025-09-23T22:25:22.000Z</time></trkpt>
        <trkpt lat="29.3501504" lon="103.0211249"><ele>3172.25</ele><time>2025-09-23T22:25:34.000Z</time></trkpt>
        <trkpt lat="29.3502137" lon="103.0210374"><ele>3172.41</ele><time>2025-09-23T22:25:46.000Z</time></trkpt>
        <trkpt lat="29.3502816" lon="103.02096"><ele>3172.11</ele><time>2025-09-23T22:26:00.000Z</time></trkpt>
        <trkpt lat="29.3503811" lon="103.0209688"><ele>3171.58</ele><time>2025-09-23T22:26:10.000Z</time></trkpt>
        <trkpt lat="29.3504125" lon="103.0209946"><ele>3169.11</ele><time>2025-09-23T22:26:14.000Z</time></trkpt>
        <trkpt lat="29.3503507" lon="103.0209625"><ele>3167.49</ele><time>2025-09-23T22:26:52.000Z</time></trkpt>
        <trkpt lat="29.3503127" lon="103.020833"><ele>3167.49</ele><time>2025-09-23T22:28:16.000Z</time></trkpt>
        <trkpt lat="29.3504114" lon="103.0207736"><ele>3170.35</ele><time>2025-09-23T22:28:28.000Z</time></trkpt>
        <trkpt lat="29.3504979" lon="103.0207206"><ele>3172.51</ele><time>2025-09-23T22:28:40.000Z</time></trkpt>
        <trkpt lat="29.350583" lon="103.0206572"><ele>3173.26</ele><time>2025-09-23T22:28:50.000Z</time></trkpt>
        <trkpt lat="29.3506495" lon="103.0205807"><ele>3173.02</ele><time>2025-09-23T22:29:02.000Z</time></trkpt>
        <trkpt lat="29.3507082" lon="103.020495"><ele>3172.41</ele><time>2025-09-23T22:29:12.000Z</time></trkpt>
        <trkpt lat="29.3507758" lon="103.0204215"><ele>3171.52</ele><time>2025-09-23T22:29:22.000Z</time></trkpt>
        <trkpt lat="29.3508345" lon="103.0203322"><ele>3171.22</ele><time>2025-09-23T22:29:32.000Z</time></trkpt>
        <trkpt lat="29.3508656" lon="103.0202212"><ele>3172.26</ele><time>2025-09-23T22:29:44.000Z</time></trkpt>
        <trkpt lat="29.3509396" lon="103.0201723"><ele>3172.46</ele><time>2025-09-23T22:29:54.000Z</time></trkpt>
        <trkpt lat="29.3510238" lon="103.0201225"><ele>3171.99</ele><time>2025-09-23T22:30:04.000Z</time></trkpt>
        <trkpt lat="29.3511014" lon="103.0200567"><ele>3173.46</ele><time>2025-09-23T22:30:20.000Z</time></trkpt>
        <trkpt lat="29.3511729" lon="103.0199741"><ele>3172.43</ele><time>2025-09-23T22:30:30.000Z</time></trkpt>
        <trkpt lat="29.3512457" lon="103.019883"><ele>3172.75</ele><time>2025-09-23T22:30:42.000Z</time></trkpt>
        <trkpt lat="29.3513395" lon="103.0198491"><ele>3173.53</ele><time>2025-09-23T22:31:00.000Z</time></trkpt>
        <trkpt lat="29.3514251" lon="103.01981"><ele>3173.78</ele><time>2025-09-23T22:31:06.000Z</time></trkpt>
        <trkpt lat="29.3515123" lon="103.019763"><ele>3172.14</ele><time>2025-09-23T22:31:16.000Z</time></trkpt>
        <trkpt lat="29.3516083" lon="103.0197258"><ele>3170.67</ele><time>2025-09-23T22:31:26.000Z</time></trkpt>
        <trkpt lat="29.3517039" lon="103.0196946"><ele>3172.45</ele><time>2025-09-23T22:31:38.000Z</time></trkpt>
        <trkpt lat="29.3517988" lon="103.0196795"><ele>3174.78</ele><time>2025-09-23T22:31:48.000Z</time></trkpt>
        <trkpt lat="29.3518904" lon="103.0196537"><ele>3174.62</ele><time>2025-09-23T22:32:00.000Z</time></trkpt>
        <trkpt lat="29.3519791" lon="103.0196159"><ele>3171.67</ele><time>2025-09-23T22:32:20.000Z</time></trkpt>
        <trkpt lat="29.352009" lon="103.01964"><ele>3167.41</ele><time>2025-09-23T22:32:46.000Z</time></trkpt>
        <trkpt lat="29.352074" lon="103.0196237"><ele>3165.18</ele><time>2025-09-23T22:33:02.000Z</time></trkpt>
        <trkpt lat="29.3521549" lon="103.0195801"><ele>3163.9</ele><time>2025-09-23T22:33:14.000Z</time></trkpt>
        <trkpt lat="29.3522542" lon="103.0195487"><ele>3161.19</ele><time>2025-09-23T22:35:48.000Z</time></trkpt>
        <trkpt lat="29.3523065" lon="103.0194531"><ele>3159.31</ele><time>2025-09-23T22:36:06.000Z</time></trkpt>
        <trkpt lat="29.3523304" lon="103.0193507"><ele>3156.41</ele><time>2025-09-23T22:36:24.000Z</time></trkpt>
        <trkpt lat="29.3524082" lon="103.019301"><ele>3150.67</ele><time>2025-09-23T22:36:32.000Z</time></trkpt>
        <trkpt lat="29.3525013" lon="103.0192926"><ele>3148.63</ele><time>2025-09-23T22:36:48.000Z</time></trkpt>
        <trkpt lat="29.3525779" lon="103.01924"><ele>3148.18</ele><time>2025-09-23T22:37:16.000Z</time></trkpt>
        <trkpt lat="29.3526444" lon="103.0192926"><ele>3143.74</ele><time>2025-09-23T22:37:34.000Z</time></trkpt>
        <trkpt lat="29.3526865" lon="103.0193176"><ele>3138.94</ele><time>2025-09-23T22:37:44.000Z</time></trkpt>
        <trkpt lat="29.3527595" lon="103.019285"><ele>3135.79</ele><time>2025-09-23T22:42:00.000Z</time></trkpt>
        <trkpt lat="29.3528534" lon="103.019273"><ele>3126.85</ele><time>2025-09-23T22:43:02.000Z</time></trkpt>
        <trkpt lat="29.3529412" lon="103.0193159"><ele>3120.14</ele><time>2025-09-23T22:45:06.000Z</time></trkpt>
        <trkpt lat="29.3530181" lon="103.0193738"><ele>3112.13</ele><time>2025-09-23T22:46:06.000Z</time></trkpt>
        <trkpt lat="29.3531031" lon="103.0194146"><ele>3101.44</ele><time>2025-09-23T22:46:26.000Z</time></trkpt>
        <trkpt lat="29.3531456" lon="103.0194248"><ele>3095.09</ele><time>2025-09-23T22:46:30.000Z</time></trkpt>
        <trkpt lat="29.3531095" lon="103.0194841"><ele>3091.79</ele><time>2025-09-23T22:46:58.000Z</time></trkpt>
        <trkpt lat="29.3531438" lon="103.0195864"><ele>3088.74</ele><time>2025-09-23T22:48:04.000Z</time></trkpt>
        <trkpt lat="29.3531512" lon="103.0195839"><ele>3079.14</ele><time>2025-09-23T22:48:08.000Z</time></trkpt>
        <trkpt lat="29.3532328" lon="103.0195886"><ele>3073.68</ele><time>2025-09-23T22:48:50.000Z</time></trkpt>
        <trkpt lat="29.3532503" lon="103.019591"><ele>3067.68</ele><time>2025-09-23T22:48:52.000Z</time></trkpt>
        <trkpt lat="29.3533148" lon="103.0195541"><ele>3064.19</ele><time>2025-09-23T22:49:18.000Z</time></trkpt>
        <trkpt lat="29.3532391" lon="103.0195029"><ele>3061.63</ele><time>2025-09-23T22:55:09.000Z</time></trkpt>
        <trkpt lat="29.3531664" lon="103.0195873"><ele>3057.31</ele><time>2025-09-23T22:55:33.000Z</time></trkpt>
        <trkpt lat="29.3532309" lon="103.0195398"><ele>3053.04</ele><time>2025-09-23T22:55:52.000Z</time></trkpt>
        <trkpt lat="29.3533357" lon="103.0195475"><ele>3050.01</ele><time>2025-09-23T22:56:35.000Z</time></trkpt>
        <trkpt lat="29.3534307" lon="103.019591"><ele>3048.34</ele><time>2025-09-23T22:56:49.000Z</time></trkpt>
        <trkpt lat="29.3535031" lon="103.019687"><ele>3048.6</ele><time>2025-09-23T22:58:25.000Z</time></trkpt>
        <trkpt lat="29.3534872" lon="103.0197937"><ele>3044.97</ele><time>2025-09-23T22:58:43.000Z</time></trkpt>
        <trkpt lat="29.353475" lon="103.0198992"><ele>3044.55</ele><time>2025-09-23T22:59:07.000Z</time></trkpt>
        <trkpt lat="29.353542" lon="103.0199182"><ele>3041.55</ele><time>2025-09-23T22:59:42.000Z</time></trkpt>
        <trkpt lat="29.3536304" lon="103.0198838"><ele>3036.94</ele><time>2025-09-23T22:59:54.000Z</time></trkpt>
        <trkpt lat="29.3537284" lon="103.0198536"><ele>3031.79</ele><time>2025-09-23T23:00:04.000Z</time></trkpt>
        <trkpt lat="29.3537747" lon="103.0199156"><ele>3026.93</ele><time>2025-09-23T23:00:30.000Z</time></trkpt>
        <trkpt lat="29.3538286" lon="103.0200003"><ele>3024.61</ele><time>2025-09-23T23:00:54.000Z</time></trkpt>
        <trkpt lat="29.3539082" lon="103.0200456"><ele>3020.66</ele><time>2025-09-23T23:01:24.000Z</time></trkpt>
        <trkpt lat="29.3539566" lon="103.0201287"><ele>3016.78</ele><time>2025-09-23T23:01:46.000Z</time></trkpt>
        <trkpt lat="29.3539751" lon="103.0201591"><ele>3013.82</ele><time>2025-09-23T23:01:48.000Z</time></trkpt>
        <trkpt lat="29.3540318" lon="103.0202154"><ele>3011.36</ele><time>2025-09-23T23:02:20.000Z</time></trkpt>
        <trkpt lat="29.3540452" lon="103.0202397"><ele>3011</ele><time>2025-09-23T23:02:28.000Z</time></trkpt>
        <trkpt lat="29.354122" lon="103.0202466"><ele>3011.14</ele><time>2025-09-23T23:02:52.000Z</time></trkpt>
        <trkpt lat="29.3541541" lon="103.0202566"><ele>3008.11</ele><time>2025-09-23T23:03:00.000Z</time></trkpt>
        <trkpt lat="29.354228" lon="103.0202641"><ele>3005.37</ele><time>2025-09-23T23:03:48.000Z</time></trkpt>
        <trkpt lat="29.3543161" lon="103.0202464"><ele>3002.02</ele><time>2025-09-23T23:04:10.000Z</time></trkpt>
        <trkpt lat="29.354396" lon="103.0203097"><ele>2998.67</ele><time>2025-09-23T23:05:30.000Z</time></trkpt>
        <trkpt lat="29.3545589" lon="103.0202976"><ele>2996.53</ele><time>2025-09-23T23:06:51.000Z</time></trkpt>
        <trkpt lat="29.3545392" lon="103.0203379"><ele>2995.74</ele><time>2025-09-23T23:07:07.000Z</time></trkpt>
        <trkpt lat="29.3544618" lon="103.0203259"><ele>2994.68</ele><time>2025-09-23T23:07:22.000Z</time></trkpt>
        <trkpt lat="29.3544736" lon="103.0202424"><ele>2991.93</ele><time>2025-09-23T23:07:58.000Z</time></trkpt>
        <trkpt lat="29.3545495" lon="103.0202432"><ele>2989.52</ele><time>2025-09-23T23:08:08.000Z</time></trkpt>
        <trkpt lat="29.3546523" lon="103.0202397"><ele>2986.54</ele><time>2025-09-23T23:08:32.000Z</time></trkpt>
        <trkpt lat="29.3547482" lon="103.0202784"><ele>2983.89</ele><time>2025-09-23T23:08:44.000Z</time></trkpt>
        <trkpt lat="29.3548436" lon="103.0202873"><ele>2981.83</ele><time>2025-09-23T23:09:12.000Z</time></trkpt>
        <trkpt lat="29.3549378" lon="103.0202937"><ele>2980.59</ele><time>2025-09-23T23:09:52.000Z</time></trkpt>
        <trkpt lat="29.355038" lon="103.0202981"><ele>2977.74</ele><time>2025-09-23T23:11:18.000Z</time></trkpt>
        <trkpt lat="29.3551325" lon="103.0203413"><ele>2976.96</ele><time>2025-09-23T23:11:50.000Z</time></trkpt>
        <trkpt lat="29.3552222" lon="103.0203612"><ele>2973.86</ele><time>2025-09-23T23:11:58.000Z</time></trkpt>
        <trkpt lat="29.3553166" lon="103.0203358"><ele>2971.26</ele><time>2025-09-23T23:12:20.000Z</time></trkpt>
        <trkpt lat="29.3554086" lon="103.0203587"><ele>2971.23</ele><time>2025-09-23T23:14:10.000Z</time></trkpt>
        <trkpt lat="29.3555076" lon="103.0203784"><ele>2971.13</ele><time>2025-09-23T23:14:28.000Z</time></trkpt>
        <trkpt lat="29.3556158" lon="103.020358"><ele>2969.34</ele><time>2025-09-23T23:14:42.000Z</time></trkpt>
        <trkpt lat="29.3557159" lon="103.0203494"><ele>2968.07</ele><time>2025-09-23T23:14:54.000Z</time></trkpt>
        <trkpt lat="29.3558041" lon="103.0203049"><ele>2967.04</ele><time>2025-09-23T23:15:06.000Z</time></trkpt>
        <trkpt lat="29.3558442" lon="103.0202422"><ele>2965.09</ele><time>2025-09-23T23:15:22.000Z</time></trkpt>
        <trkpt lat="29.3559122" lon="103.0201682"><ele>2963.25</ele><time>2025-09-23T23:15:46.000Z</time></trkpt>
        <trkpt lat="29.3559915" lon="103.0201826"><ele>2959.78</ele><time>2025-09-23T23:15:56.000Z</time></trkpt>
        <trkpt lat="29.3560707" lon="103.0201523"><ele>2956.58</ele><time>2025-09-23T23:16:10.000Z</time></trkpt>
        <trkpt lat="29.3561448" lon="103.0200888"><ele>2954.71</ele><time>2025-09-23T23:16:33.000Z</time></trkpt>
        <trkpt lat="29.3562315" lon="103.0200528"><ele>2954.72</ele><time>2025-09-23T23:16:45.000Z</time></trkpt>
        <trkpt lat="29.3563258" lon="103.0200315"><ele>2955.5</ele><time>2025-09-23T23:16:57.000Z</time></trkpt>
        <trkpt lat="29.356405" lon="103.0199821"><ele>2955.62</ele><time>2025-09-23T23:17:09.000Z</time></trkpt>
        <trkpt lat="29.3565027" lon="103.0199557"><ele>2954.3</ele><time>2025-09-23T23:17:19.000Z</time></trkpt>
        <trkpt lat="29.356555" lon="103.0199252"><ele>2952.49</ele><time>2025-09-23T23:17:31.000Z</time></trkpt>
        <trkpt lat="29.356605" lon="103.0198547"><ele>2950.78</ele><time>2025-09-23T23:18:07.000Z</time></trkpt>
        <trkpt lat="29.3565936" lon="103.0198181"><ele>2949.01</ele><time>2025-09-23T23:18:21.000Z</time></trkpt>
        <trkpt lat="29.3566159" lon="103.0197353"><ele>2946.42</ele><time>2025-09-23T23:18:39.000Z</time></trkpt>
        <trkpt lat="29.3566224" lon="103.0197094"><ele>2945.63</ele><time>2025-09-23T23:18:41.000Z</time></trkpt>
        <trkpt lat="29.3565445" lon="103.0197498"><ele>2945.42</ele><time>2025-09-23T23:19:01.000Z</time></trkpt>
        <trkpt lat="29.3565703" lon="103.0196984"><ele>2945.36</ele><time>2025-09-23T23:19:19.000Z</time></trkpt>
        <trkpt lat="29.356603" lon="103.0196585"><ele>2943.55</ele><time>2025-09-23T23:19:23.000Z</time></trkpt>
        <trkpt lat="29.3566436" lon="103.0195674"><ele>2942.59</ele><time>2025-09-23T23:20:01.000Z</time></trkpt>
        <trkpt lat="29.3567065" lon="103.0194748"><ele>2941.97</ele><time>2025-09-23T23:20:21.000Z</time></trkpt>
        <trkpt lat="29.3567475" lon="103.0193678"><ele>2942.93</ele><time>2025-09-23T23:20:41.000Z</time></trkpt>
        <trkpt lat="29.3568026" lon="103.0192695"><ele>2940.08</ele><time>2025-09-23T23:20:53.000Z</time></trkpt>
        <trkpt lat="29.3568847" lon="103.0192058"><ele>2937.11</ele><time>2025-09-23T23:21:05.000Z</time></trkpt>
        <trkpt lat="29.3569846" lon="103.0191902"><ele>2933.95</ele><time>2025-09-23T23:21:19.000Z</time></trkpt>
        <trkpt lat="29.3570692" lon="103.019128"><ele>2929.96</ele><time>2025-09-23T23:21:39.000Z</time></trkpt>
        <trkpt lat="29.3571228" lon="103.0190329"><ele>2924.52</ele><time>2025-09-23T23:22:33.000Z</time></trkpt>
        <trkpt lat="29.3571542" lon="103.0189284"><ele>2921.15</ele><time>2025-09-23T23:22:55.000Z</time></trkpt>
        <trkpt lat="29.3572168" lon="103.0188567"><ele>2917.65</ele><time>2025-09-23T23:23:57.000Z</time></trkpt>
        <trkpt lat="29.3571992" lon="103.0187551"><ele>2911.29</ele><time>2025-09-23T23:24:33.000Z</time></trkpt>
        <trkpt lat="29.3572654" lon="103.0187779"><ele>2906.49</ele><time>2025-09-23T23:25:33.000Z</time></trkpt>
        <trkpt lat="29.3573495" lon="103.018737"><ele>2899.27</ele><time>2025-09-23T23:26:17.000Z</time></trkpt>
        <trkpt lat="29.3574383" lon="103.0186946"><ele>2892.13</ele><time>2025-09-23T23:27:13.000Z</time></trkpt>
        <trkpt lat="29.357534" lon="103.0186705"><ele>2882.81</ele><time>2025-09-23T23:27:29.000Z</time></trkpt>
        <trkpt lat="29.3575843" lon="103.0185924"><ele>2876.7</ele><time>2025-09-23T23:27:55.000Z</time></trkpt>
        <trkpt lat="29.357676" lon="103.0185925"><ele>2872.67</ele><time>2025-09-23T23:29:23.000Z</time></trkpt>
        <trkpt lat="29.3576589" lon="103.018578"><ele>2867.34</ele><time>2025-09-23T23:29:27.000Z</time></trkpt>
        <trkpt lat="29.3577324" lon="103.0186176"><ele>2863.52</ele><time>2025-09-23T23:30:23.000Z</time></trkpt>
        <trkpt lat="29.3578322" lon="103.0185686"><ele>2858.96</ele><time>2025-09-23T23:31:25.000Z</time></trkpt>
        <trkpt lat="29.357909" lon="103.0186476"><ele>2852.06</ele><time>2025-09-23T23:32:01.000Z</time></trkpt>
        <trkpt lat="29.3578837" lon="103.0187407"><ele>2846.67</ele><time>2025-09-23T23:32:13.000Z</time></trkpt>
        <trkpt lat="29.3579146" lon="103.0188299"><ele>2845.16</ele><time>2025-09-23T23:32:39.000Z</time></trkpt>
        <trkpt lat="29.3579406" lon="103.0187887"><ele>2843.24</ele><time>2025-09-23T23:32:55.000Z</time></trkpt>
        <trkpt lat="29.3580167" lon="103.0187682"><ele>2837.42</ele><time>2025-09-23T23:33:15.000Z</time></trkpt>
        <trkpt lat="29.3580114" lon="103.0186881"><ele>2831.1</ele><time>2025-09-23T23:33:59.000Z</time></trkpt>
        <trkpt lat="29.3580747" lon="103.0186577"><ele>2823</ele><time>2025-09-23T23:34:25.000Z</time></trkpt>
        <trkpt lat="29.3581144" lon="103.0185732"><ele>2818.35</ele><time>2025-09-23T23:35:11.000Z</time></trkpt>
        <trkpt lat="29.3582008" lon="103.0185486"><ele>2811.98</ele><time>2025-09-23T23:35:23.000Z</time></trkpt>
        <trkpt lat="29.3582683" lon="103.0185595"><ele>2807.63</ele><time>2025-09-23T23:35:37.000Z</time></trkpt>
        <trkpt lat="29.3583673" lon="103.0185395"><ele>2804.65</ele><time>2025-09-23T23:37:28.000Z</time></trkpt>
        <trkpt lat="29.3584643" lon="103.0185121"><ele>2799.22</ele><time>2025-09-23T23:37:58.000Z</time></trkpt>
        <trkpt lat="29.3584986" lon="103.0186185"><ele>2791.3</ele><time>2025-09-23T23:39:02.000Z</time></trkpt>
        <trkpt lat="29.3584265" lon="103.0186875"><ele>2785.82</ele><time>2025-09-23T23:39:20.000Z</time></trkpt>
        <trkpt lat="29.3584126" lon="103.018786"><ele>2779.48</ele><time>2025-09-23T23:39:52.000Z</time></trkpt>
        <trkpt lat="29.3583558" lon="103.0188669"><ele>2774.12</ele><time>2025-09-23T23:40:08.000Z</time></trkpt>
        <trkpt lat="29.3583485" lon="103.0189669"><ele>2771.15</ele><time>2025-09-23T23:40:28.000Z</time></trkpt>
        <trkpt lat="29.3583176" lon="103.0190649"><ele>2769.46</ele><time>2025-09-23T23:40:44.000Z</time></trkpt>
        <trkpt lat="29.3582817" lon="103.0190755"><ele>2769.28</ele><time>2025-09-23T23:40:52.000Z</time></trkpt>
        <trkpt lat="29.3582008" lon="103.0190717"><ele>2767.56</ele><time>2025-09-23T23:41:18.000Z</time></trkpt>
        <trkpt lat="29.3582276" lon="103.0190835"><ele>2762.63</ele><time>2025-09-23T23:41:42.000Z</time></trkpt>
        <trkpt lat="29.3582995" lon="103.0191468"><ele>2757.98</ele><time>2025-09-23T23:41:56.000Z</time></trkpt>
        <trkpt lat="29.3583244" lon="103.0191687"><ele>2756.12</ele><time>2025-09-23T23:41:58.000Z</time></trkpt>
        <trkpt lat="29.3582748" lon="103.0191193"><ele>2755.27</ele><time>2025-09-23T23:42:16.000Z</time></trkpt>
        <trkpt lat="29.3583173" lon="103.0190683"><ele>2748.99</ele><time>2025-09-23T23:42:34.000Z</time></trkpt>
        <trkpt lat="29.3583939" lon="103.0190878"><ele>2742.69</ele><time>2025-09-23T23:42:56.000Z</time></trkpt>
        <trkpt lat="29.3584548" lon="103.0191685"><ele>2740.27</ele><time>2025-09-23T23:43:16.000Z</time></trkpt>
        <trkpt lat="29.3584782" lon="103.0191898"><ele>2739.19</ele><time>2025-09-23T23:43:48.000Z</time></trkpt>
        <trkpt lat="29.3585142" lon="103.0192719"><ele>2734.92</ele><time>2025-09-23T23:44:24.000Z</time></trkpt>
        <trkpt lat="29.3585884" lon="103.0193404"><ele>2732.03</ele><time>2025-09-23T23:45:22.000Z</time></trkpt>
        <trkpt lat="29.3586175" lon="103.0193596"><ele>2725.86</ele><time>2025-09-23T23:45:26.000Z</time></trkpt>
        <trkpt lat="29.3586897" lon="103.0193438"><ele>2721.68</ele><time>2025-09-23T23:45:56.000Z</time></trkpt>
        <trkpt lat="29.3587822" lon="103.0192751"><ele>2718.36</ele><time>2025-09-23T23:47:02.000Z</time></trkpt>
        <trkpt lat="29.3586896" lon="103.0193248"><ele>2711.01</ele><time>2025-09-23T23:47:18.000Z</time></trkpt>
        <trkpt lat="29.3586779" lon="103.0193413"><ele>2703.49</ele><time>2025-09-23T23:47:24.000Z</time></trkpt>
        <trkpt lat="29.3586623" lon="103.0194383"><ele>2697.95</ele><time>2025-09-23T23:47:46.000Z</time></trkpt>
        <trkpt lat="29.358597" lon="103.0194918"><ele>2694.05</ele><time>2025-09-23T23:48:02.000Z</time></trkpt>
        <trkpt lat="29.3585069" lon="103.0194992"><ele>2691.93</ele><time>2025-09-23T23:48:24.000Z</time></trkpt>
        <trkpt lat="29.3584257" lon="103.0195488"><ele>2691.24</ele><time>2025-09-23T23:48:46.000Z</time></trkpt>
        <trkpt lat="29.358343" lon="103.0196109"><ele>2688.44</ele><time>2025-09-23T23:49:02.000Z</time></trkpt>
        <trkpt lat="29.3583098" lon="103.0196359"><ele>2686.08</ele><time>2025-09-23T23:49:08.000Z</time></trkpt>
        <trkpt lat="29.3582534" lon="103.0197984"><ele>2683.39</ele><time>2025-09-23T23:49:46.000Z</time></trkpt>
        <trkpt lat="29.3583062" lon="103.0197848"><ele>2682.36</ele><time>2025-09-23T23:49:54.000Z</time></trkpt>
        <trkpt lat="29.3583266" lon="103.019847"><ele>2678.67</ele><time>2025-09-23T23:50:50.000Z</time></trkpt>
        <trkpt lat="29.3583276" lon="103.0198662"><ele>2675.66</ele><time>2025-09-23T23:50:52.000Z</time></trkpt>
        <trkpt lat="29.3583128" lon="103.0199498"><ele>2673.91</ele><time>2025-09-23T23:51:16.000Z</time></trkpt>
        <trkpt lat="29.358395" lon="103.0200104"><ele>2673.5</ele><time>2025-09-23T23:52:22.000Z</time></trkpt>
        <trkpt lat="29.3584422" lon="103.0199173"><ele>2666.98</ele><time>2025-09-23T23:53:08.000Z</time></trkpt>
        <trkpt lat="29.3584825" lon="103.0198829"><ele>2660.78</ele><time>2025-09-23T23:53:20.000Z</time></trkpt>
        <trkpt lat="29.3585592" lon="103.0198952"><ele>2657.09</ele><time>2025-09-23T23:53:58.000Z</time></trkpt>
        <trkpt lat="29.3586538" lon="103.0199185"><ele>2652.38</ele><time>2025-09-23T23:54:24.000Z</time></trkpt>
        <trkpt lat="29.3587211" lon="103.019863"><ele>2647.78</ele><time>2025-09-23T23:54:42.000Z</time></trkpt>
        <trkpt lat="29.3587253" lon="103.0198002"><ele>2645.35</ele><time>2025-09-23T23:55:18.000Z</time></trkpt>
        <trkpt lat="29.3587852" lon="103.0198209"><ele>2639.74</ele><time>2025-09-23T23:55:34.000Z</time></trkpt>
        <trkpt lat="29.3588768" lon="103.0198389"><ele>2634.01</ele><time>2025-09-23T23:56:24.000Z</time></trkpt>
        <trkpt lat="29.3589296" lon="103.0197642"><ele>2628.65</ele><time>2025-09-23T23:57:14.000Z</time></trkpt>
        <trkpt lat="29.3589974" lon="103.0197461"><ele>2620.38</ele><time>2025-09-23T23:57:42.000Z</time></trkpt>
        <trkpt lat="29.3590916" lon="103.0197212"><ele>2614.87</ele><time>2025-09-23T23:58:34.000Z</time></trkpt>
        <trkpt lat="29.3591698" lon="103.0197195"><ele>2607.67</ele><time>2025-09-23T23:58:48.000Z</time></trkpt>
        <trkpt lat="29.359253" lon="103.0196936"><ele>2603.61</ele><time>2025-09-23T23:59:32.000Z</time></trkpt>
        <trkpt lat="29.3593356" lon="103.0197281"><ele>2598.35</ele><time>2025-09-24T00:00:24.000Z</time></trkpt>
        <trkpt lat="29.3594054" lon="103.0198005"><ele>2591.11</ele><time>2025-09-24T00:00:46.000Z</time></trkpt>
        <trkpt lat="29.3594199" lon="103.0198202"><ele>2586.87</ele><time>2025-09-24T00:00:48.000Z</time></trkpt>
        <trkpt lat="29.3594782" lon="103.0198585"><ele>2584.21</ele><time>2025-09-24T00:01:36.000Z</time></trkpt>
        <trkpt lat="29.3595493" lon="103.0199195"><ele>2577.48</ele><time>2025-09-24T00:01:58.000Z</time></trkpt>
        <trkpt lat="29.3596237" lon="103.0198898"><ele>2573.56</ele><time>2025-09-24T00:02:18.000Z</time></trkpt>
        <trkpt lat="29.359674" lon="103.0198039"><ele>2571.1</ele><time>2025-09-24T00:02:38.000Z</time></trkpt>
        <trkpt lat="29.3597001" lon="103.0196723"><ele>2569.63</ele><time>2025-09-24T00:04:30.000Z</time></trkpt>
        <trkpt lat="29.3598034" lon="103.019673"><ele>2559.73</ele><time>2025-09-24T00:04:36.000Z</time></trkpt>
        <trkpt lat="29.3598964" lon="103.0196299"><ele>2554.43</ele><time>2025-09-24T00:04:54.000Z</time></trkpt>
        <trkpt lat="29.3599832" lon="103.0195775"><ele>2551.87</ele><time>2025-09-24T00:05:24.000Z</time></trkpt>
        <trkpt lat="29.360075" lon="103.0195762"><ele>2549.57</ele><time>2025-09-24T00:06:00.000Z</time></trkpt>
        <trkpt lat="29.3601594" lon="103.0195424"><ele>2545.78</ele><time>2025-09-24T00:06:36.000Z</time></trkpt>
        <trkpt lat="29.3602503" lon="103.019523"><ele>2541.17</ele><time>2025-09-24T00:07:24.000Z</time></trkpt>
        <trkpt lat="29.3603345" lon="103.0195645"><ele>2536.7</ele><time>2025-09-24T00:07:50.000Z</time></trkpt>
        <trkpt lat="29.3603657" lon="103.0195952"><ele>2532.72</ele><time>2025-09-24T00:08:00.000Z</time></trkpt>
        <trkpt lat="29.3604189" lon="103.0196615"><ele>2529.29</ele><time>2025-09-24T00:08:22.000Z</time></trkpt>
        <trkpt lat="29.3605006" lon="103.0197079"><ele>2524.43</ele><time>2025-09-24T00:08:54.000Z</time></trkpt>
        <trkpt lat="29.3605386" lon="103.0197104"><ele>2519.38</ele><time>2025-09-24T00:09:02.000Z</time></trkpt>
        <trkpt lat="29.3605961" lon="103.0196555"><ele>2516.68</ele><time>2025-09-24T00:09:34.000Z</time></trkpt>
        <trkpt lat="29.3606652" lon="103.0195863"><ele>2512.09</ele><time>2025-09-24T00:10:10.000Z</time></trkpt>
        <trkpt lat="29.3607358" lon="103.0195098"><ele>2510.12</ele><time>2025-09-24T00:10:34.000Z</time></trkpt>
        <trkpt lat="29.3608324" lon="103.0194685"><ele>2507.94</ele><time>2025-09-24T00:10:56.000Z</time></trkpt>
        <trkpt lat="29.3609163" lon="103.0194036"><ele>2504.23</ele><time>2025-09-24T00:11:12.000Z</time></trkpt>
        <trkpt lat="29.3610057" lon="103.0193891"><ele>2498.62</ele><time>2025-09-24T00:11:28.000Z</time></trkpt>
        <trkpt lat="29.3611037" lon="103.0193664"><ele>2495.11</ele><time>2025-09-24T00:11:52.000Z</time></trkpt>
        <trkpt lat="29.3612037" lon="103.0193511"><ele>2491.47</ele><time>2025-09-24T00:12:16.000Z</time></trkpt>
        <trkpt lat="29.361297" lon="103.0193757"><ele>2486.1</ele><time>2025-09-24T00:12:58.000Z</time></trkpt>
        <trkpt lat="29.3613969" lon="103.0193856"><ele>2477.26</ele><time>2025-09-24T00:13:06.000Z</time></trkpt>
        <trkpt lat="29.361497" lon="103.0193776"><ele>2472.74</ele><time>2025-09-24T00:13:22.000Z</time></trkpt>
        <trkpt lat="29.3615821" lon="103.0193255"><ele>2470.13</ele><time>2025-09-24T00:13:40.000Z</time></trkpt>
        <trkpt lat="29.3616791" lon="103.0193184"><ele>2467.65</ele><time>2025-09-24T00:13:56.000Z</time></trkpt>
        <trkpt lat="29.3617658" lon="103.0193635"><ele>2464.93</ele><time>2025-09-24T00:14:10.000Z</time></trkpt>
        <trkpt lat="29.361862" lon="103.0193883"><ele>2463.36</ele><time>2025-09-24T00:14:28.000Z</time></trkpt>
        <trkpt lat="29.3619592" lon="103.0193841"><ele>2460.85</ele><time>2025-09-24T00:14:52.000Z</time></trkpt>
        <trkpt lat="29.3620513" lon="103.0194045"><ele>2456.68</ele><time>2025-09-24T00:15:12.000Z</time></trkpt>
        <trkpt lat="29.3621122" lon="103.0193427"><ele>2452.36</ele><time>2025-09-24T00:15:26.000Z</time></trkpt>
        <trkpt lat="29.3621931" lon="103.0192939"><ele>2449.04</ele><time>2025-09-24T00:15:48.000Z</time></trkpt>
        <trkpt lat="29.3622588" lon="103.0192141"><ele>2443.67</ele><time>2025-09-24T00:16:00.000Z</time></trkpt>
        <trkpt lat="29.3623512" lon="103.0191571"><ele>2441.64</ele><time>2025-09-24T00:16:16.000Z</time></trkpt>
        <trkpt lat="29.3624367" lon="103.0190984"><ele>2439.37</ele><time>2025-09-24T00:16:30.000Z</time></trkpt>
        <trkpt lat="29.3625238" lon="103.0191087"><ele>2440.03</ele><time>2025-09-24T00:16:44.000Z</time></trkpt>
        <trkpt lat="29.3626237" lon="103.0191096"><ele>2440.26</ele><time>2025-09-24T00:17:04.000Z</time></trkpt>
        <trkpt lat="29.3626992" lon="103.0190588"><ele>2440.4</ele><time>2025-09-24T00:17:14.000Z</time></trkpt>
        <trkpt lat="29.3627702" lon="103.018979"><ele>2440.8</ele><time>2025-09-24T00:17:26.000Z</time></trkpt>
        <trkpt lat="29.3628402" lon="103.0190073"><ele>2442.32</ele><time>2025-09-24T00:17:54.000Z</time></trkpt>
        <trkpt lat="29.3629195" lon="103.0189949"><ele>2441.86</ele><time>2025-09-24T00:18:12.000Z</time></trkpt>
        <trkpt lat="29.3629922" lon="103.018935"><ele>2441.41</ele><time>2025-09-24T00:18:26.000Z</time></trkpt>
        <trkpt lat="29.3630907" lon="103.0189223"><ele>2441.99</ele><time>2025-09-24T00:18:38.000Z</time></trkpt>
        <trkpt lat="29.3631609" lon="103.0189276"><ele>2441.28</ele><time>2025-09-24T00:18:50.000Z</time></trkpt>
        <trkpt lat="29.363215" lon="103.019032"><ele>2439.99</ele><time>2025-09-24T00:21:06.000Z</time></trkpt>
        <trkpt lat="29.3632398" lon="103.0191419"><ele>2443.89</ele><time>2025-09-24T00:21:14.000Z</time></trkpt>
        <trkpt lat="29.3632497" lon="103.0192564"><ele>2445.83</ele><time>2025-09-24T00:21:24.000Z</time></trkpt>
        <trkpt lat="29.3632709" lon="103.0193623"><ele>2447.14</ele><time>2025-09-24T00:21:34.000Z</time></trkpt>
        <trkpt lat="29.3632731" lon="103.0194776"><ele>2448.47</ele><time>2025-09-24T00:21:44.000Z</time></trkpt>
        <trkpt lat="29.3632727" lon="103.0196007"><ele>2448.71</ele><time>2025-09-24T00:21:54.000Z</time></trkpt>
        <trkpt lat="29.3632959" lon="103.0197165"><ele>2448.97</ele><time>2025-09-24T00:22:04.000Z</time></trkpt>
        <trkpt lat="29.3633782" lon="103.019782"><ele>2448.96</ele><time>2025-09-24T00:22:14.000Z</time></trkpt>
        <trkpt lat="29.3634134" lon="103.0197848"><ele>2449.42</ele><time>2025-09-24T00:22:16.000Z</time></trkpt>
        <trkpt lat="29.3634934" lon="103.0197853"><ele>2449.06</ele><time>2025-09-24T00:22:26.000Z</time></trkpt>
        <trkpt lat="29.3635856" lon="103.0197773"><ele>2446.71</ele><time>2025-09-24T00:22:34.000Z</time></trkpt>
        <trkpt lat="29.3636742" lon="103.0197158"><ele>2445</ele><time>2025-09-24T00:22:44.000Z</time></trkpt>
        <trkpt lat="29.3637491" lon="103.0196187"><ele>2443.46</ele><time>2025-09-24T00:22:54.000Z</time></trkpt>
        <trkpt lat="29.3638097" lon="103.0195114"><ele>2442.12</ele><time>2025-09-24T00:23:04.000Z</time></trkpt>
        <trkpt lat="29.363846" lon="103.0193937"><ele>2441.81</ele><time>2025-09-24T00:23:14.000Z</time></trkpt>
        <trkpt lat="29.3638644" lon="103.0192775"><ele>2441.66</ele><time>2025-09-24T00:23:24.000Z</time></trkpt>
        <trkpt lat="29.3638827" lon="103.019159"><ele>2441.61</ele><time>2025-09-24T00:23:38.000Z</time></trkpt>
        <trkpt lat="29.3639223" lon="103.019061"><ele>2441.35</ele><time>2025-09-24T00:23:48.000Z</time></trkpt>
        <trkpt lat="29.3639228" lon="103.0189478"><ele>2440.76</ele><time>2025-09-24T00:24:00.000Z</time></trkpt>
        <trkpt lat="29.3639478" lon="103.0188346"><ele>2439.96</ele><time>2025-09-24T00:24:10.000Z</time></trkpt>
        <trkpt lat="29.3639727" lon="103.0187311"><ele>2439.18</ele><time>2025-09-24T00:24:20.000Z</time></trkpt>
        <trkpt lat="29.364009" lon="103.0186214"><ele>2438.7</ele><time>2025-09-24T00:24:32.000Z</time></trkpt>
        <trkpt lat="29.3640338" lon="103.0185154"><ele>2437.76</ele><time>2025-09-24T00:24:42.000Z</time></trkpt>
        <trkpt lat="29.3640334" lon="103.0183976"><ele>2437.23</ele><time>2025-09-24T00:24:54.000Z</time></trkpt>
        <trkpt lat="29.3640583" lon="103.01829"><ele>2435.84</ele><time>2025-09-24T00:25:04.000Z</time></trkpt>
        <trkpt lat="29.3641177" lon="103.0182036"><ele>2435.81</ele><time>2025-09-24T00:25:14.000Z</time></trkpt>
        <trkpt lat="29.3641855" lon="103.0181158"><ele>2435.17</ele><time>2025-09-24T00:25:24.000Z</time></trkpt>
        <trkpt lat="29.3642572" lon="103.0180383"><ele>2434.95</ele><time>2025-09-24T00:25:34.000Z</time></trkpt>
        <trkpt lat="29.3643284" lon="103.017962"><ele>2434.74</ele><time>2025-09-24T00:25:44.000Z</time></trkpt>
        <trkpt lat="29.364408" lon="103.0178913"><ele>2433.38</ele><time>2025-09-24T00:25:54.000Z</time></trkpt>
        <trkpt lat="29.3644708" lon="103.0178059"><ele>2432.06</ele><time>2025-09-24T00:26:04.000Z</time></trkpt>
        <trkpt lat="29.3645349" lon="103.0177216"><ele>2431.58</ele><time>2025-09-24T00:26:14.000Z</time></trkpt>
        <trkpt lat="29.3646111" lon="103.0176471"><ele>2431.72</ele><time>2025-09-24T00:26:24.000Z</time></trkpt>
        <trkpt lat="29.3646987" lon="103.0175962"><ele>2430.83</ele><time>2025-09-24T00:26:34.000Z</time></trkpt>
        <trkpt lat="29.3647835" lon="103.0175647"><ele>2430</ele><time>2025-09-24T00:26:44.000Z</time></trkpt>
        <trkpt lat="29.3648636" lon="103.0174989"><ele>2428.83</ele><time>2025-09-24T00:26:54.000Z</time></trkpt>
        <trkpt lat="29.3649126" lon="103.0174675"><ele>2428.21</ele><time>2025-09-24T00:27:00.000Z</time></trkpt>
        <trkpt lat="29.3649505" lon="103.0173792"><ele>2427.84</ele><time>2025-09-24T00:27:22.000Z</time></trkpt>
        <trkpt lat="29.3650037" lon="103.0172736"><ele>2426.6</ele><time>2025-09-24T00:27:30.000Z</time></trkpt>
        <trkpt lat="29.3650586" lon="103.0171616"><ele>2425.33</ele><time>2025-09-24T00:27:38.000Z</time></trkpt>
        <trkpt lat="29.3651168" lon="103.0170594"><ele>2423.66</ele><time>2025-09-24T00:27:46.000Z</time></trkpt>
        <trkpt lat="29.365185" lon="103.0170117"><ele>2422.6</ele><time>2025-09-24T00:27:54.000Z</time></trkpt>
        <trkpt lat="29.3652372" lon="103.0169388"><ele>2422.15</ele><time>2025-09-24T00:28:12.000Z</time></trkpt>
        <trkpt lat="29.3652686" lon="103.0168405"><ele>2420.73</ele><time>2025-09-24T00:28:22.000Z</time></trkpt>
        <trkpt lat="29.3652861" lon="103.0167637"><ele>2417.36</ele><time>2025-09-24T00:28:30.000Z</time></trkpt>
        <trkpt lat="29.3653214" lon="103.0166787"><ele>2414.24</ele><time>2025-09-24T00:28:46.000Z</time></trkpt>
        <trkpt lat="29.3653787" lon="103.0165941"><ele>2411.86</ele><time>2025-09-24T00:28:58.000Z</time></trkpt>
        <trkpt lat="29.3654617" lon="103.0165235"><ele>2410.64</ele><time>2025-09-24T00:29:10.000Z</time></trkpt>
        <trkpt lat="29.36551" lon="103.0164926"><ele>2410.01</ele><time>2025-09-24T00:29:16.000Z</time></trkpt>
        <trkpt lat="29.3655868" lon="103.0164494"><ele>2409.28</ele><time>2025-09-24T00:29:30.000Z</time></trkpt>
        <trkpt lat="29.3656781" lon="103.016416"><ele>2409.61</ele><time>2025-09-24T00:29:42.000Z</time></trkpt>
        <trkpt lat="29.3657354" lon="103.0163882"><ele>2410.06</ele><time>2025-09-24T00:29:48.000Z</time></trkpt>
        <trkpt lat="29.3658028" lon="103.0163381"><ele>2409.14</ele><time>2025-09-24T00:29:58.000Z</time></trkpt>
        <trkpt lat="29.3658784" lon="103.0162717"><ele>2408.47</ele><time>2025-09-24T00:30:08.000Z</time></trkpt>
        <trkpt lat="29.3659486" lon="103.0161907"><ele>2407.98</ele><time>2025-09-24T00:30:18.000Z</time></trkpt>
        <trkpt lat="29.3660309" lon="103.0161268"><ele>2407.22</ele><time>2025-09-24T00:30:28.000Z</time></trkpt>
        <trkpt lat="29.3661136" lon="103.0160738"><ele>2405.89</ele><time>2025-09-24T00:30:38.000Z</time></trkpt>
        <trkpt lat="29.3662002" lon="103.0160253"><ele>2404.86</ele><time>2025-09-24T00:30:48.000Z</time></trkpt>
        <trkpt lat="29.3662986" lon="103.0159843"><ele>2404.34</ele><time>2025-09-24T00:30:58.000Z</time></trkpt>
        <trkpt lat="29.3663944" lon="103.0159485"><ele>2404.97</ele><time>2025-09-24T00:31:08.000Z</time></trkpt>
        <trkpt lat="29.3664977" lon="103.0159274"><ele>2406.89</ele><time>2025-09-24T00:31:18.000Z</time></trkpt>
        <trkpt lat="29.3666047" lon="103.015916"><ele>2410.21</ele><time>2025-09-24T00:31:28.000Z</time></trkpt>
        <trkpt lat="29.3667001" lon="103.0159405"><ele>2414.44</ele><time>2025-09-24T00:31:36.000Z</time></trkpt>
        <trkpt lat="29.3667962" lon="103.0159686"><ele>2417.56</ele><time>2025-09-24T00:31:46.000Z</time></trkpt>
        <trkpt lat="29.3668994" lon="103.0159897"><ele>2419.98</ele><time>2025-09-24T00:31:56.000Z</time></trkpt>
        <trkpt lat="29.3670079" lon="103.0160001"><ele>2420.73</ele><time>2025-09-24T00:32:06.000Z</time></trkpt>
        <trkpt lat="29.3671054" lon="103.0160353"><ele>2422.09</ele><time>2025-09-24T00:32:14.000Z</time></trkpt>
        <trkpt lat="29.3672056" lon="103.0160696"><ele>2424.95</ele><time>2025-09-24T00:32:22.000Z</time></trkpt>
        <trkpt lat="29.3672299" lon="103.0160774"><ele>2427.61</ele><time>2025-09-24T00:32:24.000Z</time></trkpt>
        <trkpt lat="29.3672598" lon="103.0161486"><ele>2429.04</ele><time>2025-09-24T00:32:42.000Z</time></trkpt>
        <trkpt lat="29.3672031" lon="103.0162092"><ele>2430.55</ele><time>2025-09-24T00:32:56.000Z</time></trkpt>
        <trkpt lat="29.3671293" lon="103.0162898"><ele>2428.46</ele><time>2025-09-24T00:33:12.000Z</time></trkpt>
        <trkpt lat="29.3671148" lon="103.0163937"><ele>2425.58</ele><time>2025-09-24T00:33:26.000Z</time></trkpt>
        <trkpt lat="29.3670838" lon="103.0165113"><ele>2422.62</ele><time>2025-09-24T00:33:48.000Z</time></trkpt>
        <trkpt lat="29.367053" lon="103.0165425"><ele>2418.01</ele><time>2025-09-24T00:33:52.000Z</time></trkpt>
        <trkpt lat="29.3671097" lon="103.0166174"><ele>2414.64</ele><time>2025-09-24T00:35:20.000Z</time></trkpt>
        <trkpt lat="29.3670336" lon="103.0166353"><ele>2400.89</ele><time>2025-09-24T00:35:34.000Z</time></trkpt>
        <trkpt lat="29.3669503" lon="103.0166784"><ele>2392.28</ele><time>2025-09-24T00:35:58.000Z</time></trkpt>
        <trkpt lat="29.3668843" lon="103.0167581"><ele>2385.67</ele><time>2025-09-24T00:36:34.000Z</time></trkpt>
        <trkpt lat="29.3668058" lon="103.0168175"><ele>2378.53</ele><time>2025-09-24T00:36:50.000Z</time></trkpt>
        <trkpt lat="29.3667236" lon="103.0168775"><ele>2375.46</ele><time>2025-09-24T00:37:02.000Z</time></trkpt>
        <trkpt lat="29.3667091" lon="103.0169651"><ele>2374.18</ele><time>2025-09-24T00:37:40.000Z</time></trkpt>
        <trkpt lat="29.3667398" lon="103.0170619"><ele>2362.63</ele><time>2025-09-24T00:37:56.000Z</time></trkpt>
        <trkpt lat="29.3667117" lon="103.0171495"><ele>2353.94</ele><time>2025-09-24T00:38:24.000Z</time></trkpt>
        <trkpt lat="29.366698" lon="103.0172577"><ele>2345.98</ele><time>2025-09-24T00:38:46.000Z</time></trkpt>
        <trkpt lat="29.3666896" lon="103.017367"><ele>2339.96</ele><time>2025-09-24T00:39:38.000Z</time></trkpt>
        <trkpt lat="29.3666379" lon="103.0174584"><ele>2331.54</ele><time>2025-09-24T00:40:14.000Z</time></trkpt>
        <trkpt lat="29.3665943" lon="103.0175547"><ele>2319.74</ele><time>2025-09-24T00:40:36.000Z</time></trkpt>
        <trkpt lat="29.3665647" lon="103.0176829"><ele>2311.1</ele><time>2025-09-24T00:41:16.000Z</time></trkpt>
        <trkpt lat="29.36659" lon="103.0177665"><ele>2303.12</ele><time>2025-09-24T00:41:30.000Z</time></trkpt>
        <trkpt lat="29.3666724" lon="103.0178083"><ele>2299.13</ele><time>2025-09-24T00:42:24.000Z</time></trkpt>
        <trkpt lat="29.3667073" lon="103.0178924"><ele>2290.36</ele><time>2025-09-24T00:42:52.000Z</time></trkpt>
        <trkpt lat="29.3667626" lon="103.0179753"><ele>2283.26</ele><time>2025-09-24T00:43:22.000Z</time></trkpt>
        <trkpt lat="29.3667723" lon="103.018082"><ele>2274.56</ele><time>2025-09-24T00:43:54.000Z</time></trkpt>
        <trkpt lat="29.3667502" lon="103.0181941"><ele>2266.48</ele><time>2025-09-24T00:44:08.000Z</time></trkpt>
        <trkpt lat="29.3667722" lon="103.018306"><ele>2262.76</ele><time>2025-09-24T00:45:02.000Z</time></trkpt>
        <trkpt lat="29.3668179" lon="103.0184041"><ele>2254.43</ele><time>2025-09-24T00:45:16.000Z</time></trkpt>
        <trkpt lat="29.366847" lon="103.0185075"><ele>2249.03</ele><time>2025-09-24T00:45:34.000Z</time></trkpt>
        <trkpt lat="29.3668653" lon="103.0186185"><ele>2246.09</ele><time>2025-09-24T00:45:56.000Z</time></trkpt>
        <trkpt lat="29.366907" lon="103.0187211"><ele>2242.95</ele><time>2025-09-24T00:46:20.000Z</time></trkpt>
        <trkpt lat="29.3669567" lon="103.0188111"><ele>2238.94</ele><time>2025-09-24T00:46:46.000Z</time></trkpt>
        <trkpt lat="29.3670262" lon="103.0188804"><ele>2234.92</ele><time>2025-09-24T00:47:04.000Z</time></trkpt>
        <trkpt lat="29.3670177" lon="103.0189012"><ele>2232.16</ele><time>2025-09-24T00:47:16.000Z</time></trkpt>
        <trkpt lat="29.3670088" lon="103.0189815"><ele>2229.99</ele><time>2025-09-24T00:47:40.000Z</time></trkpt>
        <trkpt lat="29.3670001" lon="103.0190939"><ele>2228.69</ele><time>2025-09-24T00:48:16.000Z</time></trkpt>
        <trkpt lat="29.3670418" lon="103.019188"><ele>2223.43</ele><time>2025-09-24T00:48:38.000Z</time></trkpt>
        <trkpt lat="29.3670578" lon="103.0192932"><ele>2218.2</ele><time>2025-09-24T00:49:46.000Z</time></trkpt>
        <trkpt lat="29.3670929" lon="103.019402"><ele>2210.2</ele><time>2025-09-24T00:50:08.000Z</time></trkpt>
        <trkpt lat="29.3670785" lon="103.0195039"><ele>2203.06</ele><time>2025-09-24T00:50:22.000Z</time></trkpt>
        <trkpt lat="29.3671336" lon="103.0195709"><ele>2199.99</ele><time>2025-09-24T00:50:36.000Z</time></trkpt>
        <trkpt lat="29.3672143" lon="103.019615"><ele>2197.31</ele><time>2025-09-24T00:50:58.000Z</time></trkpt>
        <trkpt lat="29.3672616" lon="103.0197044"><ele>2192.72</ele><time>2025-09-24T00:51:22.000Z</time></trkpt>
        <trkpt lat="29.3673026" lon="103.0197991"><ele>2187.58</ele><time>2025-09-24T00:51:42.000Z</time></trkpt>
        <trkpt lat="29.3673609" lon="103.0198801"><ele>2183.15</ele><time>2025-09-24T00:52:10.000Z</time></trkpt>
        <trkpt lat="29.3674141" lon="103.0199733"><ele>2178.49</ele><time>2025-09-24T00:52:28.000Z</time></trkpt>
        <trkpt lat="29.3674303" lon="103.020001"><ele>2174.26</ele><time>2025-09-24T00:52:30.000Z</time></trkpt>
        <trkpt lat="29.3674618" lon="103.0200731"><ele>2171.39</ele><time>2025-09-24T00:52:58.000Z</time></trkpt>
        <trkpt lat="29.3675337" lon="103.0201364"><ele>2168.7</ele><time>2025-09-24T00:53:20.000Z</time></trkpt>
        <trkpt lat="29.3676228" lon="103.0201794"><ele>2164.95</ele><time>2025-09-24T00:53:38.000Z</time></trkpt>
        <trkpt lat="29.3676549" lon="103.0202708"><ele>2160.99</ele><time>2025-09-24T00:54:10.000Z</time></trkpt>
        <trkpt lat="29.3677007" lon="103.0203597"><ele>2157.45</ele><time>2025-09-24T00:54:26.000Z</time></trkpt>
        <trkpt lat="29.3677798" lon="103.0204169"><ele>2154.72</ele><time>2025-09-24T00:54:40.000Z</time></trkpt>
        <trkpt lat="29.3678543" lon="103.0204917"><ele>2151.47</ele><time>2025-09-24T00:55:10.000Z</time></trkpt>
        <trkpt lat="29.3679269" lon="103.0205604"><ele>2146.17</ele><time>2025-09-24T00:55:26.000Z</time></trkpt>
        <trkpt lat="29.3680105" lon="103.0205986"><ele>2141.15</ele><time>2025-09-24T00:55:44.000Z</time></trkpt>
        <trkpt lat="29.3680797" lon="103.020672"><ele>2136.9</ele><time>2025-09-24T00:56:04.000Z</time></trkpt>
        <trkpt lat="29.3681092" lon="103.0207726"><ele>2132.37</ele><time>2025-09-24T00:56:18.000Z</time></trkpt>
        <trkpt lat="29.3681528" lon="103.020871"><ele>2128.05</ele><time>2025-09-24T00:56:32.000Z</time></trkpt>
        <trkpt lat="29.3681473" lon="103.0209859"><ele>2124.68</ele><time>2025-09-24T00:56:44.000Z</time></trkpt>
        <trkpt lat="29.3681471" lon="103.021013"><ele>2123.02</ele><time>2025-09-24T00:56:50.000Z</time></trkpt>
        <trkpt lat="29.3681639" lon="103.0210902"><ele>2120.97</ele><time>2025-09-24T00:57:25.000Z</time></trkpt>
        <trkpt lat="29.3682266" lon="103.0211683"><ele>2115.63</ele><time>2025-09-24T00:57:52.000Z</time></trkpt>
        <trkpt lat="29.3682862" lon="103.0212199"><ele>2110.81</ele><time>2025-09-24T00:58:08.000Z</time></trkpt>
        <trkpt lat="29.36836" lon="103.0212756"><ele>2105.46</ele><time>2025-09-24T00:58:40.000Z</time></trkpt>
        <trkpt lat="29.3684141" lon="103.0213693"><ele>2100.64</ele><time>2025-09-24T00:58:56.000Z</time></trkpt>
        <trkpt lat="29.3684076" lon="103.0214612"><ele>2096.55</ele><time>2025-09-24T00:59:14.000Z</time></trkpt>
        <trkpt lat="29.3684091" lon="103.0215684"><ele>2092.91</ele><time>2025-09-24T00:59:40.000Z</time></trkpt>
        <trkpt lat="29.368416" lon="103.0216785"><ele>2089.03</ele><time>2025-09-24T01:00:00.000Z</time></trkpt>
        <trkpt lat="29.368358" lon="103.0217631"><ele>2085.58</ele><time>2025-09-24T01:00:16.000Z</time></trkpt>
        <trkpt lat="29.3683518" lon="103.0218654"><ele>2083.53</ele><time>2025-09-24T01:00:28.000Z</time></trkpt>
        <trkpt lat="29.3683471" lon="103.0219718"><ele>2080.34</ele><time>2025-09-24T01:00:52.000Z</time></trkpt>
        <trkpt lat="29.3683069" lon="103.022076"><ele>2076.9</ele><time>2025-09-24T01:01:24.000Z</time></trkpt>
        <trkpt lat="29.368293" lon="103.0221193"><ele>2071.7</ele><time>2025-09-24T01:01:30.000Z</time></trkpt>
        <trkpt lat="29.3682794" lon="103.0222037"><ele>2066.83</ele><time>2025-09-24T01:01:50.000Z</time></trkpt>
        <trkpt lat="29.3682595" lon="103.0223158"><ele>2063.49</ele><time>2025-09-24T01:02:20.000Z</time></trkpt>
        <trkpt lat="29.3682918" lon="103.0224216"><ele>2059.68</ele><time>2025-09-24T01:02:38.000Z</time></trkpt>
        <trkpt lat="29.3683211" lon="103.0225302"><ele>2056.33</ele><time>2025-09-24T01:02:54.000Z</time></trkpt>
        <trkpt lat="29.3683732" lon="103.0226345"><ele>2052.65</ele><time>2025-09-24T01:03:14.000Z</time></trkpt>
        <trkpt lat="29.3684485" lon="103.0227186"><ele>2049.1</ele><time>2025-09-24T01:03:30.000Z</time></trkpt>
        <trkpt lat="29.3684902" lon="103.0228155"><ele>2045.02</ele><time>2025-09-24T01:03:46.000Z</time></trkpt>
        <trkpt lat="29.3685002" lon="103.0229264"><ele>2040.89</ele><time>2025-09-24T01:04:18.000Z</time></trkpt>
        <trkpt lat="29.3685194" lon="103.0230396"><ele>2036.58</ele><time>2025-09-24T01:04:34.000Z</time></trkpt>
        <trkpt lat="29.3685394" lon="103.0231477"><ele>2032.31</ele><time>2025-09-24T01:04:48.000Z</time></trkpt>
        <trkpt lat="29.3685914" lon="103.0232397"><ele>2028.71</ele><time>2025-09-24T01:05:02.000Z</time></trkpt>
        <trkpt lat="29.3686673" lon="103.0233009"><ele>2025.44</ele><time>2025-09-24T01:05:18.000Z</time></trkpt>
        <trkpt lat="29.3687598" lon="103.0233698"><ele>2022.45</ele><time>2025-09-24T01:05:34.000Z</time></trkpt>
        <trkpt lat="29.3686772" lon="103.0234092"><ele>2019.64</ele><time>2025-09-24T01:08:02.000Z</time></trkpt>
        <trkpt lat="29.3685843" lon="103.0234668"><ele>2017.19</ele><time>2025-09-24T01:08:14.000Z</time></trkpt>
        <trkpt lat="29.3684927" lon="103.0235161"><ele>2014.9</ele><time>2025-09-24T01:08:24.000Z</time></trkpt>
        <trkpt lat="29.3684084" lon="103.0235606"><ele>2013.15</ele><time>2025-09-24T01:08:34.000Z</time></trkpt>
        <trkpt lat="29.3683378" lon="103.0236395"><ele>2011.52</ele><time>2025-09-24T01:08:44.000Z</time></trkpt>
        <trkpt lat="29.3682506" lon="103.0236951"><ele>2011.02</ele><time>2025-09-24T01:08:54.000Z</time></trkpt>
        <trkpt lat="29.3681975" lon="103.023713"><ele>2010.5</ele><time>2025-09-24T01:09:02.000Z</time></trkpt>
        <trkpt lat="29.3681347" lon="103.0237749"><ele>2010.74</ele><time>2025-09-24T01:10:08.000Z</time></trkpt>
        <trkpt lat="29.3681064" lon="103.0238822"><ele>2010.7</ele><time>2025-09-24T01:10:18.000Z</time></trkpt>
        <trkpt lat="29.3680802" lon="103.0239861"><ele>2010.25</ele><time>2025-09-24T01:10:28.000Z</time></trkpt>
        <trkpt lat="29.3680824" lon="103.0240813"><ele>2009.02</ele><time>2025-09-24T01:10:40.000Z</time></trkpt>
        <trkpt lat="29.3680797" lon="103.0241875"><ele>2007.41</ele><time>2025-09-24T01:11:00.000Z</time></trkpt>
        <trkpt lat="29.3680743" lon="103.0243003"><ele>2006.11</ele><time>2025-09-24T01:11:14.000Z</time></trkpt>
        <trkpt lat="29.3680462" lon="103.0244048"><ele>2004.78</ele><time>2025-09-24T01:11:24.000Z</time></trkpt>
        <trkpt lat="29.3679978" lon="103.0245045"><ele>2003.96</ele><time>2025-09-24T01:11:37.000Z</time></trkpt>
        <trkpt lat="29.3679744" lon="103.0246067"><ele>2004.13</ele><time>2025-09-24T01:11:47.000Z</time></trkpt>
        <trkpt lat="29.3679814" lon="103.0247147"><ele>2004.43</ele><time>2025-09-24T01:11:57.000Z</time></trkpt>
        <trkpt lat="29.3679729" lon="103.0248233"><ele>2004.37</ele><time>2025-09-24T01:12:07.000Z</time></trkpt>
        <trkpt lat="29.3679573" lon="103.0249194"><ele>2003.84</ele><time>2025-09-24T01:12:21.000Z</time></trkpt>
        <trkpt lat="29.3679328" lon="103.0250257"><ele>2002.92</ele><time>2025-09-24T01:12:39.000Z</time></trkpt>
        <trkpt lat="29.3678842" lon="103.0251281"><ele>2002.52</ele><time>2025-09-24T01:12:49.000Z</time></trkpt>
        <trkpt lat="29.3678167" lon="103.0252114"><ele>2001.15</ele><time>2025-09-24T01:12:59.000Z</time></trkpt>
        <trkpt lat="29.3677416" lon="103.0252963"><ele>2000.64</ele><time>2025-09-24T01:13:09.000Z</time></trkpt>
        <trkpt lat="29.3676804" lon="103.0253879"><ele>1999.89</ele><time>2025-09-24T01:13:19.000Z</time></trkpt>
        <trkpt lat="29.3676045" lon="103.0254585"><ele>1999.23</ele><time>2025-09-24T01:13:29.000Z</time></trkpt>
        <trkpt lat="29.367509" lon="103.0254888"><ele>1999.36</ele><time>2025-09-24T01:13:37.000Z</time></trkpt>
        <trkpt lat="29.3674145" lon="103.025522"><ele>1998.02</ele><time>2025-09-24T01:13:49.000Z</time></trkpt>
        <trkpt lat="29.3673253" lon="103.0255738"><ele>1997.6</ele><time>2025-09-24T01:13:59.000Z</time></trkpt>
        <trkpt lat="29.3672576" lon="103.0256543"><ele>1997.5</ele><time>2025-09-24T01:14:13.000Z</time></trkpt>
        <trkpt lat="29.3672208" lon="103.0257522"><ele>1997.27</ele><time>2025-09-24T01:14:25.000Z</time></trkpt>
        <trkpt lat="29.3672097" lon="103.0258584"><ele>1997.37</ele><time>2025-09-24T01:14:35.000Z</time></trkpt>
        <trkpt lat="29.3671965" lon="103.0259711"><ele>1996.53</ele><time>2025-09-24T01:14:43.000Z</time></trkpt>
        <trkpt lat="29.3671702" lon="103.0260868"><ele>1995.76</ele><time>2025-09-24T01:14:53.000Z</time></trkpt>
        <trkpt lat="29.3671512" lon="103.0262006"><ele>1994.16</ele><time>2025-09-24T01:15:03.000Z</time></trkpt>
        <trkpt lat="29.3671845" lon="103.0263002"><ele>1992.76</ele><time>2025-09-24T01:15:15.000Z</time></trkpt>
        <trkpt lat="29.3672612" lon="103.0262736"><ele>1989.99</ele><time>2025-09-24T01:15:23.000Z</time></trkpt>
        <trkpt lat="29.3673411" lon="103.0261739"><ele>1987.81</ele><time>2025-09-24T01:15:33.000Z</time></trkpt>
        <trkpt lat="29.3674075" lon="103.0260602"><ele>1987.42</ele><time>2025-09-24T01:15:41.000Z</time></trkpt>
        <trkpt lat="29.3674985" lon="103.0260015"><ele>1988.35</ele><time>2025-09-24T01:16:15.000Z</time></trkpt>
        <trkpt lat="29.3675886" lon="103.026012"><ele>1987.83</ele><time>2025-09-24T01:16:29.000Z</time></trkpt>
        <trkpt lat="29.3676776" lon="103.0260628"><ele>1984.89</ele><time>2025-09-24T01:16:41.000Z</time></trkpt>
        <trkpt lat="29.3677366" lon="103.0261587"><ele>1982.68</ele><time>2025-09-24T01:16:53.000Z</time></trkpt>
        <trkpt lat="29.3677915" lon="103.0262523"><ele>1981.09</ele><time>2025-09-24T01:17:03.000Z</time></trkpt>
        <trkpt lat="29.3678434" lon="103.0263596"><ele>1978.44</ele><time>2025-09-24T01:17:15.000Z</time></trkpt>
        <trkpt lat="29.3678835" lon="103.0264756"><ele>1975.92</ele><time>2025-09-24T01:17:27.000Z</time></trkpt>
        <trkpt lat="29.367909" lon="103.0265926"><ele>1973.21</ele><time>2025-09-24T01:17:37.000Z</time></trkpt>
        <trkpt lat="29.3679276" lon="103.0267098"><ele>1970.2</ele><time>2025-09-24T01:17:47.000Z</time></trkpt>
        <trkpt lat="29.3679526" lon="103.026831"><ele>1966.9</ele><time>2025-09-24T01:18:01.000Z</time></trkpt>
        <trkpt lat="29.3679876" lon="103.0269489"><ele>1963.36</ele><time>2025-09-24T01:18:13.000Z</time></trkpt>
        <trkpt lat="29.3680685" lon="103.0270135"><ele>1959.09</ele><time>2025-09-24T01:18:23.000Z</time></trkpt>
        <trkpt lat="29.368161" lon="103.0270582"><ele>1956.49</ele><time>2025-09-24T01:18:31.000Z</time></trkpt>
        <trkpt lat="29.3682603" lon="103.0270642"><ele>1955.11</ele><time>2025-09-24T01:18:41.000Z</time></trkpt>
        <trkpt lat="29.3683266" lon="103.0271385"><ele>1953.06</ele><time>2025-09-24T01:18:51.000Z</time></trkpt>
        <trkpt lat="29.3683874" lon="103.0272266"><ele>1951.34</ele><time>2025-09-24T01:19:01.000Z</time></trkpt>
        <trkpt lat="29.3684262" lon="103.0273381"><ele>1950.46</ele><time>2025-09-24T01:19:11.000Z</time></trkpt>
        <trkpt lat="29.368428" lon="103.0274481"><ele>1948.22</ele><time>2025-09-24T01:19:21.000Z</time></trkpt>
        <trkpt lat="29.3683821" lon="103.0275453"><ele>1946.55</ele><time>2025-09-24T01:19:33.000Z</time></trkpt>
        <trkpt lat="29.3683386" lon="103.0276582"><ele>1944.74</ele><time>2025-09-24T01:19:45.000Z</time></trkpt>
        <trkpt lat="29.3683707" lon="103.0277461"><ele>1943.31</ele><time>2025-09-24T01:19:55.000Z</time></trkpt>
        <trkpt lat="29.3684554" lon="103.0277899"><ele>1941.88</ele><time>2025-09-24T01:20:05.000Z</time></trkpt>
        <trkpt lat="29.3685344" lon="103.0277809"><ele>1940.06</ele><time>2025-09-24T01:20:15.000Z</time></trkpt>
        <trkpt lat="29.3685772" lon="103.0278483"><ele>1938.38</ele><time>2025-09-24T01:20:27.000Z</time></trkpt>
        <trkpt lat="29.3685919" lon="103.0279511"><ele>1936.97</ele><time>2025-09-24T01:20:39.000Z</time></trkpt>
        <trkpt lat="29.3686336" lon="103.0280488"><ele>1935.51</ele><time>2025-09-24T01:20:49.000Z</time></trkpt>
        <trkpt lat="29.3686628" lon="103.0281065"><ele>1933.39</ele><time>2025-09-24T01:20:55.000Z</time></trkpt>
        <trkpt lat="29.3687002" lon="103.0282059"><ele>1931.81</ele><time>2025-09-24T01:21:21.000Z</time></trkpt>
        <trkpt lat="29.3687138" lon="103.028317"><ele>1930.1</ele><time>2025-09-24T01:21:31.000Z</time></trkpt>
        <trkpt lat="29.3687275" lon="103.028424"><ele>1927.91</ele><time>2025-09-24T01:21:39.000Z</time></trkpt>
        <trkpt lat="29.3687773" lon="103.0285082"><ele>1926.34</ele><time>2025-09-24T01:21:49.000Z</time></trkpt>
        <trkpt lat="29.3688328" lon="103.028593"><ele>1923.65</ele><time>2025-09-24T01:21:59.000Z</time></trkpt>
        <trkpt lat="29.3688721" lon="103.0286918"><ele>1922.41</ele><time>2025-09-24T01:22:11.000Z</time></trkpt>
        <trkpt lat="29.3689154" lon="103.0288002"><ele>1921.25</ele><time>2025-09-24T01:22:23.000Z</time></trkpt>
        <trkpt lat="29.3689458" lon="103.0289183"><ele>1919.04</ele><time>2025-09-24T01:22:37.000Z</time></trkpt>
        <trkpt lat="29.3689331" lon="103.0289561"><ele>1916.99</ele><time>2025-09-24T01:22:43.000Z</time></trkpt>
        <trkpt lat="29.3688914" lon="103.0290299"><ele>1915.64</ele><time>2025-09-24T01:22:55.000Z</time></trkpt>
        <trkpt lat="29.3688694" lon="103.0291387"><ele>1913.57</ele><time>2025-09-24T01:23:07.000Z</time></trkpt>
        <trkpt lat="29.3689319" lon="103.0292087"><ele>1911.72</ele><time>2025-09-24T01:23:19.000Z</time></trkpt>
        <trkpt lat="29.369038" lon="103.0292322"><ele>1909.72</ele><time>2025-09-24T01:23:31.000Z</time></trkpt>
        <trkpt lat="29.3691103" lon="103.0293086"><ele>1907.7</ele><time>2025-09-24T01:23:55.000Z</time></trkpt>
        <trkpt lat="29.369164" lon="103.0294029"><ele>1906.51</ele><time>2025-09-24T01:24:07.000Z</time></trkpt>
        <trkpt lat="29.3692415" lon="103.0294509"><ele>1903.92</ele><time>2025-09-24T01:24:15.000Z</time></trkpt>
        <trkpt lat="29.3693235" lon="103.0295213"><ele>1902.34</ele><time>2025-09-24T01:24:25.000Z</time></trkpt>
        <trkpt lat="29.3694015" lon="103.0295949"><ele>1898.58</ele><time>2025-09-24T01:24:33.000Z</time></trkpt>
        <trkpt lat="29.3694438" lon="103.0296941"><ele>1895.85</ele><time>2025-09-24T01:24:43.000Z</time></trkpt>
        <trkpt lat="29.3694761" lon="103.0297994"><ele>1893.07</ele><time>2025-09-24T01:24:53.000Z</time></trkpt>
        <trkpt lat="29.3695279" lon="103.0298936"><ele>1891.49</ele><time>2025-09-24T01:25:03.000Z</time></trkpt>
        <trkpt lat="29.3695912" lon="103.0299847"><ele>1889.79</ele><time>2025-09-24T01:25:13.000Z</time></trkpt>
        <trkpt lat="29.3696662" lon="103.0300712"><ele>1888.56</ele><time>2025-09-24T01:25:29.000Z</time></trkpt>
        <trkpt lat="29.3697369" lon="103.0301651"><ele>1886.6</ele><time>2025-09-24T01:25:41.000Z</time></trkpt>
        <trkpt lat="29.3697904" lon="103.0302628"><ele>1885.36</ele><time>2025-09-24T01:25:51.000Z</time></trkpt>
        <trkpt lat="29.3698485" lon="103.0303662"><ele>1883.51</ele><time>2025-09-24T01:26:03.000Z</time></trkpt>
        <trkpt lat="29.3698952" lon="103.0304609"><ele>1881.22</ele><time>2025-09-24T01:26:13.000Z</time></trkpt>
        <trkpt lat="29.3699648" lon="103.0305242"><ele>1876.99</ele><time>2025-09-24T01:26:27.000Z</time></trkpt>
        <trkpt lat="29.3700053" lon="103.030625"><ele>1873.83</ele><time>2025-09-24T01:26:53.000Z</time></trkpt>
        <trkpt lat="29.3700649" lon="103.0307096"><ele>1874.28</ele><time>2025-09-24T01:27:13.000Z</time></trkpt>
        <trkpt lat="29.3701406" lon="103.0307769"><ele>1872.11</ele><time>2025-09-24T01:27:25.000Z</time></trkpt>
        <trkpt lat="29.3702337" lon="103.0308274"><ele>1870.52</ele><time>2025-09-24T01:27:41.000Z</time></trkpt>
        <trkpt lat="29.3703102" lon="103.0308926"><ele>1867.95</ele><time>2025-09-24T01:27:51.000Z</time></trkpt>
        <trkpt lat="29.3704019" lon="103.0309372"><ele>1868.67</ele><time>2025-09-24T01:28:03.000Z</time></trkpt>
        <trkpt lat="29.3705144" lon="103.030944"><ele>1867.12</ele><time>2025-09-24T01:28:16.000Z</time></trkpt>
        <trkpt lat="29.3706118" lon="103.0309588"><ele>1865.64</ele><time>2025-09-24T01:28:24.000Z</time></trkpt>
        <trkpt lat="29.3707155" lon="103.0309771"><ele>1863.83</ele><time>2025-09-24T01:28:36.000Z</time></trkpt>
        <trkpt lat="29.3708103" lon="103.0310032"><ele>1862.27</ele><time>2025-09-24T01:28:46.000Z</time></trkpt>
        <trkpt lat="29.3709074" lon="103.0310409"><ele>1860.45</ele><time>2025-09-24T01:28:56.000Z</time></trkpt>
        <trkpt lat="29.3710016" lon="103.0310759"><ele>1858.89</ele><time>2025-09-24T01:29:06.000Z</time></trkpt>
        <trkpt lat="29.3711014" lon="103.0311063"><ele>1857.47</ele><time>2025-09-24T01:29:16.000Z</time></trkpt>
        <trkpt lat="29.3711923" lon="103.0311351"><ele>1857.85</ele><time>2025-09-24T01:29:24.000Z</time></trkpt>
        <trkpt lat="29.3712598" lon="103.0312047"><ele>1857.91</ele><time>2025-09-24T01:29:34.000Z</time></trkpt>
        <trkpt lat="29.3713371" lon="103.0312856"><ele>1857.45</ele><time>2025-09-24T01:29:44.000Z</time></trkpt>
        <trkpt lat="29.3714258" lon="103.0313599"><ele>1857.42</ele><time>2025-09-24T01:29:54.000Z</time></trkpt>
        <trkpt lat="29.3714982" lon="103.0314572"><ele>1856.76</ele><time>2025-09-24T01:30:04.000Z</time></trkpt>
        <trkpt lat="29.3715669" lon="103.0315581"><ele>1855.58</ele><time>2025-09-24T01:30:14.000Z</time></trkpt>
        <trkpt lat="29.3716405" lon="103.0316466"><ele>1855.64</ele><time>2025-09-24T01:30:26.000Z</time></trkpt>
        <trkpt lat="29.3717118" lon="103.0317365"><ele>1856.23</ele><time>2025-09-24T01:30:36.000Z</time></trkpt>
        <trkpt lat="29.3717903" lon="103.0318047"><ele>1856.36</ele><time>2025-09-24T01:30:46.000Z</time></trkpt>
        <trkpt lat="29.3718745" lon="103.031851"><ele>1855.98</ele><time>2025-09-24T01:30:56.000Z</time></trkpt>
        <trkpt lat="29.3719668" lon="103.0318598"><ele>1855.5</ele><time>2025-09-24T01:31:06.000Z</time></trkpt>
        <trkpt lat="29.3720633" lon="103.0318318"><ele>1855.78</ele><time>2025-09-24T01:31:16.000Z</time></trkpt>
        <trkpt lat="29.3721547" lon="103.0317779"><ele>1855.32</ele><time>2025-09-24T01:31:26.000Z</time></trkpt>
        <trkpt lat="29.3722424" lon="103.031706"><ele>1854.56</ele><time>2025-09-24T01:31:36.000Z</time></trkpt>
        <trkpt lat="29.3723231" lon="103.0316443"><ele>1852.87</ele><time>2025-09-24T01:31:44.000Z</time></trkpt>
        <trkpt lat="29.372412" lon="103.03159"><ele>1851.54</ele><time>2025-09-24T01:31:54.000Z</time></trkpt>
        <trkpt lat="29.3725046" lon="103.0315517"><ele>1849.13</ele><time>2025-09-24T01:32:04.000Z</time></trkpt>
        <trkpt lat="29.3725974" lon="103.0315417"><ele>1847.84</ele><time>2025-09-24T01:32:14.000Z</time></trkpt>
        <trkpt lat="29.3726932" lon="103.0315266"><ele>1847.23</ele><time>2025-09-24T01:32:24.000Z</time></trkpt>
        <trkpt lat="29.3727868" lon="103.0315437"><ele>1846.6</ele><time>2025-09-24T01:32:34.000Z</time></trkpt>
        <trkpt lat="29.3728675" lon="103.0316079"><ele>1845.74</ele><time>2025-09-24T01:32:44.000Z</time></trkpt>
        <trkpt lat="29.3729508" lon="103.0316802"><ele>1844.75</ele><time>2025-09-24T01:32:54.000Z</time></trkpt>
        <trkpt lat="29.3730376" lon="103.0317332"><ele>1844.23</ele><time>2025-09-24T01:33:04.000Z</time></trkpt>
        <trkpt lat="29.3731148" lon="103.0317966"><ele>1843.99</ele><time>2025-09-24T01:33:12.000Z</time></trkpt>
        <trkpt lat="29.3731791" lon="103.0318876"><ele>1842.5</ele><time>2025-09-24T01:33:20.000Z</time></trkpt>
        <trkpt lat="29.3732238" lon="103.031999"><ele>1841.43</ele><time>2025-09-24T01:33:30.000Z</time></trkpt>
        <trkpt lat="29.3732003" lon="103.0320587"><ele>1840.2</ele><time>2025-09-24T01:33:34.000Z</time></trkpt>
        <trkpt lat="29.3731904" lon="103.0321521"><ele>1839.55</ele><time>2025-09-24T01:33:46.000Z</time></trkpt>
        <trkpt lat="29.373205" lon="103.0322578"><ele>1838.49</ele><time>2025-09-24T01:33:52.000Z</time></trkpt>
        <trkpt lat="29.3732089" lon="103.0323746"><ele>1837.89</ele><time>2025-09-24T01:34:00.000Z</time></trkpt>
        <trkpt lat="29.3732239" lon="103.0324839"><ele>1837.37</ele><time>2025-09-24T01:34:08.000Z</time></trkpt>
        <trkpt lat="29.3732534" lon="103.0325846"><ele>1837.62</ele><time>2025-09-24T01:34:16.000Z</time></trkpt>
        <trkpt lat="29.3732995" lon="103.0326787"><ele>1836.82</ele><time>2025-09-24T01:34:26.000Z</time></trkpt>
        <trkpt lat="29.3733868" lon="103.0327337"><ele>1837.98</ele><time>2025-09-24T01:34:36.000Z</time></trkpt>
        <trkpt lat="29.3734305" lon="103.032823"><ele>1836.52</ele><time>2025-09-24T01:34:44.000Z</time></trkpt>
        <trkpt lat="29.3734536" lon="103.0329234"><ele>1837.57</ele><time>2025-09-24T01:34:52.000Z</time></trkpt>
        <trkpt lat="29.3734619" lon="103.0330292"><ele>1838.01</ele><time>2025-09-24T01:35:02.000Z</time></trkpt>
        <trkpt lat="29.3734491" lon="103.0331359"><ele>1839.45</ele><time>2025-09-24T01:35:14.000Z</time></trkpt>
        <trkpt lat="29.3733982" lon="103.0332262"><ele>1841.07</ele><time>2025-09-24T01:35:24.000Z</time></trkpt>
        <trkpt lat="29.3733982" lon="103.0332262"><ele>1841.07</ele><time>2025-09-24T01:35:34.000Z</time></trkpt>
      </trkseg>
  </trk>
</gpx>